Provisional Data: Baldwin Run near Wellsboro Junction, PA


Please select a monitoring station.
Please select start date.
Please select start date.

Toggle Unit: C/F Toggle Unit: C/F
Sample Time Temperature (C) Temperature (F) Specific Conductivity (mS/cm) pH   Turbidity (NTU+) DO (mg/L)
10/20/2020 12:00:00 AM 9.66 49.388 0.119 7.59 5.27 10.66
10/20/2020 12:15:00 AM 9.68 49.424 0.119 7.58 4.98 10.66
10/20/2020 12:30:00 AM 9.7 49.46 0.119 7.6 5.09 10.66
10/20/2020 12:45:00 AM 9.72 49.496 0.119 7.6 5.11 10.65
10/20/2020 1:00:00 AM 9.74 49.532 0.119 7.59 5.13 10.65
10/20/2020 1:15:00 AM 9.76 49.568 0.118 7.59 4.83 10.65
10/20/2020 1:30:00 AM 9.78 49.604 0.118 7.6 4.74 10.64
10/20/2020 1:45:00 AM 9.8 49.64 0.118 7.58 4.54 10.63
10/20/2020 2:00:00 AM 9.82 49.676 0.118 7.59 4.66 10.63
10/20/2020 2:15:00 AM 9.84 49.712 0.118 7.58 4.74 10.6
10/20/2020 2:30:00 AM 9.87 49.766 0.117 7.59 4.99 10.58
10/20/2020 2:45:00 AM 9.89 49.802 0.117 7.58 4.85 10.57
10/20/2020 3:00:00 AM 9.92 49.856 0.117 7.6 4.95 10.56
10/20/2020 3:15:00 AM 9.94 49.892 0.117 7.59 4.77 10.56
10/20/2020 3:30:00 AM 9.97 49.946 0.117 7.6 4.72 10.56
10/20/2020 3:45:00 AM 10.01 50.018 0.116 7.6 4.82 10.56
10/20/2020 4:00:00 AM 10.04 50.072 0.116 7.6 4.72 10.55
10/20/2020 4:15:00 AM 10.05 50.09 0.116 7.6 4.97 10.55
10/20/2020 4:30:00 AM 10.08 50.144 0.116 7.61 5.09 10.54
10/20/2020 4:45:00 AM 10.1 50.18 0.116 7.6 4.91 10.54
10/20/2020 5:00:00 AM 10.12 50.216 0.116 7.59 4.93 10.53
10/20/2020 5:15:00 AM 10.14 50.252 0.116 7.59 4.88 10.52
10/20/2020 5:30:00 AM 10.15 50.27 0.116 7.59 4.66 10.52
10/20/2020 5:45:00 AM 10.18 50.324 0.116 7.59 4.87 10.52
10/20/2020 6:00:00 AM 10.22 50.396 0.115 7.59 5.36 10.49
10/20/2020 6:15:00 AM 10.27 50.486 0.113 7.58 5.74 10.46
10/20/2020 6:30:00 AM 10.31 50.558 0.113 7.57 6.47 10.44
10/20/2020 6:45:00 AM 10.36 50.648 0.11 7.57 8.87 10.45
10/20/2020 7:00:00 AM 10.37 50.666 0.11 7.55 8.7 10.44
10/20/2020 7:15:00 AM 10.38 50.684 0.109 7.55 9.91 10.45
10/20/2020 7:30:00 AM 10.4 50.72 0.109 7.55 12.4 10.46
10/20/2020 7:45:00 AM 10.41 50.738 0.111 7.55 21.12 10.48
10/20/2020 8:00:00 AM 10.42 50.756 0.113 7.56 23.97 10.49
10/20/2020 8:15:00 AM 10.44 50.792 0.115 7.55 24.51 10.48
10/20/2020 8:30:00 AM 10.46 50.828 0.114 7.57 25.29 10.48
10/20/2020 8:45:00 AM 10.48 50.864 0.114 7.57 16.29 10.49
10/20/2020 9:00:00 AM 10.51 50.918 0.113 7.57 14.95 10.48
10/20/2020 9:15:00 AM 10.54 50.972 0.113 7.57 11.83 10.48
10/20/2020 9:30:00 AM 10.56 51.008 0.114 7.56 11 10.48
10/20/2020 9:45:00 AM 10.6 51.08 0.115 7.56 9.88 10.48
10/20/2020 10:00:00 AM 10.64 51.152 0.115 7.56 9.37 10.47
10/20/2020 10:15:00 AM 10.69 51.242 0.115 7.57 8.4 10.47
10/20/2020 10:30:00 AM 10.73 51.314 0.115 7.58 8.14 10.46
10/20/2020 10:45:00 AM 10.77 51.386 0.115 7.58 7.76 10.45
10/20/2020 11:00:00 AM 10.8 51.44 0.115 7.58 7.32 10.44
10/20/2020 11:15:00 AM 10.84 51.512 0.114 7.58 7.3 10.45
10/20/2020 11:30:00 AM 10.87 51.566 0.114 7.59 7.27 10.46
10/20/2020 11:45:00 AM 10.9 51.62 0.114 7.57 7.22 10.46
10/20/2020 12:00:00 PM 10.92 51.656 0.113 7.59 7.36 10.45
10/20/2020 12:15:00 PM 10.94 51.692 0.113 7.58 7.44 10.45
10/20/2020 12:30:00 PM 10.95 51.71 0.112 7.57 7.75 10.45
10/20/2020 12:45:00 PM 10.96 51.728 0.112 7.57 6.72 10.43
10/20/2020 1:00:00 PM 10.98 51.764 0.112 7.58 6.73 10.44
10/20/2020 1:15:00 PM 10.98 51.764 0.112 7.58 6.42 10.43
10/20/2020 1:30:00 PM 11.01 51.818 0.111 7.57 75.02 10.43
10/20/2020 1:45:00 PM 11.05 51.89 0.112 7.58 6.11 10.42
10/20/2020 2:00:00 PM 11.05 51.89 0.111 7.58 5.8 10.4
10/20/2020 2:15:00 PM 11.06 51.908 0.111 7.57 5.77 10.4
10/20/2020 2:30:00 PM 11.08 51.944 0.111 7.58 6.02 10.39
10/20/2020 2:45:00 PM 11.08 51.944 0.111 7.59 5.69 10.39
10/20/2020 3:00:00 PM 11.08 51.944 0.111 7.58 6.13 10.39
10/20/2020 3:15:00 PM 11.08 51.944 0.11 7.59 6.46 10.39
10/20/2020 3:30:00 PM 11.07 51.926 0.11 7.59 6.21 10.38
10/20/2020 3:45:00 PM 11.05 51.89 0.11 7.59 6.03 10.39
10/20/2020 4:00:00 PM 11.03 51.854 0.11 7.6 6.05 10.39
10/20/2020 4:15:00 PM 11.01 51.818 0.109 7.6 5.81 10.4
10/20/2020 4:30:00 PM 10.99 51.782 0.109 7.6 6.07 10.4
10/20/2020 4:45:00 PM 10.97 51.746 0.109 7.59 6.04 10.4
10/20/2020 5:00:00 PM 10.94 51.692 0.109 7.59 6.46 10.42
10/20/2020 5:15:00 PM 10.91 51.638 0.11 7.6 6.63 10.43
10/20/2020 5:30:00 PM 10.87 51.566 0.11 7.58 6.81 10.43
10/20/2020 5:45:00 PM 10.84 51.512 0.11 7.59 6.85 10.44
10/20/2020 6:00:00 PM 10.8 51.44 0.11 7.59 6.36 10.45
10/20/2020 6:15:00 PM 10.77 51.386 0.11 7.59 6.31 10.45
10/20/2020 6:30:00 PM 10.72 51.296 0.11 7.57 5.92 10.46
10/20/2020 6:45:00 PM 10.69 51.242 0.11 7.6 5.88 10.47
10/20/2020 7:00:00 PM 10.65 51.17 0.111 7.6 5.79 10.48
10/20/2020 7:15:00 PM 10.61 51.098 0.111 7.59 5.42 10.5
10/20/2020 7:30:00 PM 10.57 51.026 0.111 7.59 5.43 10.51
10/20/2020 7:45:00 PM 10.54 50.972 0.111 7.6 5.48 10.52
10/20/2020 8:00:00 PM 10.5 50.9 0.111 7.6 5.5 10.53
10/20/2020 8:15:00 PM 10.48 50.864 0.111 7.59 5.34 10.54
10/20/2020 8:30:00 PM 10.45 50.81 0.111 7.6 5.29 10.54
10/20/2020 8:45:00 PM 10.43 50.774 0.111 7.59 5.24 10.55
10/20/2020 9:00:00 PM 10.41 50.738 0.112 7.6 5.24 10.56
10/20/2020 9:15:00 PM 10.39 50.702 0.112 7.6 4.97 10.57
10/20/2020 9:30:00 PM 10.36 50.648 0.111 7.59 4.93 10.58
10/20/2020 9:45:00 PM 10.35 50.63 0.112 7.59 4.99 10.57
10/20/2020 10:00:00 PM 10.33 50.594 0.111 7.58 4.77 10.58
10/20/2020 10:15:00 PM 10.31 50.558 0.111 7.6 5.09 10.58
10/20/2020 10:30:00 PM 10.29 50.522 0.111 7.59 4.61 10.59
10/20/2020 10:45:00 PM 10.27 50.486 0.111 7.6 4.65 10.6
10/20/2020 11:00:00 PM 10.26 50.468 0.111 7.6 4.58 10.6
10/20/2020 11:15:00 PM 10.24 50.432 0.111 7.58 4.5 10.61
10/20/2020 11:30:00 PM 10.23 50.414 0.111 7.6 4.62 10.61
10/20/2020 11:45:00 PM 10.21 50.378 0.111 7.6 4.63 10.61
10/21/2020 12:00:00 AM 10.2 50.36 0.111 7.6 4.47 10.62
10/21/2020 12:15:00 AM 10.18 50.324 0.111 7.59 4.47 10.62
10/21/2020 12:30:00 AM 10.17 50.306 0.111 7.59 4.53 10.62
10/21/2020 12:45:00 AM 10.16 50.288 0.111 7.59 4.47 10.62
10/21/2020 1:00:00 AM 10.15 50.27 0.111 7.59 4.26 10.62
10/21/2020 1:15:00 AM 10.14 50.252 0.111 7.59 4.36 10.62
10/21/2020 1:30:00 AM 10.13 50.234 0.111 7.59 4.43 10.62
10/21/2020 1:45:00 AM 10.12 50.216 0.111 7.6 4.24 10.62
10/21/2020 2:00:00 AM 10.11 50.198 0.111 7.6 4.25 10.63
10/21/2020 2:15:00 AM 10.1 50.18 0.111 7.59 4.28 10.62
10/21/2020 2:30:00 AM 10.09 50.162 0.111 7.59 4.24 10.62
10/21/2020 2:45:00 AM 10.08 50.144 0.111 7.58 4.36 10.63
10/21/2020 3:00:00 AM 10.08 50.144 0.111 7.58 4.24 10.63
10/21/2020 3:15:00 AM 10.07 50.126 0.111 7.59 4.54 10.63
10/21/2020 3:30:00 AM 10.06 50.108 0.111 7.59 4.39 10.63
10/21/2020 3:45:00 AM 10.06 50.108 0.111 7.59 4.85 10.63
10/21/2020 4:00:00 AM 10.05 50.09 0.111 7.6 4.08 10.63
10/21/2020 4:15:00 AM 10.05 50.09 0.111 7.6 3.99 10.62
10/21/2020 4:30:00 AM 10.04 50.072 0.111 7.58 4.04 10.62
10/21/2020 4:45:00 AM 10.04 50.072 0.112 7.58 4.11 10.62
10/21/2020 5:00:00 AM 10.04 50.072 0.112 7.59 4.26 10.62
10/21/2020 5:15:00 AM 10.04 50.072 0.112 7.59 4.2 10.62
10/21/2020 5:30:00 AM 10.04 50.072 0.112 7.58 3.9 10.62
10/21/2020 5:45:00 AM 10.05 50.09 0.112 7.59 4.19 10.61
10/21/2020 6:00:00 AM 10.06 50.108 0.112 7.58 3.84 10.61
10/21/2020 6:15:00 AM 10.06 50.108 0.112 7.57 4.01 10.61
10/21/2020 6:30:00 AM 10.07 50.126 0.112 7.58 4.12 10.61
10/21/2020 6:45:00 AM 10.08 50.144 0.112 7.57 3.99 10.6
10/21/2020 7:00:00 AM 10.09 50.162 0.112 7.57 3.95 10.6
10/21/2020 7:15:00 AM 10.11 50.198 0.112 7.57 4.17 10.6
10/21/2020 7:30:00 AM 10.12 50.216 0.112 7.57 4.38 10.59
10/21/2020 7:45:00 AM 10.13 50.234 0.112 7.57 4.06 10.59
10/21/2020 8:00:00 AM 10.15 50.27 0.112 7.57 4.14 10.59
10/21/2020 8:15:00 AM 10.17 50.306 0.112 7.57 4.12 10.59
10/21/2020 8:30:00 AM 10.19 50.342 0.112 7.55 4.63 10.59
10/21/2020 8:45:00 AM 10.22 50.396 0.113 7.56 4.48 10.59
10/21/2020 9:00:00 AM 10.27 50.486 0.113 7.56 4.25 10.6
10/21/2020 9:15:00 AM 10.35 50.63 0.113 7.56 4.69 10.6
10/21/2020 9:30:00 AM 10.44 50.792 0.113 7.57 4.41 10.58
10/21/2020 9:45:00 AM 10.5 50.9 0.113 7.56 4.48 10.54
10/21/2020 10:00:00 AM 10.56 51.008 0.113 7.57 4.41 10.53
10/21/2020 10:15:00 AM 10.68 51.224 0.113 7.58 4.46 10.51
10/21/2020 10:30:00 AM 10.84 51.512 0.113 7.59 4.5 10.48
10/21/2020 10:45:00 AM 11.03 51.854 0.113 7.6 4.15 10.44
10/21/2020 11:00:00 AM 11.19 52.142 0.113 7.6 4.29 10.4
10/21/2020 11:15:00 AM 11.31 52.358 0.113 7.59 4.25 10.35
10/21/2020 11:30:00 AM 11.42 52.556 0.113 7.6 4.33 10.32
10/21/2020 11:45:00 AM 11.56 52.808 0.113 7.61 4.43 10.28
10/21/2020 12:00:00 PM 11.69 53.042 0.113 7.6 4.58 10.23
10/21/2020 12:15:00 PM 11.86 53.348 0.113 7.61 4.52 10.18
10/21/2020 12:30:00 PM 12.04 53.672 0.113 7.61 4.4 10.14
10/21/2020 12:45:00 PM 12.17 53.906 0.113 7.61 4.49 10.08
10/21/2020 1:00:00 PM 12.31 54.158 0.113 7.61 4.29 10.04
10/21/2020 1:15:00 PM 12.46 54.428 0.113 7.61 4.5 10
10/21/2020 1:30:00 PM 12.55 54.59 0.113 7.61 4.28 9.95
10/21/2020 1:45:00 PM 12.7 54.86 0.113 7.61 4.35 9.91
10/21/2020 2:00:00 PM 12.86 55.148 0.113 7.61 4.44 9.88
10/21/2020 2:15:00 PM 12.99 55.382 0.114 7.61 4.42 9.84
10/21/2020 2:30:00 PM 13.07 55.526 0.114 7.61 4.27 9.8
10/21/2020 2:45:00 PM 13.15 55.67 0.114 7.6 4.43 9.78
10/21/2020 3:00:00 PM 13.2 55.76 0.114 7.6 4.33 9.77
10/21/2020 3:15:00 PM 13.29 55.922 0.114 7.6 4.62 9.76
10/21/2020 3:30:00 PM 13.34 56.012 0.114 7.6 4.46 9.71
10/21/2020 3:45:00 PM 13.34 56.012 0.114 7.59 4.52 9.69
10/21/2020 4:00:00 PM 13.35 56.03 0.114 7.58 4.49 9.69
10/21/2020 4:15:00 PM 13.35 56.03 0.114 7.58 4.69 9.69
10/21/2020 4:30:00 PM 13.37 56.066 0.114 7.58 4.37 9.69
10/21/2020 4:45:00 PM 13.39 56.102 0.115 7.58 4.59 9.68
10/21/2020 5:00:00 PM 13.37 56.066 0.115 7.58 4.19 9.68
10/21/2020 5:15:00 PM 13.37 56.066 0.115 7.56 4.49 9.68
10/21/2020 5:30:00 PM 13.34 56.012 0.115 7.56 4.4 9.68
10/21/2020 5:45:00 PM 13.3 55.94 0.115 7.55 4.25 9.68
10/21/2020 6:00:00 PM 13.27 55.886 0.115 7.55 4.34 9.68
10/21/2020 6:15:00 PM 13.23 55.814 0.115 7.55 4.38 9.68
10/21/2020 6:30:00 PM 13.2 55.76 0.115 7.55 4.45 9.69
10/21/2020 6:45:00 PM 13.17 55.706 0.115 7.55 4.66 9.69
10/21/2020 7:00:00 PM 13.13 55.634 0.115 7.54 4.56 9.7
10/21/2020 7:15:00 PM 13.07 55.526 0.115 7.54 4.64 9.72
10/21/2020 7:30:00 PM 13.02 55.436 0.115 7.53 4.39 9.73
10/21/2020 7:45:00 PM 12.97 55.346 0.115 7.54 4.44 9.74
10/21/2020 8:00:00 PM 12.91 55.238 0.115 7.53 4.37 9.76
10/21/2020 8:15:00 PM 12.86 55.148 0.116 7.53 4.32 9.77
10/21/2020 8:30:00 PM 12.81 55.058 0.116 7.54 4.37 9.79
10/21/2020 8:45:00 PM 12.76 54.968 0.116 7.54 4.23 9.8
10/21/2020 9:00:00 PM 12.73 54.914 0.116 7.54 4.37 9.82
10/21/2020 9:15:00 PM 12.7 54.86 0.116 7.54 4.26 9.82
10/21/2020 9:30:00 PM 12.68 54.824 0.116 7.53 4.29 9.83
10/21/2020 9:45:00 PM 12.67 54.806 0.116 7.51 4.01 9.83
10/21/2020 10:00:00 PM 12.65 54.77 0.116 7.52 4.13 9.84
10/21/2020 10:15:00 PM 12.63 54.734 0.116 7.52 3.85 9.84
10/21/2020 10:30:00 PM 12.59 54.662 0.116 7.5 4.07 9.85
10/21/2020 10:45:00 PM 12.55 54.59 0.116 7.52 3.9 9.85
10/21/2020 11:00:00 PM 12.5 54.5 0.116 7.51 4.07 9.87
10/21/2020 11:15:00 PM 12.46 54.428 0.116 7.52 3.97 9.88
10/21/2020 11:30:00 PM 12.41 54.338 0.116 7.52 3.9 9.89
10/21/2020 11:45:00 PM 12.37 54.266 0.116 7.51 4.03 9.91
10/22/2020 12:00:00 AM 12.33 54.194 0.117 7.51 3.99 9.92
10/22/2020 12:15:00 AM 12.3 54.14 0.117 7.52 4.11 9.92
10/22/2020 12:30:00 AM 12.28 54.104 0.117 7.52 4.11 9.93
10/22/2020 12:45:00 AM 12.25 54.05 0.117 7.52 3.91 9.94
10/22/2020 1:00:00 AM 12.22 53.996 0.117 7.52 3.92 9.94
10/22/2020 1:15:00 AM 12.19 53.942 0.117 7.5 3.99 9.95
10/22/2020 1:30:00 AM 12.19 53.942 0.117 7.51 3.81 9.95
10/22/2020 1:45:00 AM 12.18 53.924 0.117 7.49 4 9.95
10/22/2020 2:00:00 AM 12.17 53.906 0.117 7.51 3.88 9.95
10/22/2020 2:15:00 AM 12.17 53.906 0.117 7.5 3.89 9.96
10/22/2020 2:30:00 AM 12.16 53.888 0.117 7.48 3.71 9.95
10/22/2020 2:45:00 AM 12.16 53.888 0.117 7.49 4.17 9.96
10/22/2020 3:00:00 AM 12.16 53.888 0.117 7.48 4.49 9.96
10/22/2020 3:15:00 AM 12.16 53.888 0.117 7.49 3.93 9.96
10/22/2020 3:30:00 AM 12.16 53.888 0.117 7.48 4.33 9.95
10/22/2020 3:45:00 AM 12.16 53.888 0.118 7.48 14.34 9.94
10/22/2020 4:00:00 AM 12.16 53.888 0.119 7.46 11.6 9.83
10/22/2020 4:15:00 AM 12.16 53.888 0.12 7.45 10.78 9.71
10/22/2020 4:30:00 AM 12.16 53.888 0.12 7.46 8.4 9.76
10/22/2020 4:45:00 AM 12.17 53.906 0.119 7.47 6.53 9.82
10/22/2020 5:00:00 AM 12.17 53.906 0.118 7.47 6.02 9.86
10/22/2020 5:15:00 AM 12.17 53.906 0.118 7.48 4.9 9.87
10/22/2020 5:30:00 AM 12.16 53.888 0.118 7.48 4.91 9.88
10/22/2020 5:45:00 AM 12.16 53.888 0.118 7.45 4.67 9.88
10/22/2020 6:00:00 AM 12.16 53.888 0.118 7.46 4.59 9.89
10/22/2020 6:15:00 AM 12.16 53.888 0.118 7.46 4.96 9.87
10/22/2020 6:30:00 AM 12.16 53.888 0.118 7.46 5.25 9.87
10/22/2020 6:45:00 AM 12.16 53.888 0.118 7.45 4.61 9.88
10/22/2020 7:00:00 AM 12.15 53.87 0.118 7.47 4.51 9.89
10/22/2020 7:15:00 AM 12.15 53.87 0.118 7.45 4.97 9.89
10/22/2020 7:30:00 AM 12.15 53.87 0.118 7.48 4.69 9.89
10/22/2020 7:45:00 AM 12.15 53.87 0.118 7.48 4.5 9.9
10/22/2020 8:00:00 AM 12.15 53.87 0.118 7.48 4.59 9.9
10/22/2020 8:15:00 AM 12.16 53.888 0.118 7.47 4.64 9.9
10/22/2020 8:30:00 AM 12.17 53.906 0.118 7.47 4.36 9.91
10/22/2020 8:45:00 AM 12.19 53.942 0.119 7.46 4.52 9.92
10/22/2020 9:00:00 AM 12.22 53.996 0.119 7.47 4.53 9.92
10/22/2020 9:15:00 AM 12.26 54.068 0.119 7.47 4.31 9.93
10/22/2020 9:30:00 AM 12.35 54.23 0.119 7.49 4.54 9.94
10/22/2020 9:45:00 AM 12.46 54.428 0.119 7.53 4.43 9.93
10/22/2020 10:00:00 AM 12.57 54.626 0.118 7.54 4.31 9.92
10/22/2020 10:15:00 AM 12.66 54.788 0.118 7.55 4.61 9.9
10/22/2020 10:30:00 AM 12.8 55.04 0.118 7.55 4.46 9.87
10/22/2020 10:45:00 AM 12.94 55.292 0.118 7.57 4.5 9.83
10/22/2020 11:00:00 AM 13.04 55.472 0.118 7.55 4.33 9.81
10/22/2020 11:15:00 AM 13.17 55.706 0.118 7.57 4.33 9.78
10/22/2020 11:30:00 AM 13.29 55.922 0.118 7.58 4.59 9.74
10/22/2020 11:45:00 AM 13.38 56.084 0.118 7.58 4.31 9.71
10/22/2020 12:00:00 PM 13.46 56.228 0.118 7.58 4.56 9.68
10/22/2020 12:15:00 PM 13.54 56.372 0.118 7.58 4.48 9.64
10/22/2020 12:30:00 PM 13.61 56.498 0.118 7.58 4.43 9.62
10/22/2020 12:45:00 PM 13.66 56.588 0.118 7.57 4.48 9.59
10/22/2020 1:00:00 PM 13.71 56.678 0.118 7.56 4.55 9.56
10/22/2020 1:15:00 PM 13.79 56.822 0.118 7.56 4.76 9.54
10/22/2020 1:30:00 PM 13.85 56.93 0.118 7.56 4.67 9.52
10/22/2020 1:45:00 PM 13.93 57.074 0.118 7.57 4.47 9.51
10/22/2020 2:00:00 PM 14 57.2 0.118 7.58 4.48 9.48
10/22/2020 2:15:00 PM 14.1 57.38 0.118 7.57 4.5 9.46
10/22/2020 2:30:00 PM 14.18 57.524 0.118 7.58 4.63 9.44
10/22/2020 2:45:00 PM 14.21 57.578 0.118 7.57 4.87 9.42
10/22/2020 3:00:00 PM 14.25 57.65 0.118 7.58 4.61 9.39
10/22/2020 3:15:00 PM 14.26 57.668 0.119 7.58 4.36 9.38
10/22/2020 3:30:00 PM 14.27 57.686 0.119 7.56 4.43 9.36
10/22/2020 3:45:00 PM 14.27 57.686 0.119 7.57 4.48 9.36
10/22/2020 4:00:00 PM 14.27 57.686 0.119 7.55 4.47 9.36
10/22/2020 4:15:00 PM 14.26 57.668 0.119 7.56 4.34 9.36
10/22/2020 4:30:00 PM 14.26 57.668 0.119 7.56 4.53 9.36
10/22/2020 4:45:00 PM 14.24 57.632 0.119 7.55 4.23 9.35
10/22/2020 5:00:00 PM 14.23 57.614 0.119 7.56 4.43 9.36
10/22/2020 5:15:00 PM 14.21 57.578 0.119 7.56 4.39 9.36
10/22/2020 5:30:00 PM 14.21 57.578 0.119 7.55 4.34 9.36
10/22/2020 5:45:00 PM 14.18 57.524 0.119 7.53 4.33 9.36
10/22/2020 6:00:00 PM 14.14 57.452 0.119 7.55 4.4 9.36
10/22/2020 6:15:00 PM 14.1 57.38 0.119 7.54 4.27 9.36
10/22/2020 6:30:00 PM 14.05 57.29 0.119 7.54 4.34 9.37
10/22/2020 6:45:00 PM 14.02 57.236 0.119 7.53 4.64 9.37
10/22/2020 7:00:00 PM 13.99 57.182 0.119 7.54 4.76 9.38
10/22/2020 7:15:00 PM 13.96 57.128 0.119 7.54 4.55 9.39
10/22/2020 7:30:00 PM 13.9 57.02 0.119 7.53 4.42 9.41
10/22/2020 7:45:00 PM 13.85 56.93 0.119 7.52 4.35 9.42
10/22/2020 8:00:00 PM 13.8 56.84 0.119 7.53 4.48 9.44
10/22/2020 8:15:00 PM 13.74 56.732 0.119 7.53 4.62 9.45
10/22/2020 8:30:00 PM 13.69 56.642 0.119 7.53 4.23 9.46
10/22/2020 8:45:00 PM 13.63 56.534 0.12 7.53 4.47 9.45
10/22/2020 9:00:00 PM 13.58 56.444 0.119 7.53 4.08 9.47
10/22/2020 9:15:00 PM 13.53 56.354 0.12 7.53 4.19 9.49
10/22/2020 9:30:00 PM 13.47 56.246 0.12 7.53 4.03 9.5
10/22/2020 9:45:00 PM 13.41 56.138 0.12 7.53 4.13 9.52
10/22/2020 10:00:00 PM 13.34 56.012 0.12 7.53 4.11 9.54
10/22/2020 10:15:00 PM 13.28 55.904 0.12 7.53 4.18 9.55
10/22/2020 10:30:00 PM 13.22 55.796 0.12 7.53 4.43 9.56
10/22/2020 10:45:00 PM 13.15 55.67 0.12 7.52 4.13 9.58
10/22/2020 11:00:00 PM 13.09 55.562 0.12 7.53 4.11 9.6
10/22/2020 11:15:00 PM 13.03 55.454 0.12 7.54 4.3 9.61
10/22/2020 11:30:00 PM 12.97 55.346 0.12 7.54 4.37 9.63
10/22/2020 11:45:00 PM 12.92 55.256 0.12 7.54 4.32 9.65
10/23/2020 12:00:00 AM 12.86 55.148 0.12 7.54 4.21 9.66
10/23/2020 12:15:00 AM 12.81 55.058 0.12 7.54 4.19 9.67
10/23/2020 12:30:00 AM 12.76 54.968 0.12 7.54 4.26 9.67
10/23/2020 12:45:00 AM 12.7 54.86 0.12 7.54 4.34 9.69
10/23/2020 1:00:00 AM 12.64 54.752 0.12 7.53 4.01 9.71
10/23/2020 1:15:00 AM 12.59 54.662 0.12 7.53 4.07 9.72
10/23/2020 1:30:00 AM 12.54 54.572 0.12 7.54 4.37 9.74
10/23/2020 1:45:00 AM 12.49 54.482 0.12 7.53 4.16 9.75
10/23/2020 2:00:00 AM 12.45 54.41 0.12 7.53 4.25 9.77
10/23/2020 2:15:00 AM 12.4 54.32 0.12 7.53 3.98 9.78
10/23/2020 2:30:00 AM 12.36 54.248 0.12 7.53 3.92 9.79
10/23/2020 2:45:00 AM 12.33 54.194 0.12 7.53 4.06 9.8
10/23/2020 3:00:00 AM 12.32 54.176 0.12 7.52 4.24 9.8
10/23/2020 3:15:00 AM 12.32 54.176 0.12 7.53 4.01 9.8
10/23/2020 3:30:00 AM 12.32 54.176 0.12 7.53 4.09 9.81
10/23/2020 3:45:00 AM 12.32 54.176 0.12 7.53 4.23 9.81
10/23/2020 4:00:00 AM 12.32 54.176 0.12 7.53 4.05 9.81
10/23/2020 4:15:00 AM 12.32 54.176 0.12 7.53 3.98 9.81
10/23/2020 4:30:00 AM 12.33 54.194 0.12 7.53 3.98 9.81
10/23/2020 4:45:00 AM 12.34 54.212 0.12 7.54 3.93 9.81
10/23/2020 5:00:00 AM 12.34 54.212 0.12 7.52 4.05 9.81
10/23/2020 5:15:00 AM 12.35 54.23 0.12 7.52 3.85 9.81
10/23/2020 5:30:00 AM 12.36 54.248 0.12 7.54 4.14 9.81
10/23/2020 5:45:00 AM 12.36 54.248 0.12 7.54 4.03 9.81
10/23/2020 6:00:00 AM 12.36 54.248 0.12 7.54 3.97 9.81
10/23/2020 6:15:00 AM 12.37 54.266 0.12 7.53 3.94 9.8
10/23/2020 6:30:00 AM 12.38 54.284 0.12 7.53 3.9 9.8
10/23/2020 6:45:00 AM 12.38 54.284 0.12 7.53 3.75 9.8
10/23/2020 7:00:00 AM 12.38 54.284 0.12 7.53 4.31 9.8
10/23/2020 7:15:00 AM 12.39 54.302 0.12 7.53 4.39 9.8
10/23/2020 7:30:00 AM 12.39 54.302 0.12 7.53 4.14 9.8
10/23/2020 7:45:00 AM 12.4 54.32 0.12 7.53 3.93 9.8
10/23/2020 8:00:00 AM 12.41 54.338 0.12 7.53 3.99 9.8
10/23/2020 8:15:00 AM 12.43 54.374 0.12 7.53 4.11 9.8
10/23/2020 8:30:00 AM 12.44 54.392 0.12 7.52 3.94 9.8
10/23/2020 8:45:00 AM 12.48 54.464 0.12 7.52 4.16 9.81
10/23/2020 9:00:00 AM 12.56 54.608 0.12 7.53 3.94 9.83
10/23/2020 9:15:00 AM 12.63 54.734 0.12 7.54 4.08 9.82
10/23/2020 9:30:00 AM 12.7 54.86 0.12 7.54 4.02 9.8
10/23/2020 9:45:00 AM 12.8 55.04 0.12 7.56 3.89 9.78
10/23/2020 10:00:00 AM 12.9 55.22 0.12 7.57 3.73 9.77
10/23/2020 10:15:00 AM 13.05 55.49 0.12 7.58 3.65 9.75
10/23/2020 10:30:00 AM 13.2 55.76 0.12 7.59 3.83 9.71
10/23/2020 10:45:00 AM 13.25 55.85 0.12 7.59 3.79 9.68
10/23/2020 11:00:00 AM 13.3 55.94 0.12 7.59 3.9 9.67
10/23/2020 11:15:00 AM 13.46 56.228 0.12 7.59 4.06 9.65
10/23/2020 11:30:00 AM 13.63 56.534 0.12 7.6 3.77 9.62
10/23/2020 11:45:00 AM 13.79 56.822 0.12 7.6 3.98 9.57
10/23/2020 12:00:00 PM 13.96 57.128 0.12 7.61 4.01 9.54
10/23/2020 12:15:00 PM 14.14 57.452 0.12 7.61 4.09 9.49
10/23/2020 12:30:00 PM 14.32 57.776 0.12 7.6 4.12 9.44
10/23/2020 12:45:00 PM 14.37 57.866 0.12 7.61 3.93 9.39
10/23/2020 1:00:00 PM 14.41 57.938 0.12 7.61 3.97 9.36
10/23/2020 1:15:00 PM 14.48 58.064 0.12 7.61 4.13 9.33
10/23/2020 1:30:00 PM 14.57 58.226 0.12 7.61 4.13 9.3
10/23/2020 1:45:00 PM 14.65 58.37 0.12 7.59 4.01 9.27
10/23/2020 2:00:00 PM 14.72 58.496 0.12 7.6 3.93 9.23
10/23/2020 2:15:00 PM 14.77 58.586 0.12 7.6 4.11 9.2
10/23/2020 2:30:00 PM 14.81 58.658 0.12 7.59 4.17 9.17
10/23/2020 2:45:00 PM 14.84 58.712 0.12 7.6 4.09 9.16
10/23/2020 3:00:00 PM 14.86 58.748 0.12 7.59 3.96 9.14
10/23/2020 3:15:00 PM 14.89 58.802 0.12 7.6 3.77 9.13
10/23/2020 3:30:00 PM 14.9 58.82 0.12 7.59 4.08 9.13
10/23/2020 3:45:00 PM 14.92 58.856 0.121 7.6 4.35 9.12
10/23/2020 4:00:00 PM 14.93 58.874 0.121 7.59 4.03 9.12
10/23/2020 4:15:00 PM 14.95 58.91 0.121 7.6 4.12 9.11
10/23/2020 4:30:00 PM 14.95 58.91 0.121 7.59 3.93 9.1
10/23/2020 4:45:00 PM 14.94 58.892 0.121 7.59 4.18 9.1
10/23/2020 5:00:00 PM 14.92 58.856 0.121 7.58 4.15 9.1
10/23/2020 5:15:00 PM 14.91 58.838 0.121 7.59 3.92 9.09
10/23/2020 5:30:00 PM 14.89 58.802 0.121 7.59 4.26 9.09
10/23/2020 5:45:00 PM 14.86 58.748 0.121 7.59 4.08 9.1
10/23/2020 6:00:00 PM 14.82 58.676 0.121 7.58 4.41 9.09
10/23/2020 6:15:00 PM 14.77 58.586 0.121 7.57 4.3 9.1
10/23/2020 6:30:00 PM 14.7 58.46 0.121 7.57 4.42 9.1
10/23/2020 6:45:00 PM 14.62 58.316 0.121 7.56 4.66 9.12
10/23/2020 7:00:00 PM 14.54 58.172 0.121 7.56 4.63 9.14
10/23/2020 7:15:00 PM 14.46 58.028 0.121 7.56 4.29 9.16
10/23/2020 7:30:00 PM 14.38 57.884 0.121 7.56 4.28 9.17
10/23/2020 7:45:00 PM 14.31 57.758 0.121 7.56 4.23 9.2
10/23/2020 8:00:00 PM 14.24 57.632 0.121 7.55 4.09 9.22
10/23/2020 8:15:00 PM 14.17 57.506 0.121 7.54 4.54 9.24
10/23/2020 8:30:00 PM 14.1 57.38 0.121 7.56 4.09 9.25
10/23/2020 8:45:00 PM 14.04 57.272 0.121 7.55 4.02 9.26
10/23/2020 9:00:00 PM 13.98 57.164 0.121 7.55 3.95 9.28
10/23/2020 9:15:00 PM 13.92 57.056 0.121 7.56 4.22 9.3
10/23/2020 9:30:00 PM 13.86 56.948 0.121 7.55 3.78 9.31
10/23/2020 9:45:00 PM 13.8 56.84 0.121 7.55 4.1 9.33
10/23/2020 10:00:00 PM 13.75 56.75 0.121 7.55 3.97 9.34
10/23/2020 10:15:00 PM 13.71 56.678 0.121 7.56 4 9.34
10/23/2020 10:30:00 PM 13.66 56.588 0.121 7.56 3.92 9.36
10/23/2020 10:45:00 PM 13.62 56.516 0.121 7.54 3.91 9.37
10/23/2020 11:00:00 PM 13.57 56.426 0.121 7.56 3.92 9.38
10/23/2020 11:15:00 PM 13.54 56.372 0.121 7.55 4.14 9.39
10/23/2020 11:30:00 PM 13.5 56.3 0.121 7.55 3.85 9.4
10/23/2020 11:45:00 PM 13.46 56.228 0.121 7.55 3.94 9.41
10/24/2020 12:00:00 AM 13.43 56.174 0.121 7.55 3.83 9.42
10/24/2020 12:15:00 AM 13.4 56.12 0.121 7.55 3.72 9.44
10/24/2020 12:30:00 AM 13.38 56.084 0.121 7.56 4.04 9.44
10/24/2020 12:45:00 AM 13.37 56.066 0.121 7.56 3.85 9.44
10/24/2020 1:00:00 AM 13.35 56.03 0.121 7.56 3.83 9.45
10/24/2020 1:15:00 AM 13.34 56.012 0.121 7.55 3.76 9.44
10/24/2020 1:30:00 AM 13.33 55.994 0.121 7.55 3.66 9.44
10/24/2020 1:45:00 AM 13.32 55.976 0.121 7.55 3.7 9.44
10/24/2020 2:00:00 AM 13.33 55.994 0.121 7.55 4.93 9.45
10/24/2020 2:15:00 AM 13.34 56.012 0.121 7.54 3.95 9.43
10/24/2020 2:30:00 AM 13.34 56.012 0.121 7.54 4 9.4
10/24/2020 2:45:00 AM 13.34 56.012 0.121 7.53 3.8 9.42
10/24/2020 3:00:00 AM 13.32 55.976 0.121 7.55 3.86 9.42
10/24/2020 3:15:00 AM 13.3 55.94 0.121 7.55 3.94 9.43
10/24/2020 3:30:00 AM 13.3 55.94 0.121 7.55 3.73 9.43
10/24/2020 3:45:00 AM 13.29 55.922 0.121 7.54 3.86 9.43
10/24/2020 4:00:00 AM 13.29 55.922 0.121 7.53 3.67 9.44
10/24/2020 4:15:00 AM 13.3 55.94 0.121 7.54 3.83 9.44
10/24/2020 4:30:00 AM 13.3 55.94 0.121 7.54 3.62 9.44
10/24/2020 4:45:00 AM 13.31 55.958 0.121 7.54 3.62 9.44
10/24/2020 5:00:00 AM 13.32 55.976 0.121 7.53 3.98 9.44
10/24/2020 5:15:00 AM 13.32 55.976 0.121 7.52 3.59 9.42
10/24/2020 5:30:00 AM 13.33 55.994 0.122 7.52 3.86 9.42
10/24/2020 5:45:00 AM 13.33 55.994 0.122 7.51 3.58 9.42
10/24/2020 6:00:00 AM 13.34 56.012 0.122 7.51 3.81 9.4
10/24/2020 6:15:00 AM 13.35 56.03 0.121 7.53 5.25 9.36
10/24/2020 6:30:00 AM 13.33 55.994 0.121 7.53 4.61 9.32
10/24/2020 6:45:00 AM 13.3 55.94 0.121 7.55 3.97 9.33
10/24/2020 7:00:00 AM 13.26 55.868 0.121 7.55 4.3 9.35
10/24/2020 7:15:00 AM 13.2 55.76 0.121 7.56 4.33 9.39
10/24/2020 7:30:00 AM 13.14 55.652 0.121 7.56 3.96 9.42
10/24/2020 7:45:00 AM 13.07 55.526 0.121 7.56 4.19 9.45
10/24/2020 8:00:00 AM 13 55.4 0.121 7.56 4.29 9.48
10/24/2020 8:15:00 AM 12.94 55.292 0.121 7.57 4.18 9.51
10/24/2020 8:30:00 AM 12.89 55.202 0.121 7.57 4.05 9.54
10/24/2020 8:45:00 AM 12.83 55.094 0.121 7.56 4.91 9.57
10/24/2020 9:00:00 AM 12.78 55.004 0.121 7.57 4.4 9.6
10/24/2020 9:15:00 AM 12.73 54.914 0.121 7.57 4.42 9.63
10/24/2020 9:30:00 AM 12.68 54.824 0.121 7.58 4.37 9.67
10/24/2020 9:45:00 AM 12.62 54.716 0.121 7.59 4.39 9.69
10/24/2020 10:00:00 AM 12.57 54.626 0.121 7.6 4.55 9.72
10/24/2020 10:15:00 AM 12.53 54.554 0.121 7.6 4.28 9.74
10/24/2020 10:30:00 AM 12.49 54.482 0.121 7.59 4.31 9.76
10/24/2020 10:45:00 AM 12.45 54.41 0.121 7.6 4.08 9.77
10/24/2020 11:00:00 AM 12.4 54.32 0.121 7.61 4.17 9.78
10/24/2020 11:15:00 AM 12.33 54.194 0.121 7.6 4.16 9.8
10/24/2020 11:30:00 AM 12.24 54.032 0.121 7.6 4.51 9.81
10/24/2020 11:45:00 AM 12.17 53.906 0.121 7.61 4.07 9.84
10/24/2020 12:00:00 PM 12.12 53.816 0.121 7.6 4.14 9.86
10/24/2020 12:15:00 PM 12.11 53.798 0.121 7.61 4.19 9.87
10/24/2020 12:30:00 PM 12.09 53.762 0.121 7.61 4.07 9.88
10/24/2020 12:45:00 PM 12.06 53.708 0.121 7.61 3.98 9.9
10/24/2020 1:00:00 PM 12.05 53.69 0.121 7.62 4.53 9.92
10/24/2020 1:15:00 PM 12.04 53.672 0.121 7.61 4.15 9.92
10/24/2020 1:30:00 PM 12.04 53.672 0.121 7.62 4.39 9.93
10/24/2020 1:45:00 PM 12.03 53.654 0.121 7.62 4.31 9.94
10/24/2020 2:00:00 PM 12.02 53.636 0.121 7.62 4.27 9.94
10/24/2020 2:15:00 PM 12 53.6 0.121 7.62 4.58 9.94
10/24/2020 2:30:00 PM 12.01 53.618 0.121 7.62 4.28 9.95
10/24/2020 2:45:00 PM 12.02 53.636 0.121 7.62 4.39 9.95
10/24/2020 3:00:00 PM 12.01 53.618 0.121 7.62 4.15 9.95
10/24/2020 3:15:00 PM 12.01 53.618 0.121 7.63 4.12 9.95
10/24/2020 3:30:00 PM 12 53.6 0.121 7.62 4.18 9.95
10/24/2020 3:45:00 PM 11.98 53.564 0.121 7.62 4.25 9.95
10/24/2020 4:00:00 PM 11.93 53.474 0.121 7.63 4.3 9.95
10/24/2020 4:15:00 PM 11.87 53.366 0.121 7.62 4.27 9.95
10/24/2020 4:30:00 PM 11.81 53.258 0.121 7.62 4.36 9.96
10/24/2020 4:45:00 PM 11.73 53.114 0.121 7.61 4.24 9.97
10/24/2020 5:00:00 PM 11.65 52.97 0.121 7.62 4.79 9.98
10/24/2020 5:15:00 PM 11.58 52.844 0.121 7.62 4.46 10
10/24/2020 5:30:00 PM 11.5 52.7 0.121 7.61 4.54 10.02
10/24/2020 5:45:00 PM 11.43 52.574 0.121 7.61 4.28 10.03
10/24/2020 6:00:00 PM 11.35 52.43 0.121 7.6 4.61 10.04
10/24/2020 6:15:00 PM 11.28 52.304 0.121 7.61 4.33 10.06
10/24/2020 6:30:00 PM 11.21 52.178 0.121 7.61 4.54 10.07
10/24/2020 6:45:00 PM 11.14 52.052 0.121 7.61 5.61 10.09
10/24/2020 7:00:00 PM 11.08 51.944 0.121 7.61 4.8 10.11
10/24/2020 7:15:00 PM 11.02 51.836 0.121 7.61 4.86 10.14
10/24/2020 7:30:00 PM 10.95 51.71 0.121 7.61 4.88 10.15
10/24/2020 7:45:00 PM 10.89 51.602 0.121 7.59 4.7 10.17
10/24/2020 8:00:00 PM 10.83 51.494 0.121 7.61 4.64 10.19
10/24/2020 8:15:00 PM 10.76 51.368 0.121 7.61 4.64 10.22
10/24/2020 8:30:00 PM 10.69 51.242 0.121 7.61 4.26 10.25
10/24/2020 8:45:00 PM 10.63 51.134 0.121 7.61 4.43 10.26
10/24/2020 9:00:00 PM 10.56 51.008 0.121 7.61 4.46 10.28
10/24/2020 9:15:00 PM 10.49 50.882 0.121 7.6 4.52 10.31
10/24/2020 9:30:00 PM 10.42 50.756 0.121 7.62 4.26 10.33
10/24/2020 9:45:00 PM 10.34 50.612 0.121 7.62 4.6 10.36
10/24/2020 10:00:00 PM 10.28 50.504 0.121 7.62 4.24 10.37
10/24/2020 10:15:00 PM 10.22 50.396 0.121 7.62 4.14 10.39
10/24/2020 10:30:00 PM 10.17 50.306 0.121 7.62 4.06 10.41
10/24/2020 10:45:00 PM 10.1 50.18 0.121 7.6 4.35 10.43
10/24/2020 11:00:00 PM 10.06 50.108 0.121 7.62 5.34 10.44
10/24/2020 11:15:00 PM 10 50 0.121 7.62 4.67 10.46
10/24/2020 11:30:00 PM 9.94 49.892 0.121 7.62 4.12 10.48
10/24/2020 11:45:00 PM 9.87 49.766 0.12 7.62 4.02 10.5
10/25/2020 12:00:00 AM 9.82 49.676 0.12 7.6 4.39 10.52
10/25/2020 12:15:00 AM 9.77 49.586 0.12 7.62 3.91 10.54
10/25/2020 12:30:00 AM 9.72 49.496 0.12 7.62 4.22 10.55
10/25/2020 12:45:00 AM 9.66 49.388 0.12 7.62 4.04 10.57
10/25/2020 1:00:00 AM 9.61 49.298 0.12 7.61 3.97 10.59
10/25/2020 1:15:00 AM 9.54 49.172 0.12 7.62 9.73 10.6
10/25/2020 1:30:00 AM 9.46 49.028 0.12 7.61 4.1 10.63
10/25/2020 1:45:00 AM 9.35 48.83 0.12 7.61 3.96 10.65
10/25/2020 2:00:00 AM 9.26 48.668 0.12 7.61 3.99 10.68
10/25/2020 2:15:00 AM 9.16 48.488 0.12 7.61 4.08 10.7
10/25/2020 2:30:00 AM 9.06 48.308 0.12 7.61 4.01 10.73
10/25/2020 2:45:00 AM 8.96 48.128 0.12 7.61 3.83 10.76
10/25/2020 3:00:00 AM 8.85 47.93 0.12 7.61 3.83 10.8
10/25/2020 3:15:00 AM 8.74 47.732 0.12 7.61 3.85 10.83
10/25/2020 3:30:00 AM 8.64 47.552 0.12 7.62 3.88 10.86
10/25/2020 3:45:00 AM 8.54 47.372 0.12 7.61 3.66 10.89
10/25/2020 4:00:00 AM 8.44 47.192 0.12 7.61 3.82 10.91
10/25/2020 4:15:00 AM 8.34 47.012 0.12 7.62 3.69 10.94
10/25/2020 4:30:00 AM 8.25 46.85 0.12 7.62 3.68 10.98
10/25/2020 4:45:00 AM 8.16 46.688 0.12 7.61 3.79 11
10/25/2020 5:00:00 AM 8.06 46.508 0.12 7.61 4.01 11.04
10/25/2020 5:15:00 AM 7.98 46.364 0.12 7.62 3.84 11.07
10/25/2020 5:30:00 AM 7.88 46.184 0.12 7.61 3.71 11.1
10/25/2020 5:45:00 AM 7.8 46.04 0.12 7.62 3.48 11.13
10/25/2020 6:00:00 AM 7.72 45.896 0.12 7.61 3.5 11.15
10/25/2020 6:15:00 AM 7.65 45.77 0.12 7.61 3.49 11.18
10/25/2020 6:30:00 AM 7.57 45.626 0.12 7.61 3.53 11.2
10/25/2020 6:45:00 AM 7.5 45.5 0.12 7.62 3.52 11.23
10/25/2020 7:00:00 AM 7.43 45.374 0.12 7.6 3.5 11.26
10/25/2020 7:15:00 AM 7.35 45.23 0.12 7.62 3.48 11.28
10/25/2020 7:30:00 AM 7.28 45.104 0.12 7.62 3.64 11.31
10/25/2020 7:45:00 AM 7.21 44.978 0.12 7.62 3.52 11.33
10/25/2020 8:00:00 AM 7.15 44.87 0.12 7.62 3.62 11.36
10/25/2020 8:15:00 AM 7.12 44.816 0.12 7.6 3.53 11.39
10/25/2020 8:30:00 AM 7.11 44.798 0.12 7.61 3.67 11.4
10/25/2020 8:45:00 AM 7.11 44.798 0.12 7.62 3.71 11.42
10/25/2020 9:00:00 AM 7.12 44.816 0.12 7.63 3.41 11.43
10/25/2020 9:15:00 AM 7.14 44.852 0.12 7.62 3.29 11.44
10/25/2020 9:30:00 AM 7.18 44.924 0.12 7.63 3.78 11.43
10/25/2020 9:45:00 AM 7.22 44.996 0.12 7.62 3.3 11.44
10/25/2020 10:00:00 AM 7.28 45.104 0.12 7.63 3.23 11.43
10/25/2020 10:15:00 AM 7.34 45.212 0.12 7.63 3.53 11.41
10/25/2020 10:30:00 AM 7.41 45.338 0.12 7.64 3.49 11.4
10/25/2020 10:45:00 AM 7.5 45.5 0.12 7.65 3.55 11.38
10/25/2020 11:00:00 AM 7.58 45.644 0.12 7.64 3.43 11.35
10/25/2020 11:15:00 AM 7.68 45.824 0.119 7.64 3.69 11.33
10/25/2020 11:30:00 AM 7.82 46.076 0.119 7.66 3.73 11.31
10/25/2020 11:45:00 AM 7.93 46.274 0.119 7.64 3.65 11.27
10/25/2020 12:00:00 PM 7.99 46.382 0.119 7.66 3.54 11.25
10/25/2020 12:15:00 PM 8.12 46.616 0.119 7.64 3.61 11.21
10/25/2020 12:30:00 PM 8.21 46.778 0.119 7.65 3.52 11.18
10/25/2020 12:45:00 PM 8.27 46.886 0.119 7.66 3.65 11.14
10/25/2020 1:00:00 PM 8.21 46.778 0.119 7.66 3.63 11.14
10/25/2020 1:15:00 PM 8.19 46.742 0.119 7.66 3.47 11.12
10/25/2020 1:30:00 PM 8.19 46.742 0.119 7.66 3.8 11.11
10/25/2020 1:45:00 PM 8.21 46.778 0.119 7.64 3.89 11.1
10/25/2020 2:00:00 PM 8.27 46.886 0.119 7.66 3.63 11.09
10/25/2020 2:15:00 PM 8.4 47.12 0.119 7.66 3.66 11.07
10/25/2020 2:30:00 PM 8.41 47.138 0.119 7.66 3.81 11.05
10/25/2020 2:45:00 PM 8.44 47.192 0.119 7.66 3.84 11.04
10/25/2020 3:00:00 PM 8.58 47.444 0.119 7.66 4.13 11.01
10/25/2020 3:15:00 PM 8.69 47.642 0.119 7.65 3.74 10.99
10/25/2020 3:30:00 PM 8.78 47.804 0.119 7.65 3.96 10.96
10/25/2020 3:45:00 PM 8.83 47.894 0.119 7.64 4.01 10.94
10/25/2020 4:00:00 PM 8.87 47.966 0.119 7.67 4.05 10.92
10/25/2020 4:15:00 PM 8.88 47.984 0.119 7.65 3.92 10.9
10/25/2020 4:30:00 PM 8.88 47.984 0.119 7.66 4.18 10.89
10/25/2020 4:45:00 PM 8.89 48.002 0.119 7.66 4.02 10.88
10/25/2020 5:00:00 PM 8.89 48.002 0.119 7.66 4.21 10.88
10/25/2020 5:15:00 PM 8.88 47.984 0.119 7.66 4.26 10.87
10/25/2020 5:30:00 PM 8.86 47.948 0.119 7.65 4.51 10.87
10/25/2020 5:45:00 PM 8.83 47.894 0.119 7.64 4.4 10.87
10/25/2020 6:00:00 PM 8.79 47.822 0.119 7.65 4.13 10.87
10/25/2020 6:15:00 PM 8.75 47.75 0.119 7.64 4.12 10.87
10/25/2020 6:30:00 PM 8.7 47.66 0.119 7.63 4.42 10.88
10/25/2020 6:45:00 PM 8.65 47.57 0.119 7.64 4.4 10.89
10/25/2020 7:00:00 PM 8.61 47.498 0.12 7.64 4.54 10.91
10/25/2020 7:15:00 PM 8.58 47.444 0.12 7.63 4.65 10.92
10/25/2020 7:30:00 PM 8.56 47.408 0.12 7.63 4.37 10.93
10/25/2020 7:45:00 PM 8.55 47.39 0.12 7.63 4.34 10.93
10/25/2020 8:00:00 PM 8.54 47.372 0.12 7.63 4.39 10.94
10/25/2020 8:15:00 PM 8.53 47.354 0.12 7.63 4.24 10.94
10/25/2020 8:30:00 PM 8.52 47.336 0.12 7.63 4.34 10.94
10/25/2020 8:45:00 PM 8.51 47.318 0.12 7.63 4.55 10.96
10/25/2020 9:00:00 PM 8.51 47.318 0.12 7.63 4.51 10.94
10/25/2020 9:15:00 PM 8.51 47.318 0.12 7.63 4.43 10.94
10/25/2020 9:30:00 PM 8.51 47.318 0.12 7.61 4.32 10.94
10/25/2020 9:45:00 PM 8.5 47.3 0.119 7.63 4.22 10.94
10/25/2020 10:00:00 PM 8.48 47.264 0.119 7.63 4.17 10.95
10/25/2020 10:15:00 PM 8.47 47.246 0.119 7.63 4.16 10.96
10/25/2020 10:30:00 PM 8.46 47.228 0.119 7.63 4.25 10.97
10/25/2020 10:45:00 PM 8.44 47.192 0.119 7.63 4.15 10.97
10/25/2020 11:00:00 PM 8.42 47.156 0.119 7.63 4.39 10.95
10/25/2020 11:15:00 PM 8.4 47.12 0.119 7.61 4.21 10.96
10/25/2020 11:30:00 PM 8.39 47.102 0.119 7.61 4.05 10.95
10/25/2020 11:45:00 PM 8.37 47.066 0.119 7.61 4.07 10.95
10/26/2020 12:00:00 AM 8.36 47.048 0.119 7.62 3.76 10.97
10/26/2020 12:15:00 AM 8.35 47.03 0.119 7.62 3.86 10.98
10/26/2020 12:30:00 AM 8.34 47.012 0.119 7.63 3.87 10.99
10/26/2020 12:45:00 AM 8.33 46.994 0.119 7.63 3.87 10.99
10/26/2020 1:00:00 AM 8.32 46.976 0.119 7.63 3.78 11
10/26/2020 1:15:00 AM 8.31 46.958 0.119 7.61 3.96 11
10/26/2020 1:30:00 AM 8.3 46.94 0.119 7.63 3.79 11.01
10/26/2020 1:45:00 AM 8.29 46.922 0.119 7.63 3.62 11
10/26/2020 2:00:00 AM 8.28 46.904 0.119 7.61 3.76 11.01
10/26/2020 2:15:00 AM 8.27 46.886 0.119 7.63 3.71 11
10/26/2020 2:30:00 AM 8.27 46.886 0.119 7.63 3.74 11
10/26/2020 2:45:00 AM 8.26 46.868 0.119 7.62 3.5 11.02
10/26/2020 3:00:00 AM 8.25 46.85 0.119 7.63 3.56 11.01
10/26/2020 3:15:00 AM 8.24 46.832 0.119 7.63 3.63 11.01
10/26/2020 3:30:00 AM 8.24 46.832 0.119 7.62 3.9 11.02
10/26/2020 3:45:00 AM 8.24 46.832 0.119 7.63 3.69 11.01
10/26/2020 4:00:00 AM 8.25 46.85 0.119 7.62 3.63 11.01
10/26/2020 4:15:00 AM 8.25 46.85 0.119 7.63 3.74 11.02
10/26/2020 4:30:00 AM 8.25 46.85 0.119 7.63 3.55 11.01
10/26/2020 4:45:00 AM 8.25 46.85 0.119 7.63 3.4 11.01
10/26/2020 5:00:00 AM 8.25 46.85 0.119 7.63 3.39 11.02
10/26/2020 5:15:00 AM 8.25 46.85 0.119 7.61 3.58 11.01
10/26/2020 5:30:00 AM 8.25 46.85 0.119 7.62 3.68 11.02
10/26/2020 5:45:00 AM 8.25 46.85 0.119 7.62 4.19 11.01
10/26/2020 6:00:00 AM 8.25 46.85 0.119 7.62 4.14 10.98
10/26/2020 6:15:00 AM 8.25 46.85 0.118 7.61 4.29 10.97
10/26/2020 6:30:00 AM 8.25 46.85 0.118 7.6 4.6 10.94
10/26/2020 6:45:00 AM 8.25 46.85 0.118 7.61 4.1 10.94
10/26/2020 7:00:00 AM 8.26 46.868 0.117 7.6 4.42 10.92
10/26/2020 7:15:00 AM 8.26 46.868 0.117 7.61 4.08 10.93
10/26/2020 7:30:00 AM 8.27 46.886 0.117 7.61 4.05 10.94
10/26/2020 7:45:00 AM 8.28 46.904 0.117 7.61 4.15 10.95
10/26/2020 8:00:00 AM 8.29 46.922 0.117 7.6 4.39 10.97
10/26/2020 8:15:00 AM 8.3 46.94 0.117 7.59 3.97 10.97
10/26/2020 8:30:00 AM 8.31 46.958 0.117 7.61 4.33 10.98
10/26/2020 8:45:00 AM 8.32 46.976 0.117 7.61 4.24 10.99
10/26/2020 9:00:00 AM 8.34 47.012 0.117 7.61 4.15 10.99
10/26/2020 9:15:00 AM 8.36 47.048 0.117 7.62 4.85 11.01
10/26/2020 9:30:00 AM 8.38 47.084 0.118 7.63 5.26 11.01
10/26/2020 9:45:00 AM 8.41 47.138 0.119 7.63 5.42 11.02
10/26/2020 10:00:00 AM 8.43 47.174 0.119 7.62 5.29 11.01
10/26/2020 10:15:00 AM 8.46 47.228 0.119 7.62 5.06 11
10/26/2020 10:30:00 AM 8.49 47.282 0.119 7.64 4.71 11
10/26/2020 10:45:00 AM 8.54 47.372 0.12 7.64 4.65 10.98
10/26/2020 11:00:00 AM 8.57 47.426 0.119 7.64 4.22 10.97
10/26/2020 11:15:00 AM 8.62 47.516 0.119 7.64 4.25 10.96
10/26/2020 11:30:00 AM 8.66 47.588 0.119 7.61 4.1 10.95
10/26/2020 11:45:00 AM 8.7 47.66 0.119 7.64 4.3 10.94
10/26/2020 12:00:00 PM 8.74 47.732 0.119 7.64 4.2 10.93
10/26/2020 12:15:00 PM 8.79 47.822 0.119 7.64 4.5 10.92
10/26/2020 12:30:00 PM 8.84 47.912 0.119 7.64 4.03 10.9
10/26/2020 12:45:00 PM 8.87 47.966 0.119 7.64 4.34 10.88
10/26/2020 1:00:00 PM 8.91 48.038 0.119 7.65 3.93 10.87
10/26/2020 1:15:00 PM 8.96 48.128 0.119 7.64 3.91 10.86
10/26/2020 1:30:00 PM 8.99 48.182 0.119 7.64 3.92 10.84
10/26/2020 1:45:00 PM 9.02 48.236 0.119 7.63 3.98 10.82
10/26/2020 2:00:00 PM 9.05 48.29 0.119 7.64 4.02 10.81
10/26/2020 2:15:00 PM 9.08 48.344 0.119 7.63 3.97 10.8
10/26/2020 2:30:00 PM 9.12 48.416 0.119 7.64 4.2 10.79
10/26/2020 2:45:00 PM 9.15 48.47 0.119 7.62 4.31 10.76
10/26/2020 3:00:00 PM 9.2 48.56 0.119 7.63 4.3 10.74
10/26/2020 3:15:00 PM 9.24 48.632 0.119 7.62 4.12 10.72
10/26/2020 3:30:00 PM 9.26 48.668 0.119 7.62 3.95 10.71
10/26/2020 3:45:00 PM 9.3 48.74 0.119 7.63 4.16 10.7
10/26/2020 4:00:00 PM 9.33 48.794 0.119 7.64 4.17 10.7
10/26/2020 4:15:00 PM 9.35 48.83 0.119 7.62 4.2 10.69
10/26/2020 4:30:00 PM 9.38 48.884 0.119 7.63 3.98 10.68
10/26/2020 4:45:00 PM 9.4 48.92 0.119 7.63 4.3 10.68
10/26/2020 5:00:00 PM 9.42 48.956 0.119 7.63 4.04 10.67
10/26/2020 5:15:00 PM 9.43 48.974 0.119 7.62 4.32 10.67
10/26/2020 5:30:00 PM 9.44 48.992 0.119 7.62 4.15 10.67
10/26/2020 5:45:00 PM 9.45 49.01 0.119 7.6 4.2 10.66
10/26/2020 6:00:00 PM 9.45 49.01 0.119 7.61 4.3 10.65
10/26/2020 6:15:00 PM 9.45 49.01 0.119 7.61 4.45 10.65
10/26/2020 6:30:00 PM 9.46 49.028 0.12 7.59 4.52 10.65
10/26/2020 6:45:00 PM 9.46 49.028 0.12 7.6 4.41 10.65
10/26/2020 7:00:00 PM 9.47 49.046 0.12 7.6 4.63 10.65
10/26/2020 7:15:00 PM 9.47 49.046 0.12 7.58 4.5 10.65
10/26/2020 7:30:00 PM 9.47 49.046 0.12 7.6 4.26 10.65
10/26/2020 7:45:00 PM 9.48 49.064 0.12 7.59 3.98 10.65
10/26/2020 8:00:00 PM 9.48 49.064 0.12 7.59 4.21 10.63
10/26/2020 8:15:00 PM 9.49 49.082 0.12 7.58 4.31 10.63
10/26/2020 8:30:00 PM 9.49 49.082 0.12 7.57 4 10.64
10/26/2020 8:45:00 PM 9.49 49.082 0.12 7.56 3.99 10.64
10/26/2020 9:00:00 PM 9.5 49.1 0.12 7.6 3.98 10.65
10/26/2020 9:15:00 PM 9.5 49.1 0.12 7.61 4.04 10.63
10/26/2020 9:30:00 PM 9.5 49.1 0.12 7.61 4.38 10.63
10/26/2020 9:45:00 PM 9.49 49.082 0.12 7.61 4.15 10.63
10/26/2020 10:00:00 PM 9.49 49.082 0.12 7.6 4.18 10.65
10/26/2020 10:15:00 PM 9.48 49.064 0.119 7.61 3.98 10.65
10/26/2020 10:30:00 PM 9.47 49.046 0.119 7.62 3.95 10.66
10/26/2020 10:45:00 PM 9.44 48.992 0.119 7.62 8.66 10.66
10/26/2020 11:00:00 PM 9.41 48.938 0.119 7.62 3.89 10.67
10/26/2020 11:15:00 PM 9.38 48.884 0.119 7.63 3.9 10.68
10/26/2020 11:30:00 PM 9.35 48.83 0.119 7.61 3.92 10.7
10/26/2020 11:45:00 PM 9.32 48.776 0.119 7.62 3.78 10.71
10/27/2020 12:00:00 AM 9.29 48.722 0.119 7.62 3.67 10.73
10/27/2020 12:15:00 AM 9.26 48.668 0.119 7.62 3.84 10.74
10/27/2020 12:30:00 AM 9.22 48.596 0.119 7.62 3.76 10.75
10/27/2020 12:45:00 AM 9.19 48.542 0.119 7.62 3.73 10.76
10/27/2020 1:00:00 AM 9.16 48.488 0.119 7.63 3.6 10.77
10/27/2020 1:15:00 AM 9.13 48.434 0.119 7.62 3.94 10.79
10/27/2020 1:30:00 AM 9.1 48.38 0.119 7.62 3.93 10.8
10/27/2020 1:45:00 AM 9.07 48.326 0.119 7.63 3.82 10.81
10/27/2020 2:00:00 AM 9.05 48.29 0.119 7.63 3.84 10.82
10/27/2020 2:15:00 AM 9.02 48.236 0.119 7.63 3.92 10.82
10/27/2020 2:30:00 AM 9 48.2 0.119 7.63 3.96 10.83
10/27/2020 2:45:00 AM 8.97 48.146 0.119 7.61 3.92 10.83
10/27/2020 3:00:00 AM 8.95 48.11 0.119 7.62 3.69 10.84
10/27/2020 3:15:00 AM 8.93 48.074 0.119 7.63 3.83 10.85
10/27/2020 3:30:00 AM 8.91 48.038 0.119 7.63 3.67 10.86
10/27/2020 3:45:00 AM 8.89 48.002 0.119 7.63 3.76 10.87
10/27/2020 4:00:00 AM 8.86 47.948 0.119 7.63 3.71 10.88
10/27/2020 4:15:00 AM 8.84 47.912 0.119 7.62 3.83 10.89
10/27/2020 4:30:00 AM 8.82 47.876 0.119 7.63 3.55 10.89
10/27/2020 4:45:00 AM 8.79 47.822 0.119 7.63 3.7 10.91
10/27/2020 5:00:00 AM 8.77 47.786 0.119 7.63 3.9 10.92
10/27/2020 5:15:00 AM 8.75 47.75 0.119 7.63 3.68 10.93
10/27/2020 5:30:00 AM 8.73 47.714 0.119 7.62 3.79 10.94
10/27/2020 5:45:00 AM 8.71 47.678 0.119 7.61 3.61 10.95
10/27/2020 6:00:00 AM 8.69 47.642 0.119 7.63 3.78 10.95
10/27/2020 6:15:00 AM 8.67 47.606 0.119 7.63 3.62 10.96
10/27/2020 6:30:00 AM 8.65 47.57 0.119 7.63 3.57 10.97
10/27/2020 6:45:00 AM 8.63 47.534 0.119 7.63 3.57 10.98
10/27/2020 7:00:00 AM 8.61 47.498 0.119 7.63 3.79 10.99
10/27/2020 7:15:00 AM 8.6 47.48 0.119 7.63 3.57 10.99
10/27/2020 7:30:00 AM 8.59 47.462 0.119 7.63 3.59 11
10/27/2020 7:45:00 AM 8.57 47.426 0.119 7.64 3.67 11.01
10/27/2020 8:00:00 AM 8.56 47.408 0.119 7.62 3.78 11.01
10/27/2020 8:15:00 AM 8.55 47.39 0.119 7.64 3.85 11.01
10/27/2020 8:30:00 AM 8.56 47.408 0.118 7.64 3.58 11.03
10/27/2020 8:45:00 AM 8.58 47.444 0.118 7.63 3.64 11.05
10/27/2020 9:00:00 AM 8.61 47.498 0.118 7.65 3.59 11.05
10/27/2020 9:15:00 AM 8.68 47.624 0.118 7.65 3.67 11.04
10/27/2020 9:30:00 AM 8.77 47.786 0.118 7.62 3.9 11.04
10/27/2020 9:45:00 AM 8.83 47.894 0.118 7.66 3.8 11.02
10/27/2020 10:00:00 AM 8.88 47.984 0.118 7.65 3.51 11.01
10/27/2020 10:15:00 AM 8.91 48.038 0.118 7.66 3.65 10.99
10/27/2020 10:30:00 AM 8.98 48.164 0.118 7.66 4.23 10.98
10/27/2020 10:45:00 AM 9 48.2 0.118 7.65 5.34 10.95
10/27/2020 11:00:00 AM 9.07 48.326 0.118 7.66 4.44 10.94
10/27/2020 11:15:00 AM 9.19 48.542 0.118 7.66 4.49 10.93
10/27/2020 11:30:00 AM 9.3 48.74 0.118 7.67 4.12 10.91
10/27/2020 11:45:00 AM 9.31 48.758 0.118 7.66 4.52 10.89
10/27/2020 12:00:00 PM 9.38 48.884 0.118 7.67 4.24 10.87
10/27/2020 12:15:00 PM 9.45 49.01 0.118 7.67 4.12 10.84
10/27/2020 12:30:00 PM 9.47 49.046 0.118 7.65 4.12 10.82
10/27/2020 12:45:00 PM 9.5 49.1 0.118 7.67 3.95 10.81
10/27/2020 1:00:00 PM 9.53 49.154 0.118 7.66 4.02 10.79
10/27/2020 1:15:00 PM 9.58 49.244 0.118 7.66 4.12 10.78
10/27/2020 1:30:00 PM 9.61 49.298 0.118 7.67 4.13 10.77
10/27/2020 1:45:00 PM 9.62 49.316 0.118 7.67 4.46 10.75
10/27/2020 2:00:00 PM 9.62 49.316 0.118 7.66 3.93 10.75
10/27/2020 2:15:00 PM 9.63 49.334 0.118 7.66 4.04 10.74
10/27/2020 2:30:00 PM 9.63 49.334 0.118 7.64 4.36 10.74
10/27/2020 2:45:00 PM 9.63 49.334 0.118 7.66 4.17 10.74
10/27/2020 3:00:00 PM 9.62 49.316 0.118 7.66 4.18 10.73
10/27/2020 3:15:00 PM 9.61 49.298 0.118 7.66 4.17 10.73
10/27/2020 3:30:00 PM 9.62 49.316 0.118 7.66 4.3 10.73
10/27/2020 3:45:00 PM 9.65 49.37 0.118 7.66 4.12 10.73
10/27/2020 4:00:00 PM 9.64 49.352 0.118 7.66 4.43 10.72
10/27/2020 4:15:00 PM 9.62 49.316 0.118 7.66 4.32 10.71
10/27/2020 4:30:00 PM 9.61 49.298 0.118 7.65 4.27 10.71
10/27/2020 4:45:00 PM 9.59 49.262 0.118 7.65 4.35 10.71
10/27/2020 5:00:00 PM 9.56 49.208 0.118 7.65 4.27 10.71
10/27/2020 5:15:00 PM 9.52 49.136 0.118 7.65 4.18 10.72
10/27/2020 5:30:00 PM 9.48 49.064 0.118 7.64 4.75 10.72
10/27/2020 5:45:00 PM 9.44 48.992 0.118 7.64 4.42 10.73
10/27/2020 6:00:00 PM 9.41 48.938 0.118 7.6 4.74 10.73
10/27/2020 6:15:00 PM 9.37 48.866 0.118 7.64 4.61 10.74
10/27/2020 6:30:00 PM 9.33 48.794 0.118 7.64 4.74 10.75
10/27/2020 6:45:00 PM 9.3 48.74 0.118 7.63 5.17 10.76
10/27/2020 7:00:00 PM 9.27 48.686 0.118 7.64 4.74 10.76
10/27/2020 7:15:00 PM 9.24 48.632 0.118 7.63 4.8 10.78
10/27/2020 7:30:00 PM 9.2 48.56 0.118 7.63 4.9 10.79
10/27/2020 7:45:00 PM 9.15 48.47 0.118 7.64 4.79 10.81
10/27/2020 8:00:00 PM 9.11 48.398 0.118 7.64 4.96 10.81
10/27/2020 8:15:00 PM 9.08 48.344 0.118 7.64 4.73 10.83
10/27/2020 8:30:00 PM 9.04 48.272 0.118 7.62 4.89 10.84
10/27/2020 8:45:00 PM 9.01 48.218 0.118 7.63 4.66 10.84
10/27/2020 9:00:00 PM 8.98 48.164 0.118 7.63 4.53 10.85
10/27/2020 9:15:00 PM 8.95 48.11 0.118 7.64 4.53 10.85
10/27/2020 9:30:00 PM 8.92 48.056 0.118 7.63 4.36 10.86
10/27/2020 9:45:00 PM 8.89 48.002 0.118 7.65 4.67 10.87
10/27/2020 10:00:00 PM 8.87 47.966 0.118 7.63 4.16 10.87
10/27/2020 10:15:00 PM 8.84 47.912 0.118 7.64 4.84 10.88
10/27/2020 10:30:00 PM 8.81 47.858 0.118 7.65 4.28 10.89
10/27/2020 10:45:00 PM 8.79 47.822 0.118 7.63 4.32 10.89
10/27/2020 11:00:00 PM 8.76 47.768 0.118 7.63 4.49 10.9
10/27/2020 11:15:00 PM 8.74 47.732 0.118 7.64 4.07 10.91
10/27/2020 11:30:00 PM 8.72 47.696 0.118 7.63 4.26 10.92
10/27/2020 11:45:00 PM 8.71 47.678 0.118 7.64 3.82 10.92
10/28/2020 12:00:00 AM 8.69 47.642 0.118 7.64 4.12 10.92
10/28/2020 12:15:00 AM 8.68 47.624 0.118 7.63 4.04 10.93
10/28/2020 12:30:00 AM 8.66 47.588 0.118 7.63 4.01 10.93
10/28/2020 12:45:00 AM 8.65 47.57 0.118 7.64 4.01 10.94
10/28/2020 1:00:00 AM 8.64 47.552 0.118 7.63 3.93 10.94
10/28/2020 1:15:00 AM 8.62 47.516 0.118 7.64 3.83 10.93
10/28/2020 1:30:00 AM 8.61 47.498 0.118 7.63 3.97 10.94
10/28/2020 1:45:00 AM 8.6 47.48 0.117 7.64 3.98 10.95
10/28/2020 2:00:00 AM 8.59 47.462 0.117 7.64 4 10.94
10/28/2020 2:15:00 AM 8.58 47.444 0.117 7.62 3.89 10.94
10/28/2020 2:30:00 AM 8.57 47.426 0.117 7.62 3.82 10.93
10/28/2020 2:45:00 AM 8.56 47.408 0.117 7.63 4.1 10.94
10/28/2020 3:00:00 AM 8.55 47.39 0.117 7.61 3.86 10.94
10/28/2020 3:15:00 AM 8.54 47.372 0.117 7.63 4.07 10.93
10/28/2020 3:30:00 AM 8.53 47.354 0.117 7.62 3.99 10.93
10/28/2020 3:45:00 AM 8.52 47.336 0.116 7.62 4.2 10.93
10/28/2020 4:00:00 AM 8.51 47.318 0.116 7.61 4.32 10.92
10/28/2020 4:15:00 AM 8.51 47.318 0.116 7.61 4.07 10.93
10/28/2020 4:30:00 AM 8.5 47.3 0.116 7.62 4.09 10.94
10/28/2020 4:45:00 AM 8.5 47.3 0.116 7.62 4.17 10.93
10/28/2020 5:00:00 AM 8.49 47.282 0.115 7.62 4.47 10.95
10/28/2020 5:15:00 AM 8.48 47.264 0.115 7.61 4.83 10.95
10/28/2020 5:30:00 AM 8.48 47.264 0.115 7.61 5.27 10.95
10/28/2020 5:45:00 AM 8.47 47.246 0.114 7.6 5.04 10.95
10/28/2020 6:00:00 AM 8.47 47.246 0.114 7.6 5.5 10.96
10/28/2020 6:15:00 AM 8.46 47.228 0.115 7.61 5.65 10.97
10/28/2020 6:30:00 AM 8.46 47.228 0.115 7.62 6.58 10.96
10/28/2020 6:45:00 AM 8.46 47.228 0.115 7.62 6.52 10.98
10/28/2020 7:00:00 AM 8.46 47.228 0.115 7.61 5.79 10.97
10/28/2020 7:15:00 AM 8.46 47.228 0.115 7.61 5.74 10.98
10/28/2020 7:30:00 AM 8.45 47.21 0.115 7.61 6.05 10.98
10/28/2020 7:45:00 AM 8.45 47.21 0.116 7.62 5.93 10.98
10/28/2020 8:00:00 AM 8.46 47.228 0.116 7.62 5.91 10.99
10/28/2020 8:15:00 AM 8.46 47.228 0.116 7.63 6.15 11
10/28/2020 8:30:00 AM 8.47 47.246 0.116 7.63 6.12 10.99
10/28/2020 8:45:00 AM 8.48 47.264 0.116 7.63 5.64 11.01
10/28/2020 9:00:00 AM 8.49 47.282 0.117 7.62 5.46 11.01
10/28/2020 9:15:00 AM 8.5 47.3 0.117 7.63 5.07 11.01
10/28/2020 9:30:00 AM 8.52 47.336 0.117 7.64 5.2 11
10/28/2020 9:45:00 AM 8.56 47.408 0.117 7.61 5.28 11.02
10/28/2020 10:00:00 AM 8.6 47.48 0.117 7.64 5.1 11
10/28/2020 10:15:00 AM 8.63 47.534 0.117 7.64 5.16 11
10/28/2020 10:30:00 AM 8.7 47.66 0.117 7.63 5.25 11
10/28/2020 10:45:00 AM 8.76 47.768 0.117 7.65 4.89 10.98
10/28/2020 11:00:00 AM 8.82 47.876 0.117 7.65 4.73 10.96
10/28/2020 11:15:00 AM 8.87 47.966 0.117 7.65 4.73 10.95
10/28/2020 11:30:00 AM 8.93 48.074 0.117 7.65 4.62 10.93
10/28/2020 11:45:00 AM 9.03 48.254 0.117 7.65 4.62 10.91
10/28/2020 12:00:00 PM 9.09 48.362 0.117 7.66 4.54 10.9
10/28/2020 12:15:00 PM 9.17 48.506 0.117 7.66 4.54 10.88
10/28/2020 12:30:00 PM 9.26 48.668 0.117 7.67 4.5 10.86
10/28/2020 12:45:00 PM 9.31 48.758 0.117 7.66 4.59 10.84
10/28/2020 1:00:00 PM 9.36 48.848 0.117 7.67 4.73 10.82
10/28/2020 1:15:00 PM 9.42 48.956 0.117 7.67 4.56 10.8
10/28/2020 1:30:00 PM 9.45 49.01 0.117 7.66 4.68 10.78
10/28/2020 1:45:00 PM 9.52 49.136 0.117 7.66 4.85 10.79
10/28/2020 2:00:00 PM 9.6 49.28 0.117 7.67 4.74 10.77
10/28/2020 2:15:00 PM 9.66 49.388 0.117 7.67 4.78 10.75
10/28/2020 2:30:00 PM 9.7 49.46 0.117 7.67 4.97 10.74
10/28/2020 2:45:00 PM 9.75 49.55 0.117 7.67 5.09 10.72
10/28/2020 3:00:00 PM 9.78 49.604 0.117 7.66 4.97 10.71
10/28/2020 3:15:00 PM 9.84 49.712 0.117 7.67 4.87 10.7
10/28/2020 3:30:00 PM 9.88 49.784 0.117 7.66 4.84 10.68
10/28/2020 3:45:00 PM 9.9 49.82 0.117 7.67 5.04 10.67
10/28/2020 4:00:00 PM 9.92 49.856 0.117 7.67 5.1 10.66
10/28/2020 4:15:00 PM 9.92 49.856 0.117 7.67 4.89 10.65
10/28/2020 4:30:00 PM 9.88 49.784 0.117 7.67 4.87 10.65
10/28/2020 4:45:00 PM 9.86 49.748 0.116 7.66 4.78 10.66
10/28/2020 5:00:00 PM 9.83 49.694 0.116 7.65 5.27 10.66
10/28/2020 5:15:00 PM 9.8 49.64 0.116 7.65 4.81 10.67
10/28/2020 5:30:00 PM 9.74 49.532 0.116 7.65 4.85 10.67
10/28/2020 5:45:00 PM 9.67 49.406 0.116 7.65 5.12 10.68
10/28/2020 6:00:00 PM 9.59 49.262 0.116 7.62 5.11 10.69
10/28/2020 6:15:00 PM 9.49 49.082 0.116 7.63 5.77 10.71
10/28/2020 6:30:00 PM 9.39 48.902 0.116 7.63 6.22 10.74
10/28/2020 6:45:00 PM 9.3 48.74 0.116 7.63 5.96 10.77
10/28/2020 7:00:00 PM 9.22 48.596 0.116 7.63 5.66 10.79
10/28/2020 7:15:00 PM 9.14 48.452 0.116 7.63 5.49 10.82
10/28/2020 7:30:00 PM 9.06 48.308 0.116 7.63 5.45 10.84
10/28/2020 7:45:00 PM 8.99 48.182 0.116 7.63 5.23 10.86
10/28/2020 8:00:00 PM 8.92 48.056 0.116 7.63 5.78 10.88
10/28/2020 8:15:00 PM 8.85 47.93 0.116 7.62 4.89 10.9
10/28/2020 8:30:00 PM 8.79 47.822 0.116 7.63 4.88 10.92
10/28/2020 8:45:00 PM 8.72 47.696 0.115 7.62 4.98 10.94
10/28/2020 9:00:00 PM 8.66 47.588 0.115 7.62 4.79 10.96
10/28/2020 9:15:00 PM 8.61 47.498 0.115 7.61 5.05 10.97
10/28/2020 9:30:00 PM 8.56 47.408 0.115 7.62 5.06 10.99
10/28/2020 9:45:00 PM 8.5 47.3 0.115 7.62 4.77 11.01
10/28/2020 10:00:00 PM 8.43 47.174 0.115 7.62 4.65 11.02
10/28/2020 10:15:00 PM 8.37 47.066 0.115 7.62 4.64 11.04
10/28/2020 10:30:00 PM 8.31 46.958 0.115 7.6 4.7 11.06
10/28/2020 10:45:00 PM 8.25 46.85 0.115 7.62 4.83 11.06
10/28/2020 11:00:00 PM 8.21 46.778 0.115 7.62 4.67 11.08
10/28/2020 11:15:00 PM 8.17 46.706 0.115 7.62 4.66 11.1
10/28/2020 11:30:00 PM 8.13 46.634 0.115 7.62 4.48 11.11
10/28/2020 11:45:00 PM 8.1 46.58 0.115 7.61 4.48 11.11
10/29/2020 12:00:00 AM 8.07 46.526 0.115 7.62 4.58 11.12
10/29/2020 12:15:00 AM 8.04 46.472 0.115 7.62 4.57 11.14
10/29/2020 12:30:00 AM 8.02 46.436 0.115 7.61 4.69 11.13
10/29/2020 12:45:00 AM 8 46.4 0.115 7.61 4.45 11.14
10/29/2020 1:00:00 AM 7.98 46.364 0.115 7.61 4.52 11.15
10/29/2020 1:15:00 AM 7.96 46.328 0.115 7.62 4.47 11.16
10/29/2020 1:30:00 AM 7.94 46.292 0.115 7.61 4.42 11.16
10/29/2020 1:45:00 AM 7.92 46.256 0.115 7.61 4.49 11.17
10/29/2020 2:00:00 AM 7.91 46.238 0.115 7.61 4.23 11.17
10/29/2020 2:15:00 AM 7.89 46.202 0.115 7.62 4.21 11.17
10/29/2020 2:30:00 AM 7.87 46.166 0.115 7.6 4.35 11.17
10/29/2020 2:45:00 AM 7.86 46.148 0.115 7.6 4.1 11.18
10/29/2020 3:00:00 AM 7.85 46.13 0.115 7.61 4.35 11.18
10/29/2020 3:15:00 AM 7.84 46.112 0.115 7.59 4.26 11.19
10/29/2020 3:30:00 AM 7.83 46.094 0.115 7.61 3.97 11.19
10/29/2020 3:45:00 AM 7.82 46.076 0.115 7.61 4.15 11.19
10/29/2020 4:00:00 AM 7.82 46.076 0.115 7.62 4.11 11.19
10/29/2020 4:15:00 AM 7.81 46.058 0.115 7.61 3.87 11.18
10/29/2020 4:30:00 AM 7.81 46.058 0.115 7.62 3.71 11.19
10/29/2020 4:45:00 AM 7.8 46.04 0.115 7.59 4.25 11.19
10/29/2020 5:00:00 AM 7.8 46.04 0.115 7.62 4.07 11.19
10/29/2020 5:15:00 AM 7.8 46.04 0.115 7.62 4.14 11.2
10/29/2020 5:30:00 AM 7.8 46.04 0.114 7.62 3.94 11.19
10/29/2020 5:45:00 AM 7.79 46.022 0.114 7.61 4.31 11.19
10/29/2020 6:00:00 AM 7.79 46.022 0.114 7.59 4.34 11.18
10/29/2020 6:15:00 AM 7.79 46.022 0.114 7.61 4.39 11.17
10/29/2020 6:30:00 AM 7.78 46.004 0.114 7.61 4.13 11.17
10/29/2020 6:45:00 AM 7.78 46.004 0.113 7.61 4.11 11.17
10/29/2020 7:00:00 AM 7.78 46.004 0.113 7.61 4.25 11.16
10/29/2020 7:15:00 AM 7.78 46.004 0.113 7.61 4.41 11.16
10/29/2020 7:30:00 AM 7.77 45.986 0.112 7.6 4.48 11.16
10/29/2020 7:45:00 AM 7.76 45.968 0.112 7.59 4.71 11.16
10/29/2020 8:00:00 AM 7.76 45.968 0.112 7.58 4.78 11.16
10/29/2020 8:15:00 AM 7.76 45.968 0.111 7.6 5.35 11.16
10/29/2020 8:30:00 AM 7.76 45.968 0.111 7.6 6.41 11.16
10/29/2020 8:45:00 AM 7.76 45.968 0.11 7.6 5.95 11.17
10/29/2020 9:00:00 AM 7.77 45.986 0.11 7.6 7.07 11.17
10/29/2020 9:15:00 AM 7.76 45.968 0.108 7.57 9.17 11.19
10/29/2020 9:30:00 AM 7.75 45.95 0.107 7.58 11.04 11.2
10/29/2020 9:45:00 AM 7.75 45.95 0.106 7.58 13.6 11.21
10/29/2020 10:00:00 AM 7.75 45.95 0.105 7.57 23.36 11.22
10/29/2020 10:15:00 AM 7.74 45.932 0.103 7.57 22.03 11.24
10/29/2020 10:30:00 AM 7.75 45.95 0.103 7.57 29.61 11.25
10/29/2020 10:45:00 AM 7.77 45.986 0.103 7.57 60.98 11.26
10/29/2020 11:00:00 AM 7.8 46.04 0.104 7.57 56.45 11.27
10/29/2020 11:15:00 AM 7.85 46.13 0.108 7.56 68.81 11.27
10/29/2020 11:30:00 AM 7.91 46.238 0.11 7.56 58.3 11.25
10/29/2020 11:45:00 AM 7.97 46.346 0.108 7.56 66.75 11.25
10/29/2020 12:00:00 PM 8.01 46.418 0.107 7.57 66.06 11.25
10/29/2020 12:15:00 PM 8.04 46.472 0.105 7.53 82.58 11.25
10/29/2020 12:30:00 PM 8.08 46.544 0.104 7.56 99.48 11.25
10/29/2020 12:45:00 PM 8.13 46.634 0.104 7.53 88.98 11.24
10/29/2020 1:00:00 PM 8.2 46.76 0.103 7.52 134.28 11.24
10/29/2020 1:15:00 PM 8.22 46.796 0.1 7.53 127.86 11.26
10/29/2020 1:30:00 PM 8.2 46.76 0.097 7.52 245.06 11.26
10/29/2020 1:45:00 PM 8.18 46.724 0.093 7.5 123.21 11.27
10/29/2020 2:00:00 PM 8.19 46.742 0.089 7.49 101.89 11.3
10/29/2020 2:15:00 PM 8.23 46.814 0.086 7.47 117.26 11.29
10/29/2020 2:30:00 PM 8.26 46.868 0.085 7.44 76.26 11.27
10/29/2020 2:45:00 PM 8.25 46.85 0.083 7.42 62.96 11.27
10/29/2020 3:00:00 PM 8.24 46.832 0.083 7.42 9303.03 11.27
10/29/2020 3:15:00 PM 8.22 46.796 0.082 7.41 66.41 11.28
10/29/2020 3:30:00 PM 8.2 46.76 0.081 7.38 83.7 11.28
10/29/2020 3:45:00 PM 8.19 46.742 0.08 7.37 70.75 11.28
10/29/2020 4:00:00 PM 8.18 46.724 0.079 7.37 80.87 11.3
10/29/2020 4:15:00 PM 8.17 46.706 0.08 7.4 79.95 11.3
10/29/2020 4:30:00 PM 8.17 46.706 0.08 7.38 92.86 11.3
10/29/2020 4:45:00 PM 8.2 46.76 0.08 7.36 90.47 11.29
10/29/2020 5:00:00 PM 8.23 46.814 0.08 7.35 89.8 11.29
10/29/2020 5:15:00 PM 8.25 46.85 0.08 7.35 119.43 11.29
10/29/2020 5:30:00 PM 8.27 46.886 0.079 7.36 95.17 11.29
10/29/2020 5:45:00 PM 8.25 46.85 0.078 7.35 84.88 11.29
10/29/2020 6:00:00 PM 8.25 46.85 0.078 7.33 71.06 11.29
10/29/2020 6:15:00 PM 8.24 46.832 0.077 7.34 53.33 11.3
10/29/2020 6:30:00 PM 8.24 46.832 0.078 7.33 53.63 11.29
10/29/2020 6:45:00 PM 8.24 46.832 0.078 7.34 46.67 11.29
10/29/2020 7:00:00 PM 8.24 46.832 0.078 7.3 43.45 11.28
10/29/2020 7:15:00 PM 8.24 46.832 0.079 7.33 39.25 11.29
10/29/2020 7:30:00 PM 8.24 46.832 0.079 7.31 37.31 11.28
10/29/2020 7:45:00 PM 8.23 46.814 0.079 7.32 45.06 11.28
10/29/2020 8:00:00 PM 8.24 46.832 0.08 7.32 31.96 11.28
10/29/2020 8:15:00 PM 8.23 46.814 0.08 7.34 30.35 11.28
10/29/2020 8:30:00 PM 8.22 46.796 0.08 7.33 34.04 11.28
10/29/2020 8:45:00 PM 8.22 46.796 0.081 7.32 26.64 11.28
10/29/2020 9:00:00 PM 8.21 46.778 0.081 7.3 26.03 11.29
10/29/2020 9:15:00 PM 8.2 46.76 0.081 7.34 24.13 11.29
10/29/2020 9:30:00 PM 8.2 46.76 0.081 7.34 24.31 11.29
10/29/2020 9:45:00 PM 8.19 46.742 0.082 7.32 24.09 11.28
10/29/2020 10:00:00 PM 8.18 46.724 0.082 7.34 20.95 11.29
10/29/2020 10:15:00 PM 8.17 46.706 0.082 7.36 19.64 11.3
10/29/2020 10:30:00 PM 8.15 46.67 0.083 7.36 18.46 11.3
10/29/2020 10:45:00 PM 8.12 46.616 0.083 7.36 18.33 11.29
10/29/2020 11:00:00 PM 8.09 46.562 0.083 7.37 17.58 11.31
10/29/2020 11:15:00 PM 8.07 46.526 0.084 7.37 14.6 11.31
10/29/2020 11:30:00 PM 8.03 46.454 0.084 7.37 16.2 11.32
10/29/2020 11:45:00 PM 8 46.4 0.084 7.37 13.83 11.33
10/30/2020 12:00:00 AM 7.98 46.364 0.084 7.37 12.84 11.34
10/30/2020 12:15:00 AM 7.96 46.328 0.085 7.37 14.95 11.34
10/30/2020 12:30:00 AM 7.93 46.274 0.085 7.38 14.44 11.35
10/30/2020 12:45:00 AM 7.91 46.238 0.086 7.39 14.74 11.36
10/30/2020 1:00:00 AM 7.89 46.202 0.086 7.39 12.95 11.36
10/30/2020 1:15:00 AM 7.87 46.166 0.086 7.39 13.29 11.37
10/30/2020 1:30:00 AM 7.85 46.13 0.086 7.4 12.17 11.38
10/30/2020 1:45:00 AM 7.82 46.076 0.086 7.38 12.26 11.38
10/30/2020 2:00:00 AM 7.8 46.04 0.086 7.39 12.24 11.39
10/30/2020 2:15:00 AM 7.76 45.968 0.086 7.39 12.05 11.4
10/30/2020 2:30:00 AM 7.71 45.878 0.086 7.39 12.08 11.41
10/30/2020 2:45:00 AM 7.67 45.806 0.086 7.38 11.67 11.42
10/30/2020 3:00:00 AM 7.65 45.77 0.086 7.39 11.95 11.43
10/30/2020 3:15:00 AM 7.63 45.734 0.086 7.39 11.84 11.44
10/30/2020 3:30:00 AM 7.62 45.716 0.086 7.38 12.19 11.45
10/30/2020 3:45:00 AM 7.59 45.662 0.086 7.38 11.44 11.46
10/30/2020 4:00:00 AM 7.54 45.572 0.085 7.38 11.86 11.47
10/30/2020 4:15:00 AM 7.5 45.5 0.085 7.39 11.35 11.48
10/30/2020 4:30:00 AM 7.44 45.392 0.085 7.39 12.07 11.51
10/30/2020 4:45:00 AM 7.39 45.302 0.084 7.38 12.45 11.53
10/30/2020 5:00:00 AM 7.33 45.194 0.084 7.38 13.36 11.55
10/30/2020 5:15:00 AM 7.27 45.086 0.085 7.36 14.12 11.57
10/30/2020 5:30:00 AM 7.24 45.032 0.085 7.38 14.08 11.59
10/30/2020 5:45:00 AM 7.23 45.014 0.085 7.38 13.9 11.6
10/30/2020 6:00:00 AM 7.21 44.978 0.085 7.37 13.77 11.6
10/30/2020 6:15:00 AM 7.2 44.96 0.085 7.38 13.59 11.61
10/30/2020 6:30:00 AM 7.17 44.906 0.085 7.38 13.19 11.63
10/30/2020 6:45:00 AM 7.15 44.87 0.084 7.37 49.57 11.63
10/30/2020 7:00:00 AM 7.13 44.834 0.084 7.36 12.44 11.65
10/30/2020 7:15:00 AM 7.12 44.816 0.083 7.35 12.38 11.64
10/30/2020 7:30:00 AM 7.1 44.78 0.083 7.37 11.5 11.65
10/30/2020 7:45:00 AM 7.09 44.762 0.083 7.36 11.6 11.66
10/30/2020 8:00:00 AM 7.07 44.726 0.083 7.36 11.36 11.66
10/30/2020 8:15:00 AM 7.06 44.708 0.082 7.37 11.41 11.68
10/30/2020 8:30:00 AM 7.05 44.69 0.082 7.37 10.98 11.69
10/30/2020 8:45:00 AM 7.04 44.672 0.082 7.35 10.92 11.69
10/30/2020 9:00:00 AM 7.02 44.636 0.082 7.37 10.92 11.7
10/30/2020 9:15:00 AM 7.02 44.636 0.082 7.39 10.39 11.71
10/30/2020 9:30:00 AM 7.01 44.618 0.082 7.37 10.3 11.71
10/30/2020 9:45:00 AM 7.01 44.618 0.082 7.36 10.3 11.71
10/30/2020 10:00:00 AM 6.99 44.582 0.082 7.35 10.38 11.73
10/30/2020 10:15:00 AM 6.98 44.564 0.082 7.39 10.38 11.72
10/30/2020 10:30:00 AM 6.97 44.546 0.082 7.38 9.93 11.73
10/30/2020 10:45:00 AM 6.96 44.528 0.083 7.39 10.25 11.75
10/30/2020 11:00:00 AM 6.97 44.546 0.083 7.39 10.31 11.75
10/30/2020 11:15:00 AM 7.02 44.636 0.083 7.36 10.14 11.75
10/30/2020 11:30:00 AM 7.06 44.708 0.083 7.38 10.09 11.74
10/30/2020 11:45:00 AM 7.06 44.708 0.083 7.39 9.94 11.73
10/30/2020 12:00:00 PM 7.05 44.69 0.083 7.38 9.9 11.73
10/30/2020 12:15:00 PM 7.05 44.69 0.083 7.39 9.7 11.74
10/30/2020 12:30:00 PM 7.03 44.654 0.084 7.37 9.62 11.74
10/30/2020 12:45:00 PM 7.02 44.636 0.084 7.39 9.27 11.74
10/30/2020 1:00:00 PM 7.01 44.618 0.084 7.41 9.13 11.75
10/30/2020 1:15:00 PM 7.01 44.618 0.084 7.4 9.13 11.75
10/30/2020 1:30:00 PM 7.02 44.636 0.084 7.41 9.24 11.75
10/30/2020 1:45:00 PM 7.04 44.672 0.084 7.39 9.14 11.75
10/30/2020 2:00:00 PM 7.04 44.672 0.085 7.41 9.16 11.74
10/30/2020 2:15:00 PM 7.07 44.726 0.085 7.42 8.77 11.74
10/30/2020 2:30:00 PM 7.07 44.726 0.085 7.4 8.81 11.73
10/30/2020 2:45:00 PM 7.03 44.654 0.085 7.42 9.12 11.73
10/30/2020 3:00:00 PM 7 44.6 0.085 7.41 8.81 11.75
10/30/2020 3:15:00 PM 6.98 44.564 0.085 7.37 8.83 11.75
10/30/2020 3:30:00 PM 6.96 44.528 0.086 7.42 8.81 11.76
10/30/2020 3:45:00 PM 6.96 44.528 0.086 7.41 8.44 11.76
10/30/2020 4:00:00 PM 6.99 44.582 0.086 7.4 8.38 11.77
10/30/2020 4:15:00 PM 6.98 44.564 0.086 7.41 7.92 11.76
10/30/2020 4:30:00 PM 6.97 44.546 0.086 7.43 8.07 11.76
10/30/2020 4:45:00 PM 6.94 44.492 0.086 7.41 8.42 11.77
10/30/2020 5:00:00 PM 6.94 44.492 0.087 7.43 8.33 11.77
10/30/2020 5:15:00 PM 6.91 44.438 0.087 7.43 8.09 11.77
10/30/2020 5:30:00 PM 6.85 44.33 0.087 7.42 8.01 11.79
10/30/2020 5:45:00 PM 6.8 44.24 0.087 7.4 8.34 11.79
10/30/2020 6:00:00 PM 6.74 44.132 0.087 7.41 7.71 11.81
10/30/2020 6:15:00 PM 6.67 44.006 0.087 7.41 7.65 11.82
10/30/2020 6:30:00 PM 6.64 43.952 0.088 7.42 7.67 11.83
10/30/2020 6:45:00 PM 6.61 43.898 0.124 7.4 7.72 11.84
10/30/2020 7:00:00 PM 6.59 43.862 0.126 7.41 7.43 11.85
10/30/2020 7:15:00 PM 6.58 43.844 0.097 7.42 7.3 11.85
10/30/2020 7:30:00 PM 6.56 43.808 0.091 7.43 7.52 11.86
10/30/2020 7:45:00 PM 6.54 43.772 0.126 7.39 7.22 11.87
10/30/2020 8:00:00 PM 6.52 43.736 0.222 7.4 6.7 11.87
10/30/2020 8:15:00 PM 6.5 43.7 0.121 7.43 6.96 11.88
10/30/2020 8:30:00 PM 6.48 43.664 0.1 7.44 6.82 11.89
10/30/2020 8:45:00 PM 6.46 43.628 0.095 7.44 7.02 11.9
10/30/2020 9:00:00 PM 6.44 43.592 0.093 7.43 6.71 11.91
10/30/2020 9:15:00 PM 6.42 43.556 0.092 7.43 6.61 11.92
10/30/2020 9:30:00 PM 6.39 43.502 0.092 7.44 6.42 11.93
10/30/2020 9:45:00 PM 6.35 43.43 0.091 7.43 6.39 11.94
10/30/2020 10:00:00 PM 6.3 43.34 0.091 7.43 6.25 11.96
10/30/2020 10:15:00 PM 6.25 43.25 0.091 7.44 6.29 11.97
10/30/2020 10:30:00 PM 6.22 43.196 0.091 7.43 6.55 11.99
10/30/2020 10:45:00 PM 6.2 43.16 0.091 7.43 6.16 12
10/30/2020 11:00:00 PM 6.18 43.124 0.091 7.43 5.97 12.01
10/30/2020 11:15:00 PM 6.16 43.088 0.091 7.42 5.82 12.01
10/30/2020 11:30:00 PM 6.14 43.052 0.091 7.44 6.11 12.02
10/30/2020 11:45:00 PM 6.13 43.034 0.091 7.42 5.96 12.02
10/31/2020 12:00:00 AM 6.11 42.998 0.091 7.41 5.83 12.04
10/31/2020 12:15:00 AM 6.09 42.962 0.091 7.45 6 12.05
10/31/2020 12:30:00 AM 6.08 42.944 0.092 7.44 5.64 12.05
10/31/2020 12:45:00 AM 6.06 42.908 0.092 7.43 5.74 12.05
10/31/2020 1:00:00 AM 6.04 42.872 0.092 7.42 5.74 12.05
10/31/2020 1:15:00 AM 6.03 42.854 0.092 7.31 5.71 12.06
10/31/2020 1:30:00 AM 6.01 42.818 0.092 7.39 5.8 12.07
10/31/2020 1:45:00 AM 5.99 42.782 0.092 7.45 5.67 12.08
10/31/2020 2:00:00 AM 5.97 42.746 0.092 7.42 5.52 12.08
10/31/2020 2:15:00 AM 5.95 42.71 0.092 7.44 5.33 12.1
10/31/2020 2:30:00 AM 5.92 42.656 0.092 7.44 5.52 12.11
10/31/2020 2:45:00 AM 5.89 42.602 0.092 7.41 5.28 12.11
10/31/2020 3:00:00 AM 5.86 42.548 0.092 7.45 5.38 12.13
10/31/2020 3:15:00 AM 5.83 42.494 0.093 7.45 5.33 12.14
10/31/2020 3:30:00 AM 5.8 42.44 0.093 7.42 5.26 12.14
10/31/2020 3:45:00 AM 5.77 42.386 0.093 7.45 4.92 12.15
10/31/2020 4:00:00 AM 5.74 42.332 0.093 7.45 5.1 12.16
10/31/2020 4:15:00 AM 5.72 42.296 0.093 7.44 4.95 12.17
10/31/2020 4:30:00 AM 5.7 42.26 0.093 7.42 5.02 12.18
10/31/2020 4:45:00 AM 5.67 42.206 0.093 7.45 4.93 12.19
10/31/2020 5:00:00 AM 5.65 42.17 0.093 7.45 4.94 12.19
10/31/2020 5:15:00 AM 5.62 42.116 0.093 7.42 5.04 12.2
10/31/2020 5:30:00 AM 5.6 42.08 0.094 7.44 4.84 12.21
10/31/2020 5:45:00 AM 5.58 42.044 0.094 7.45 5.07 12.22
10/31/2020 6:00:00 AM 5.55 41.99 0.094 7.44 4.67 12.22
10/31/2020 6:15:00 AM 5.53 41.954 0.094 7.46 5 12.24
10/31/2020 6:30:00 AM 5.5 41.9 0.094 7.45 5.09 12.25
10/31/2020 6:45:00 AM 5.48 41.864 0.094 7.46 4.82 12.25
10/31/2020 7:00:00 AM 5.46 41.828 0.094 7.45 4.75 12.26
10/31/2020 7:15:00 AM 5.44 41.792 0.094 7.46 4.75 12.27
10/31/2020 7:30:00 AM 5.42 41.756 0.094 7.46 4.85 12.27
10/31/2020 7:45:00 AM 5.4 41.72 0.094 7.46 4.78 12.29
10/31/2020 8:00:00 AM 5.39 41.702 0.095 7.46 4.91 12.3
10/31/2020 8:15:00 AM 5.38 41.684 0.095 7.47 4.54 12.31
10/31/2020 8:30:00 AM 5.37 41.666 0.095 7.47 4.54 12.33
10/31/2020 8:45:00 AM 5.37 41.666 0.095 7.48 4.56 12.33
10/31/2020 9:00:00 AM 5.37 41.666 0.095 7.47 4.75 12.34
10/31/2020 9:15:00 AM 5.38 41.684 0.095 7.49 4.63 12.35
10/31/2020 9:30:00 AM 5.39 41.702 0.095 7.49 4.47 12.35
10/31/2020 9:45:00 AM 5.4 41.72 0.095 7.49 4.56 12.36
10/31/2020 10:00:00 AM 5.42 41.756 0.095 7.5 4.47 12.36
10/31/2020 10:15:00 AM 5.46 41.828 0.095 7.51 4.42 12.35
10/31/2020 10:30:00 AM 5.51 41.918 0.095 7.5 4.3 12.34
10/31/2020 10:45:00 AM 5.56 42.008 0.095 7.51 4.5 12.33
10/31/2020 11:00:00 AM 5.61 42.098 0.095 7.51 4.54 12.32
10/31/2020 11:15:00 AM 5.64 42.152 0.095 7.52 4.67 12.3
10/31/2020 11:30:00 AM 5.67 42.206 0.096 7.52 4.52 12.29
10/31/2020 11:45:00 AM 5.67 42.206 0.096 7.5 4.51 12.28
10/31/2020 12:00:00 PM 5.69 42.242 0.096 7.52 4.61 12.26
10/31/2020 12:15:00 PM 5.78 42.404 0.096 7.52 4.64 12.24
10/31/2020 12:30:00 PM 5.8 42.44 0.096 7.52 4.48 12.22
10/31/2020 12:45:00 PM 5.77 42.386 0.096 7.52 4.65 12.21
10/31/2020 1:00:00 PM 5.76 42.368 0.096 7.48 4.79 12.21
10/31/2020 1:15:00 PM 5.78 42.404 0.096 7.51 4.69 12.2
10/31/2020 1:30:00 PM 5.79 42.422 0.096 7.51 4.66 12.18
10/31/2020 1:45:00 PM 5.8 42.44 0.096 7.5 4.6 12.18
10/31/2020 2:00:00 PM 5.82 42.476 0.096 7.51 4.59 12.16
10/31/2020 2:15:00 PM 5.83 42.494 0.097 7.51 4.79 12.16
10/31/2020 2:30:00 PM 5.84 42.512 0.097 7.51 4.67 12.14
10/31/2020 2:45:00 PM 5.84 42.512 0.097 7.51 4.69 12.15
10/31/2020 3:00:00 PM 5.85 42.53 0.097 7.51 4.74 12.13
10/31/2020 3:15:00 PM 5.84 42.512 0.097 7.51 4.72 12.14
10/31/2020 3:30:00 PM 5.85 42.53 0.097 7.51 4.71 12.14
10/31/2020 3:45:00 PM 5.86 42.548 0.097 7.51 4.68 12.13
10/31/2020 4:00:00 PM 5.86 42.548 0.097 7.51 4.67 12.13
10/31/2020 4:15:00 PM 5.83 42.494 0.097 7.51 4.76 12.12
10/31/2020 4:30:00 PM 5.82 42.476 0.097 7.51 4.85 12.14
10/31/2020 4:45:00 PM 5.8 42.44 0.097 7.51 4.89 12.14
10/31/2020 5:00:00 PM 5.79 42.422 0.097 7.51 4.77 12.14
10/31/2020 5:15:00 PM 5.75 42.35 0.098 7.51 5.25 12.14
10/31/2020 5:30:00 PM 5.71 42.278 0.098 7.5 4.97 12.15
10/31/2020 5:45:00 PM 5.65 42.17 0.098 7.49 5.01 12.15
10/31/2020 6:00:00 PM 5.59 42.062 0.098 7.48 4.76 12.16
10/31/2020 6:15:00 PM 5.52 41.936 0.098 7.46 5.09 12.17
10/31/2020 6:30:00 PM 5.45 41.81 0.098 7.47 5.18 12.19
10/31/2020 6:45:00 PM 5.38 41.684 0.098 7.47 5 12.21
10/31/2020 7:00:00 PM 5.31 41.558 0.098 7.47 5.05 12.23
10/31/2020 7:15:00 PM 5.24 41.432 0.098 7.47 5.06 12.25
10/31/2020 7:30:00 PM 5.18 41.324 0.099 7.47 5.23 12.26
10/31/2020 7:45:00 PM 5.11 41.198 0.099 7.47 5.28 12.29
10/31/2020 8:00:00 PM 5.06 41.108 0.099 7.47 4.88 12.3
10/31/2020 8:15:00 PM 5 41 0.099 7.47 4.72 12.32
10/31/2020 8:30:00 PM 4.95 40.91 0.099 7.48 4.75 12.33
10/31/2020 8:45:00 PM 4.91 40.838 0.099 7.46 4.73 12.34
10/31/2020 9:00:00 PM 4.87 40.766 0.099 7.48 4.63 12.35
10/31/2020 9:15:00 PM 4.84 40.712 0.099 7.48 4.58 12.37
10/31/2020 9:30:00 PM 4.81 40.658 0.099 7.49 4.53 12.37
10/31/2020 9:45:00 PM 4.78 40.604 0.099 7.48 4.36 12.39
10/31/2020 10:00:00 PM 4.75 40.55 0.099 7.49 4.44 12.39
10/31/2020 10:15:00 PM 4.71 40.478 0.099 7.49 4.68 12.4
10/31/2020 10:30:00 PM 4.69 40.442 0.099 7.48 4.28 12.42
10/31/2020 10:45:00 PM 4.66 40.388 0.1 7.48 4.4 12.42
10/31/2020 11:00:00 PM 4.63 40.334 0.1 7.47 4.28 12.42
10/31/2020 11:15:00 PM 4.6 40.28 0.1 7.49 4.35 12.43
10/31/2020 11:30:00 PM 4.57 40.226 0.1 7.48 4.26 12.44
10/31/2020 11:45:00 PM 4.56 40.208 0.1 7.5 4.18 12.44
11/1/2020 12:00:00 AM 4.54 40.172 0.1 7.49 4.11 12.44
11/1/2020 12:15:00 AM 4.53 40.154 0.1 7.5 4.39 12.45
11/1/2020 12:30:00 AM 4.53 40.154 0.1 7.49 4.23 12.44
11/1/2020 12:45:00 AM 4.55 40.19 0.1 7.5 4.39 12.44
11/1/2020 1:00:00 AM 4.58 40.244 0.1 7.5 4.41 12.43
11/1/2020 1:15:00 AM 4.61 40.298 0.1 7.51 4.3 12.42
11/1/2020 1:30:00 AM 4.66 40.388 0.1 7.51 4.27 12.4
11/1/2020 1:45:00 AM 4.7 40.46 0.1 7.51 4.19 12.39
11/1/2020 2:00:00 AM 4.74 40.532 0.1 7.51 4.23 12.37
11/1/2020 2:15:00 AM 4.77 40.586 0.1 7.51 4.23 12.36
11/1/2020 2:30:00 AM 4.82 40.676 0.1 7.51 4.24 12.34
11/1/2020 2:45:00 AM 4.85 40.73 0.1 7.52 4.24 12.32
11/1/2020 3:00:00 AM 4.89 40.802 0.1 7.52 4.01 12.31
11/1/2020 3:15:00 AM 4.92 40.856 0.1 7.52 4.18 12.29
11/1/2020 3:30:00 AM 4.96 40.928 0.1 7.49 4.14 12.28
11/1/2020 3:45:00 AM 4.99 40.982 0.1 7.51 4.08 12.27
11/1/2020 4:00:00 AM 5.03 41.054 0.1 7.52 3.99 12.25
11/1/2020 4:15:00 AM 5.05 41.09 0.1 7.51 3.93 12.24
11/1/2020 4:30:00 AM 5.08 41.144 0.101 7.52 4.01 12.23
11/1/2020 4:45:00 AM 5.1 41.18 0.101 7.51 3.87 12.22
11/1/2020 5:00:00 AM 5.12 41.216 0.101 7.51 3.75 12.21
11/1/2020 5:15:00 AM 5.15 41.27 0.101 7.48 3.8 12.19
11/1/2020 5:30:00 AM 5.17 41.306 0.101 7.51 3.83 12.18
11/1/2020 5:45:00 AM 5.19 41.342 0.101 7.51 3.94 12.17
11/1/2020 6:00:00 AM 5.21 41.378 0.101 7.52 3.86 12.16
11/1/2020 6:15:00 AM 5.23 41.414 0.101 7.52 3.96 12.15
11/1/2020 6:30:00 AM 5.24 41.432 0.101 7.52 3.95 12.15
11/1/2020 6:45:00 AM 5.26 41.468 0.101 7.52 3.89 12.13
11/1/2020 7:00:00 AM 5.28 41.504 0.101 7.52 3.86 12.13
11/1/2020 7:15:00 AM 5.3 41.54 0.101 7.52 3.84 12.11
11/1/2020 7:30:00 AM 5.32 41.576 0.101 7.52 3.74 12.11
11/1/2020 7:45:00 AM 5.35 41.63 0.101 7.52 3.75 12.09
11/1/2020 8:00:00 AM 5.37 41.666 0.101 7.52 3.99 12.08
11/1/2020 8:15:00 AM 5.39 41.702 0.101 7.52 3.88 12.07
11/1/2020 8:30:00 AM 5.42 41.756 0.101 7.52 3.81 12.06
11/1/2020 8:45:00 AM 5.44 41.792 0.101 7.52 3.77 12.05
11/1/2020 9:00:00 AM 5.47 41.846 0.101 7.52 4.13 12.05
11/1/2020 9:15:00 AM 5.51 41.918 0.101 7.53 3.8 12.05
11/1/2020 9:30:00 AM 5.57 42.026 0.101 7.53 3.9 12.04
11/1/2020 9:45:00 AM 5.61 42.098 0.101 7.54 3.82 12.02
11/1/2020 10:00:00 AM 5.7 42.26 0.101 7.54 3.84 12.01
11/1/2020 10:15:00 AM 5.75 42.35 0.101 7.54 3.9 11.98
11/1/2020 10:30:00 AM 5.8 42.44 0.101 7.54 3.93 11.95
11/1/2020 10:45:00 AM 5.89 42.602 0.101 7.54 4.16 11.94
11/1/2020 11:00:00 AM 5.94 42.692 0.101 7.53 3.9 11.9
11/1/2020 11:15:00 AM 5.97 42.746 0.101 7.54 4.06 11.88
11/1/2020 11:30:00 AM 6.01 42.818 0.101 7.54 4.04 11.86
11/1/2020 11:45:00 AM 6.04 42.872 0.101 7.54 4.07 11.84
11/1/2020 12:00:00 PM 6.08 42.944 0.101 7.53 4.39 11.82
11/1/2020 12:15:00 PM 6.12 43.016 0.101 7.54 4.4 11.81
11/1/2020 12:30:00 PM 6.14 43.052 0.101 7.54 4.2 11.79
11/1/2020 12:45:00 PM 6.16 43.088 0.101 7.54 4.71 11.77
11/1/2020 1:00:00 PM 6.2 43.16 0.101 7.54 4.29 11.77
11/1/2020 1:15:00 PM 6.24 43.232 0.101 7.53 4.13 11.75
11/1/2020 1:30:00 PM 6.27 43.286 0.101 7.55 4.18 11.74
11/1/2020 1:45:00 PM 6.31 43.358 0.101 7.55 4.2 11.72
11/1/2020 2:00:00 PM 6.35 43.43 0.101 7.55 4.24 11.71
11/1/2020 2:15:00 PM 6.39 43.502 0.101 7.53 4.33 11.68
11/1/2020 2:30:00 PM 6.41 43.538 0.101 7.53 5.05 11.66
11/1/2020 2:45:00 PM 6.43 43.574 0.1 7.54 6.01 11.65
11/1/2020 3:00:00 PM 6.48 43.664 0.099 7.53 5.94 11.64
11/1/2020 3:15:00 PM 6.5 43.7 0.099 7.53 6.04 11.63
11/1/2020 3:30:00 PM 6.55 43.79 0.099 7.54 6.11 11.64
11/1/2020 3:45:00 PM 6.59 43.862 0.099 7.53 6.55 11.62
11/1/2020 4:00:00 PM 6.62 43.916 0.099 7.54 7.14 11.62
11/1/2020 4:15:00 PM 6.6 43.88 0.1 7.53 12.44 11.61
11/1/2020 4:30:00 PM 6.58 43.844 0.1 7.54 15.24 11.62
11/1/2020 4:45:00 PM 6.58 43.844 0.101 7.54 12 11.63
11/1/2020 5:00:00 PM 6.54 43.772 0.101 7.54 10.11 11.65
11/1/2020 5:15:00 PM 6.51 43.718 0.101 7.54 8.01 11.65
11/1/2020 5:30:00 PM 6.5 43.7 0.101 7.53 7.13 11.66
11/1/2020 5:45:00 PM 6.47 43.646 0.101 7.54 6.51 11.65
11/1/2020 6:00:00 PM 6.42 43.556 0.101 7.53 6.25 11.66
11/1/2020 6:15:00 PM 6.34 43.412 0.102 7.53 6.42 11.68
11/1/2020 6:30:00 PM 6.29 43.322 0.102 7.54 6.64 11.7
11/1/2020 6:45:00 PM 6.22 43.196 0.103 7.54 6.69 11.72
11/1/2020 7:00:00 PM 6.13 43.034 0.103 7.54 6.17 11.75
11/1/2020 7:15:00 PM 6.04 42.872 0.103 7.53 6.22 11.78
11/1/2020 7:30:00 PM 5.99 42.782 0.103 7.53 6.34 11.82
11/1/2020 7:45:00 PM 5.93 42.674 0.103 7.53 6.08 11.84
11/1/2020 8:00:00 PM 5.86 42.548 0.102 7.53 6.04 11.88
11/1/2020 8:15:00 PM 5.78 42.404 0.102 7.51 6.2 11.89
11/1/2020 8:30:00 PM 5.72 42.296 0.102 7.52 5.52 11.92
11/1/2020 8:45:00 PM 5.65 42.17 0.102 7.53 5.36 11.94
11/1/2020 9:00:00 PM 5.58 42.044 0.101 7.53 5.04 11.97
11/1/2020 9:15:00 PM 5.52 41.936 0.101 7.53 5.04 11.99
11/1/2020 9:30:00 PM 5.46 41.828 0.101 7.52 5.01 12.01
11/1/2020 9:45:00 PM 5.43 41.774 0.101 7.52 4.83 12.03
11/1/2020 10:00:00 PM 5.35 41.63 0.1 7.52 4.79 12.05
11/1/2020 10:15:00 PM 5.29 41.522 0.1 7.52 4.63 12.07
11/1/2020 10:30:00 PM 5.25 41.45 0.1 7.5 4.4 12.08
11/1/2020 10:45:00 PM 5.22 41.396 0.1 7.52 4.39 12.1
11/1/2020 11:00:00 PM 5.19 41.342 0.1 7.52 4.37 12.11
11/1/2020 11:15:00 PM 5.15 41.27 0.1 7.52 4.4 12.12
11/1/2020 11:30:00 PM 5.12 41.216 0.1 7.51 4.14 12.13
11/1/2020 11:45:00 PM 5.08 41.144 0.1 7.52 4.23 12.14
11/2/2020 12:00:00 AM 5.06 41.108 0.1 7.5 4.2 12.15
11/2/2020 12:15:00 AM 5.02 41.036 0.1 7.51 4.11 12.15
11/2/2020 12:30:00 AM 4.99 40.982 0.099 7.52 4.06 12.16
11/2/2020 12:45:00 AM 4.97 40.946 0.099 7.51 4.07 12.17
11/2/2020 1:00:00 AM 4.95 40.91 0.099 7.51 4.09 12.18
11/2/2020 1:15:00 AM 4.93 40.874 0.099 7.52 3.86 12.18
11/2/2020 1:30:00 AM 4.91 40.838 0.099 7.51 3.9 12.19
11/2/2020 1:45:00 AM 4.89 40.802 0.099 7.51 3.9 12.19
11/2/2020 2:00:00 AM 4.87 40.766 0.099 7.49 3.84 12.2
11/2/2020 2:15:00 AM 4.84 40.712 0.099 7.52 3.8 12.21
11/2/2020 2:30:00 AM 4.81 40.658 0.099 7.52 3.69 12.22
11/2/2020 2:45:00 AM 4.78 40.604 0.099 7.52 3.75 12.22
11/2/2020 3:00:00 AM 4.76 40.568 0.099 7.52 3.62 12.23
11/2/2020 3:15:00 AM 4.72 40.496 0.099 7.52 3.79 12.24
11/2/2020 3:30:00 AM 4.68 40.424 0.099 7.52 3.62 12.25
11/2/2020 3:45:00 AM 4.43 39.974 0.099 7.48 3.67 12.26
11/2/2020 4:00:00 AM 4.01 39.218 0.098 7.51 3.72 12.36
11/2/2020 4:15:00 AM 4.02 39.236 0.098 7.44 3.63 12.44
11/2/2020 4:30:00 AM 4.01 39.218 0.098 7.47 3.66 12.48
11/2/2020 4:45:00 AM 4.01 39.218 0.098 7.51 3.72 12.49
11/2/2020 5:00:00 AM 4.02 39.236 0.098 7.49 3.69 12.5
11/2/2020 5:15:00 AM 3.98 39.164 0.098 7.5 3.69 12.51
11/2/2020 5:30:00 AM 3.95 39.11 0.098 7.5 3.44 12.52
11/2/2020 5:45:00 AM 3.94 39.092 0.098 7.51 3.5 12.53
11/2/2020 6:00:00 AM 3.9 39.02 0.098 7.48 3.39 12.55
11/2/2020 6:15:00 AM 3.9 39.02 0.098 7.5 3.58 12.56
11/2/2020 6:30:00 AM 3.88 38.984 0.098 7.51 3.55 12.57
11/2/2020 6:45:00 AM 3.87 38.966 0.099 7.47 3.48 12.58
11/2/2020 7:00:00 AM 3.86 38.948 0.099 7.51 3.34 12.58
11/2/2020 7:15:00 AM 3.7 38.66 0.098 7.47 3.4 12.59
11/2/2020 7:30:00 AM 3.64 38.552 0.098 7.48 3.31 12.64
11/2/2020 7:45:00 AM 3.57 38.426 0.098 7.5 3.28 12.65
11/2/2020 8:00:00 AM 3.56 38.408 0.098 7.51 3.39 12.69
11/2/2020 8:15:00 AM 3.56 38.408 0.098 7.51 3.21 12.71
11/2/2020 8:30:00 AM 3.56 38.408 0.098 7.52 3.27 12.74
11/2/2020 8:45:00 AM 3.57 38.426 0.099 7.5 3.21 12.75
11/2/2020 9:00:00 AM 3.59 38.462 0.099 7.5 3.16 12.76
11/2/2020 9:15:00 AM 3.61 38.498 0.099 7.53 3.13 12.76
11/2/2020 9:30:00 AM 3.64 38.552 0.099 7.53 3.2 12.76
11/2/2020 9:45:00 AM 3.67 38.606 0.099 7.54 3.1 12.76
11/2/2020 10:00:00 AM 3.72 38.696 0.099 7.54 3.09 12.75
11/2/2020 10:15:00 AM 3.72 38.696 0.099 7.53 3.15 12.75
11/2/2020 10:30:00 AM 3.77 38.786 0.099 7.55 3.12 12.73
11/2/2020 10:45:00 AM 3.83 38.894 0.099 7.55 3.12 12.72
11/2/2020 11:00:00 AM 3.83 38.894 0.099 7.54 3.09 12.72
11/2/2020 11:15:00 AM 3.89 39.002 0.099 7.52 3.11 12.7
11/2/2020 11:30:00 AM 3.91 39.038 0.099 7.54 3.16 12.68
11/2/2020 11:45:00 AM 3.9 39.02 0.099 7.54 3.04 12.67
11/2/2020 12:00:00 PM 3.94 39.092 0.099 7.54 3.11 12.65
11/2/2020 12:15:00 PM 3.97 39.146 0.099 7.54 3.07 12.64
11/2/2020 12:30:00 PM 3.99 39.182 0.099 7.54 3.07 12.62
11/2/2020 12:45:00 PM 3.99 39.182 0.099 7.52 3.21 12.62
11/2/2020 1:00:00 PM 4 39.2 0.099 7.54 3.16 12.61
11/2/2020 1:15:00 PM 3.99 39.182 0.099 7.54 3.14 12.6
11/2/2020 1:30:00 PM 3.98 39.164 0.1 7.52 3.22 12.61
11/2/2020 1:45:00 PM 4 39.2 0.1 7.54 3.2 12.6
11/2/2020 2:00:00 PM 4.05 39.29 0.1 7.54 3.28 12.61
11/2/2020 2:15:00 PM 4.42 39.956 0.1 7.55 3.31 12.49
11/2/2020 2:30:00 PM 4.49 40.082 0.1 7.55 3.27 12.47
11/2/2020 2:45:00 PM 4.56 40.208 0.1 7.55 3.37 12.45
11/2/2020 3:00:00 PM 4.58 40.244 0.1 7.52 3.44 12.43
11/2/2020 3:15:00 PM 4.58 40.244 0.1 7.55 3.42 12.42
11/2/2020 3:30:00 PM 4.56 40.208 0.1 7.53 3.44 12.43
11/2/2020 3:45:00 PM 4.52 40.136 0.1 7.54 3.44 12.41
11/2/2020 4:00:00 PM 4.48 40.064 0.101 7.54 3.52 12.43
11/2/2020 4:15:00 PM 4.44 39.992 0.101 7.54 3.57 12.44
11/2/2020 4:30:00 PM 4.39 39.902 0.101 7.54 3.54 12.45
11/2/2020 4:45:00 PM 4.35 39.83 0.101 7.54 3.47 12.45
11/2/2020 5:00:00 PM 4.3 39.74 0.101 7.53 3.6 12.45
11/2/2020 5:15:00 PM 4.26 39.668 0.101 7.53 3.58 12.46
11/2/2020 5:30:00 PM 4.22 39.596 0.101 7.53 3.86 12.47
11/2/2020 5:45:00 PM 4.17 39.506 0.101 7.52 3.69 12.49
11/2/2020 6:00:00 PM 4.13 39.434 0.101 7.53 3.83 12.5
11/2/2020 6:15:00 PM 4.09 39.362 0.102 7.51 3.8 12.5
11/2/2020 6:30:00 PM 4.07 39.326 0.102 7.52 3.49 12.51
11/2/2020 6:45:00 PM 4.04 39.272 0.102 7.52 3.75 12.52
11/2/2020 7:00:00 PM 4.03 39.254 0.102 7.53 3.52 12.52
11/2/2020 7:15:00 PM 4.01 39.218 0.102 7.51 3.82 12.52
11/2/2020 7:30:00 PM 4 39.2 0.102 7.52 3.51 12.53
11/2/2020 7:45:00 PM 3.99 39.182 0.102 7.52 3.43 12.53
11/2/2020 8:00:00 PM 3.97 39.146 0.102 7.52 3.49 12.53
11/2/2020 8:15:00 PM 3.95 39.11 0.102 7.52 3.37 12.53
11/2/2020 8:30:00 PM 3.94 39.092 0.102 7.52 3.33 12.54
11/2/2020 8:45:00 PM 3.92 39.056 0.102 7.53 3.3 12.53
11/2/2020 9:00:00 PM 3.89 39.002 0.102 7.53 3.44 12.54
11/2/2020 9:15:00 PM 3.87 38.966 0.102 7.53 3.33 12.55
11/2/2020 9:30:00 PM 3.86 38.948 0.102 7.53 3.18 12.55
11/2/2020 9:45:00 PM 3.82 38.876 0.102 7.51 3.13 12.56
11/2/2020 10:00:00 PM 3.78 38.804 0.102 7.53 3.31 12.58
11/2/2020 10:15:00 PM 3.75 38.75 0.102 7.53 3.15 12.58
11/2/2020 10:30:00 PM 3.72 38.696 0.102 7.53 3.28 12.6
11/2/2020 10:45:00 PM 3.7 38.66 0.102 7.53 3.25 12.61
11/2/2020 11:00:00 PM 3.69 38.642 0.102 7.52 3.15 12.62
11/2/2020 11:15:00 PM 3.69 38.642 0.102 7.52 3.22 12.62
11/2/2020 11:30:00 PM 3.7 38.66 0.102 7.51 3.11 12.62
11/2/2020 11:45:00 PM 3.71 38.678 0.102 7.52 3.1 12.61
11/3/2020 12:00:00 AM 3.72 38.696 0.102 7.52 3.22 12.61
11/3/2020 12:15:00 AM 3.74 38.732 0.102 7.51 3.22 12.6
11/3/2020 12:30:00 AM 3.75 38.75 0.102 7.51 3.04 12.6
11/3/2020 12:45:00 AM 3.74 38.732 0.102 7.52 3.07 12.6
11/3/2020 1:00:00 AM 3.74 38.732 0.102 7.5 2.99 12.6
11/3/2020 1:15:00 AM 3.73 38.714 0.102 7.52 3.08 12.59
11/3/2020 1:30:00 AM 3.72 38.696 0.102 7.52 3.05 12.6
11/3/2020 1:45:00 AM 3.71 38.678 0.102 7.52 2.96 12.6
11/3/2020 2:00:00 AM 3.7 38.66 0.102 7.5 3.08 12.6
11/3/2020 2:15:00 AM 3.69 38.642 0.102 7.51 2.95 12.61
11/3/2020 2:30:00 AM 3.68 38.624 0.102 7.52 3 12.61
11/3/2020 2:45:00 AM 3.68 38.624 0.102 7.53 2.87 12.61
11/3/2020 3:00:00 AM 3.67 38.606 0.102 7.5 2.94 12.61
11/3/2020 3:15:00 AM 3.66 38.588 0.102 7.51 2.88 12.61
11/3/2020 3:30:00 AM 3.65 38.57 0.102 7.52 2.96 12.61
11/3/2020 3:45:00 AM 3.64 38.552 0.102 7.53 3.02 12.62
11/3/2020 4:00:00 AM 3.64 38.552 0.102 7.52 2.92 12.62
11/3/2020 4:15:00 AM 3.63 38.534 0.102 7.52 2.93 12.63
11/3/2020 4:30:00 AM 3.62 38.516 0.102 7.52 2.92 12.64
11/3/2020 4:45:00 AM 3.62 38.516 0.102 7.48 2.82 12.64
11/3/2020 5:00:00 AM 3.63 38.534 0.102 7.5 2.9 12.64
11/3/2020 5:15:00 AM 3.62 38.516 0.102 7.52 2.96 12.64
11/3/2020 5:30:00 AM 3.62 38.516 0.102 7.52 3 12.65
11/3/2020 5:45:00 AM 3.62 38.516 0.103 7.52 2.87 12.65
11/3/2020 6:00:00 AM 3.61 38.498 0.103 7.5 2.95 12.65
11/3/2020 6:15:00 AM 3.6 38.48 0.103 7.52 2.82 12.65
11/3/2020 6:30:00 AM 3.6 38.48 0.103 7.49 2.9 12.66
11/3/2020 6:45:00 AM 3.59 38.462 0.103 7.51 3.02 12.67
11/3/2020 7:00:00 AM 3.59 38.462 0.103 7.52 3.06 12.68
11/3/2020 7:15:00 AM 3.62 38.516 0.103 7.52 2.99 12.69
11/3/2020 7:30:00 AM 3.66 38.588 0.103 7.53 2.93 12.7
11/3/2020 7:45:00 AM 3.72 38.696 0.103 7.53 2.88 12.69
11/3/2020 8:00:00 AM 3.79 38.822 0.103 7.54 2.96 12.68
11/3/2020 8:15:00 AM 3.88 38.984 0.103 7.54 3.05 12.67
11/3/2020 8:30:00 AM 3.97 39.146 0.103 7.55 2.92 12.65
11/3/2020 8:45:00 AM 4.08 39.344 0.102 7.55 2.96 12.62
11/3/2020 9:00:00 AM 4.17 39.506 0.102 7.56 3.02 12.58
11/3/2020 9:15:00 AM 4.27 39.686 0.102 7.56 3.02 12.55
11/3/2020 9:30:00 AM 4.39 39.902 0.102 7.56 3.47 12.53
11/3/2020 9:45:00 AM 4.5 40.1 0.102 7.56 3.02 12.49
11/3/2020 10:00:00 AM 4.62 40.316 0.102 7.56 3.33 12.46
11/3/2020 10:15:00 AM 4.77 40.586 0.102 7.57 3.19 12.41
11/3/2020 10:30:00 AM 4.91 40.838 0.102 7.57 3.31 12.37
11/3/2020 10:45:00 AM 5.03 41.054 0.102 7.56 3.1 12.33
11/3/2020 11:00:00 AM 5.12 41.216 0.102 7.55 3.1 12.29
11/3/2020 11:15:00 AM 5.18 41.324 0.102 7.56 3.23 12.25
11/3/2020 11:30:00 AM 5.25 41.45 0.102 7.57 3.34 12.22
11/3/2020 11:45:00 AM 5.34 41.612 0.102 7.57 3.45 12.2
11/3/2020 12:00:00 PM 5.44 41.792 0.102 7.57 3.28 12.18
11/3/2020 12:15:00 PM 5.54 41.972 0.102 7.55 3.44 12.15
11/3/2020 12:30:00 PM 5.71 42.278 0.102 7.57 3.41 12.12
11/3/2020 12:45:00 PM 5.83 42.494 0.102 7.57 3.61 12.07
11/3/2020 1:00:00 PM 5.95 42.71 0.102 7.53 3.67 12.03
11/3/2020 1:15:00 PM 6.04 42.872 0.102 7.57 3.79 11.99
11/3/2020 1:30:00 PM 6.1 42.98 0.102 7.58 3.89 11.96
11/3/2020 1:45:00 PM 6.18 43.124 0.102 7.57 3.61 11.95
11/3/2020 2:00:00 PM 6.23 43.214 0.103 7.57 3.83 11.92
11/3/2020 2:15:00 PM 6.22 43.196 0.103 7.57 3.72 11.91
11/3/2020 2:30:00 PM 6.21 43.178 0.103 7.56 3.67 11.9
11/3/2020 2:45:00 PM 6.19 43.142 0.103 7.55 3.77 11.89
11/3/2020 3:00:00 PM 6.16 43.088 0.103 7.56 3.94 11.9
11/3/2020 3:15:00 PM 6.13 43.034 0.103 7.56 3.97 11.9
11/3/2020 3:30:00 PM 6.08 42.944 0.103 7.55 4.43 11.91
11/3/2020 3:45:00 PM 6.08 42.944 0.103 7.55 4.25 11.93
11/3/2020 4:00:00 PM 6.05 42.89 0.103 7.54 4.21 11.94
11/3/2020 4:15:00 PM 6.01 42.818 0.103 7.54 4.35 11.95
11/3/2020 4:30:00 PM 5.96 42.728 0.103 7.53 4.21 11.95
11/3/2020 4:45:00 PM 5.91 42.638 0.103 7.53 4.32 11.96
11/3/2020 5:00:00 PM 5.86 42.548 0.103 7.53 4.56 11.97
11/3/2020 5:15:00 PM 5.8 42.44 0.103 7.53 4.59 11.98
11/3/2020 5:30:00 PM 5.74 42.332 0.103 7.53 4.65 12
11/3/2020 5:45:00 PM 5.68 42.224 0.103 7.53 4.6 12.02
11/3/2020 6:00:00 PM 5.62 42.116 0.103 7.53 4.55 12.03
11/3/2020 6:15:00 PM 5.57 42.026 0.104 7.52 4.39 12.04
11/3/2020 6:30:00 PM 5.52 41.936 0.104 7.53 4.52 12.07
11/3/2020 6:45:00 PM 5.46 41.828 0.104 7.52 4.39 12.08
11/3/2020 7:00:00 PM 5.41 41.738 0.104 7.5 4.33 12.1
11/3/2020 7:15:00 PM 5.35 41.63 0.104 7.51 4.55 12.12
11/3/2020 7:30:00 PM 5.3 41.54 0.104 7.52 4.23 12.15
11/3/2020 7:45:00 PM 5.24 41.432 0.104 7.52 4.32 12.16
11/3/2020 8:00:00 PM 5.19 41.342 0.104 7.52 3.95 12.18
11/3/2020 8:15:00 PM 5.14 41.252 0.104 7.52 4.11 12.21
11/3/2020 8:30:00 PM 5.09 41.162 0.104 7.49 3.87 12.23
11/3/2020 8:45:00 PM 5.04 41.072 0.104 7.52 3.94 12.25
11/3/2020 9:00:00 PM 4.99 40.982 0.104 7.52 4.09 12.26
11/3/2020 9:15:00 PM 4.94 40.892 0.104 7.52 3.98 12.28
11/3/2020 9:30:00 PM 4.89 40.802 0.104 7.52 3.96 12.3
11/3/2020 9:45:00 PM 4.84 40.712 0.104 7.49 3.99 12.31
11/3/2020 10:00:00 PM 4.79 40.622 0.104 7.52 3.91 12.33
11/3/2020 10:15:00 PM 4.74 40.532 0.104 7.51 3.85 12.35
11/3/2020 10:30:00 PM 4.7 40.46 0.104 7.51 3.87 12.36
11/3/2020 10:45:00 PM 4.65 40.37 0.104 7.51 3.65 12.38
11/3/2020 11:00:00 PM 4.61 40.298 0.104 7.51 3.89 12.4
11/3/2020 11:15:00 PM 4.57 40.226 0.104 7.52 3.53 12.41
11/3/2020 11:30:00 PM 4.52 40.136 0.104 7.51 3.55 12.43
11/3/2020 11:45:00 PM 4.48 40.064 0.104 7.51 3.53 12.44
11/4/2020 12:00:00 AM 4.44 39.992 0.104 7.48 3.66 12.46
11/4/2020 12:15:00 AM 4.39 39.902 0.104 7.51 3.53 12.47
11/4/2020 12:30:00 AM 4.35 39.83 0.104 7.51 3.67 12.49
11/4/2020 12:45:00 AM 4.3 39.74 0.104 7.48 3.52 12.51
11/4/2020 1:00:00 AM 4.26 39.668 0.104 7.51 3.41 12.53
11/4/2020 1:15:00 AM 4.22 39.596 0.104 7.5 3.31 12.54
11/4/2020 1:30:00 AM 4.18 39.524 0.104 7.49 3.38 12.56
11/4/2020 1:45:00 AM 4.14 39.452 0.104 7.47 3.43 12.57
11/4/2020 2:00:00 AM 4.1 39.38 0.104 7.48 3.3 12.58
11/4/2020 2:15:00 AM 4.07 39.326 0.104 7.5 3.36 12.6
11/4/2020 2:30:00 AM 4.03 39.254 0.104 7.49 3.49 12.62
11/4/2020 2:45:00 AM 3.99 39.182 0.104 7.47 3.31 12.63
11/4/2020 3:00:00 AM 3.95 39.11 0.104 7.49 3.27 12.65
11/4/2020 3:15:00 AM 3.92 39.056 0.104 7.49 3.15 12.67
11/4/2020 3:30:00 AM 3.88 38.984 0.105 7.48 3.31 12.68
11/4/2020 3:45:00 AM 3.84 38.912 0.105 7.5 3.1 12.7
11/4/2020 4:00:00 AM 3.81 38.858 0.105 7.49 3.34 12.71
11/4/2020 4:15:00 AM 3.78 38.804 0.105 7.5 3.15 12.72
11/4/2020 4:30:00 AM 3.74 38.732 0.105 7.49 3.18 12.73
11/4/2020 4:45:00 AM 3.71 38.678 0.105 7.49 3.11 12.74
11/4/2020 5:00:00 AM 3.68 38.624 0.105 7.49 3.1 12.76
11/4/2020 5:15:00 AM 3.65 38.57 0.105 7.47 3.04 12.77
11/4/2020 5:30:00 AM 3.62 38.516 0.105 7.5 3 12.78
11/4/2020 5:45:00 AM 3.58 38.444 0.105 7.5 3 12.8
11/4/2020 6:00:00 AM 3.55 38.39 0.105 7.5 2.9 12.81
11/4/2020 6:15:00 AM 3.52 38.336 0.105 7.5 3 12.82
11/4/2020 6:30:00 AM 3.49 38.282 0.105 7.49 3.04 12.83
11/4/2020 6:45:00 AM 3.46 38.228 0.105 7.5 2.79 12.85
11/4/2020 7:00:00 AM 3.43 38.174 0.105 7.49 2.9 12.86
11/4/2020 7:15:00 AM 3.41 38.138 0.105 7.51 2.86 12.88
11/4/2020 7:30:00 AM 3.41 38.138 0.105 7.51 2.83 12.89
11/4/2020 7:45:00 AM 3.42 38.156 0.105 7.51 2.85 12.91
11/4/2020 8:00:00 AM 3.45 38.21 0.105 7.49 2.83 12.91
11/4/2020 8:15:00 AM 3.49 38.282 0.105 7.53 2.87 12.91
11/4/2020 8:30:00 AM 3.55 38.39 0.105 7.53 2.76 12.9
11/4/2020 8:45:00 AM 3.62 38.516 0.105 7.54 2.89 12.89
11/4/2020 9:00:00 AM 3.71 38.678 0.105 7.55 2.78 12.86
11/4/2020 9:15:00 AM 3.81 38.858 0.105 7.55 2.75 12.83
11/4/2020 9:30:00 AM 3.94 39.092 0.105 7.55 2.83 12.8
11/4/2020 9:45:00 AM 4.06 39.308 0.105 7.55 2.92 12.76
11/4/2020 10:00:00 AM 4.18 39.524 0.105 7.55 2.83 12.7
11/4/2020 10:15:00 AM 4.32 39.776 0.105 7.53 2.82 12.66
11/4/2020 10:30:00 AM 4.47 40.046 0.104 7.54 2.9 12.6
11/4/2020 10:45:00 AM 4.62 40.316 0.104 7.55 2.84 12.54
11/4/2020 11:00:00 AM 4.83 40.694 0.104 7.56 2.96 12.47
11/4/2020 11:15:00 AM 4.99 40.982 0.104 7.56 2.97 12.4
11/4/2020 11:30:00 AM 5.16 41.288 0.104 7.56 2.9 12.33
11/4/2020 11:45:00 AM 5.31 41.558 0.104 7.57 3.01 12.27
11/4/2020 12:00:00 PM 5.45 41.81 0.104 7.56 3.01 12.22
11/4/2020 12:15:00 PM 5.58 42.044 0.104 7.57 3.21 12.16
11/4/2020 12:30:00 PM 5.69 42.242 0.104 7.55 3.08 12.13
11/4/2020 12:45:00 PM 5.79 42.422 0.104 7.57 3.04 12.08
11/4/2020 1:00:00 PM 5.89 42.602 0.104 7.57 3.19 12.05
11/4/2020 1:15:00 PM 6 42.8 0.104 7.57 3.47 12.02
11/4/2020 1:30:00 PM 6.08 42.944 0.104 7.57 3.45 11.99
11/4/2020 1:45:00 PM 6.16 43.088 0.104 7.57 3.36 11.95
11/4/2020 2:00:00 PM 6.23 43.214 0.104 7.56 3.3 11.92
11/4/2020 2:15:00 PM 6.29 43.322 0.104 7.57 3.46 11.9
11/4/2020 2:30:00 PM 6.36 43.448 0.104 7.56 3.56 11.87
11/4/2020 2:45:00 PM 6.41 43.538 0.105 7.54 3.72 11.85
11/4/2020 3:00:00 PM 6.44 43.592 0.105 7.55 3.61 11.84
11/4/2020 3:15:00 PM 6.47 43.646 0.105 7.56 5.32 11.83
11/4/2020 3:30:00 PM 6.48 43.664 0.105 7.56 3.94 11.83
11/4/2020 3:45:00 PM 6.49 43.682 0.105 7.55 3.85 11.82
11/4/2020 4:00:00 PM 6.48 43.664 0.105 7.55 3.82 11.82
11/4/2020 4:15:00 PM 6.47 43.646 0.105 7.54 3.92 11.82
11/4/2020 4:30:00 PM 6.46 43.628 0.105 7.55 3.96 11.82
11/4/2020 4:45:00 PM 6.43 43.574 0.105 7.55 3.88 11.82
11/4/2020 5:00:00 PM 6.41 43.538 0.105 7.54 4.05 11.83
11/4/2020 5:15:00 PM 6.37 43.466 0.105 7.54 4 11.83
11/4/2020 5:30:00 PM 6.34 43.412 0.105 7.51 4.21 11.83
11/4/2020 5:45:00 PM 6.31 43.358 0.105 7.54 4.13 11.84
11/4/2020 6:00:00 PM 6.28 43.304 0.105 7.54 4.25 11.85
11/4/2020 6:15:00 PM 6.25 43.25 0.105 7.54 4.14 11.86
11/4/2020 6:30:00 PM 6.22 43.196 0.105 7.53 4.01 11.87
11/4/2020 6:45:00 PM 6.19 43.142 0.105 7.54 4 11.88
11/4/2020 7:00:00 PM 6.16 43.088 0.105 7.54 4.06 11.89
11/4/2020 7:15:00 PM 6.13 43.034 0.105 7.54 3.97 11.9
11/4/2020 7:30:00 PM 6.11 42.998 0.105 7.54 3.93 11.91
11/4/2020 7:45:00 PM 6.08 42.944 0.105 7.52 3.89 11.92
11/4/2020 8:00:00 PM 6.05 42.89 0.105 7.52 3.94 11.92
11/4/2020 8:15:00 PM 6.03 42.854 0.105 7.53 4.1 11.93
11/4/2020 8:30:00 PM 6 42.8 0.105 7.53 3.86 11.94
11/4/2020 8:45:00 PM 5.98 42.764 0.105 7.54 3.94 11.94
11/4/2020 9:00:00 PM 5.95 42.71 0.105 7.54 3.84 11.96
11/4/2020 9:15:00 PM 5.93 42.674 0.105 7.51 3.83 11.97
11/4/2020 9:30:00 PM 5.91 42.638 0.106 7.54 3.8 11.98
11/4/2020 9:45:00 PM 5.89 42.602 0.106 7.53 3.55 11.99
11/4/2020 10:00:00 PM 5.86 42.548 0.106 7.53 3.84 11.99
11/4/2020 10:15:00 PM 5.84 42.512 0.106 7.52 3.71 12
11/4/2020 10:30:00 PM 5.82 42.476 0.106 7.52 3.58 12.01
11/4/2020 10:45:00 PM 5.79 42.422 0.106 7.53 3.58 12.01
11/4/2020 11:00:00 PM 5.76 42.368 0.106 7.53 3.75 12.02
11/4/2020 11:15:00 PM 5.73 42.314 0.106 7.53 3.57 12.03
11/4/2020 11:30:00 PM 5.71 42.278 0.106 7.53 3.88 12.04
11/4/2020 11:45:00 PM 5.68 42.224 0.106 7.53 3.75 12.05
11/5/2020 12:00:00 AM 5.64 42.152 0.106 7.52 3.61 12.05
11/5/2020 12:15:00 AM 5.61 42.098 0.106 7.52 3.75 12.07
11/5/2020 12:30:00 AM 5.57 42.026 0.106 7.52 3.57 12.08
11/5/2020 12:45:00 AM 5.53 41.954 0.106 7.52 3.64 12.09
11/5/2020 1:00:00 AM 5.49 41.882 0.106 7.52 3.74 12.1
11/5/2020 1:15:00 AM 5.45 41.81 0.106 7.52 3.49 12.12
11/5/2020 1:30:00 AM 5.4 41.72 0.106 7.52 3.64 12.13
11/5/2020 1:45:00 AM 5.36 41.648 0.106 7.52 3.84 12.15
11/5/2020 2:00:00 AM 5.32 41.576 0.106 7.52 3.57 12.16
11/5/2020 2:15:00 AM 5.28 41.504 0.106 7.52 3.61 12.17
11/5/2020 2:30:00 AM 5.23 41.414 0.106 7.52 3.67 12.19
11/5/2020 2:45:00 AM 5.19 41.342 0.106 7.52 3.64 12.2
11/5/2020 3:00:00 AM 5.15 41.27 0.106 7.52 3.62 12.22
11/5/2020 3:15:00 AM 5.11 41.198 0.106 7.52 3.54 12.23
11/5/2020 3:30:00 AM 5.07 41.126 0.106 7.51 3.83 12.24
11/5/2020 3:45:00 AM 5.03 41.054 0.106 7.51 3.58 12.26
11/5/2020 4:00:00 AM 5 41 0.106 7.52 3.43 12.27
11/5/2020 4:15:00 AM 4.96 40.928 0.106 7.52 3.5 12.28
11/5/2020 4:30:00 AM 4.93 40.874 0.106 7.51 3.51 12.29
11/5/2020 4:45:00 AM 4.9 40.82 0.106 7.5 3.53 12.31
11/5/2020 5:00:00 AM 4.87 40.766 0.106 7.51 3.26 12.32
11/5/2020 5:15:00 AM 4.85 40.73 0.106 7.52 3.38 12.33
11/5/2020 5:30:00 AM 4.82 40.676 0.106 7.52 3.24 12.34
11/5/2020 5:45:00 AM 4.79 40.622 0.106 7.52 3.49 12.35
11/5/2020 6:00:00 AM 4.77 40.586 0.106 7.52 3.3 12.36
11/5/2020 6:15:00 AM 4.74 40.532 0.106 7.49 3.41 12.37
11/5/2020 6:30:00 AM 4.71 40.478 0.106 7.52 3.54 12.38
11/5/2020 6:45:00 AM 4.68 40.424 0.106 7.52 3.42 12.39
11/5/2020 7:00:00 AM 4.65 40.37 0.106 7.49 3.55 12.41
11/5/2020 7:15:00 AM 4.62 40.316 0.106 7.52 3.31 12.43
11/5/2020 7:30:00 AM 4.61 40.298 0.106 7.51 3.24 12.44
11/5/2020 7:45:00 AM 4.61 40.298 0.106 7.51 3.47 12.46
11/5/2020 8:00:00 AM 4.65 40.37 0.106 7.53 3.39 12.47
11/5/2020 8:15:00 AM 4.72 40.496 0.106 7.53 3.44 12.47
11/5/2020 8:30:00 AM 4.83 40.694 0.106 7.53 3.37 12.46
11/5/2020 8:45:00 AM 4.94 40.892 0.106 7.54 3.2 12.43
11/5/2020 9:00:00 AM 5.06 41.108 0.106 7.55 3.3 12.39
11/5/2020 9:15:00 AM 5.19 41.342 0.106 7.55 3.3 12.35
11/5/2020 9:30:00 AM 5.35 41.63 0.106 7.55 3.48 12.3
11/5/2020 9:45:00 AM 5.52 41.936 0.106 7.56 3.32 12.26
11/5/2020 10:00:00 AM 5.68 42.224 0.106 7.56 3.39 12.19
11/5/2020 10:15:00 AM 5.84 42.512 0.106 7.56 3.3 12.14
11/5/2020 10:30:00 AM 6.01 42.818 0.106 7.57 3.33 12.07
11/5/2020 10:45:00 AM 6.17 43.106 0.106 7.57 3.5 12.02
11/5/2020 11:00:00 AM 6.36 43.448 0.106 7.58 3.38 11.97
11/5/2020 11:15:00 AM 6.56 43.808 0.106 7.58 3.44 11.91
11/5/2020 11:30:00 AM 6.78 44.204 0.106 7.58 3.32 11.84
11/5/2020 11:45:00 AM 7.02 44.636 0.106 7.57 3.48 11.77
11/5/2020 12:00:00 PM 7.24 45.032 0.106 7.6 3.48 11.69
11/5/2020 12:15:00 PM 7.43 45.374 0.106 7.6 3.72 11.62
11/5/2020 12:30:00 PM 7.6 45.68 0.106 7.6 3.51 11.56
11/5/2020 12:45:00 PM 7.78 46.004 0.106 7.6 3.77 11.5
11/5/2020 1:00:00 PM 7.92 46.256 0.106 7.6 3.7 11.45
11/5/2020 1:15:00 PM 8.04 46.472 0.106 7.6 3.75 11.4
11/5/2020 1:30:00 PM 8.14 46.652 0.106 7.56 3.53 11.36
11/5/2020 1:45:00 PM 8.24 46.832 0.106 7.6 3.97 11.34
11/5/2020 2:00:00 PM 8.32 46.976 0.106 7.57 3.84 11.3
11/5/2020 2:15:00 PM 8.38 47.084 0.106 7.6 3.85 11.29
11/5/2020 2:30:00 PM 8.43 47.174 0.106 7.59 4.02 11.26
11/5/2020 2:45:00 PM 8.43 47.174 0.106 7.58 4.06 11.24
11/5/2020 3:00:00 PM 8.44 47.192 0.106 7.58 4.16 11.22
11/5/2020 3:15:00 PM 8.42 47.156 0.106 7.57 4.14 11.22
11/5/2020 3:30:00 PM 8.38 47.084 0.106 7.58 4.23 11.2
11/5/2020 3:45:00 PM 8.33 46.994 0.106 7.57 4.14 11.22
11/5/2020 4:00:00 PM 8.27 46.886 0.106 7.57 4.13 11.23
11/5/2020 4:15:00 PM 8.21 46.778 0.106 7.56 4.39 11.24
11/5/2020 4:30:00 PM 8.14 46.652 0.106 7.55 4.4 11.25
11/5/2020 4:45:00 PM 8.06 46.508 0.106 7.55 4.4 11.27
11/5/2020 5:00:00 PM 7.98 46.364 0.107 7.55 4.35 11.28
11/5/2020 5:15:00 PM 7.9 46.22 0.107 7.55 4.42 11.3
11/5/2020 5:30:00 PM 7.82 46.076 0.107 7.55 4.4 11.32
11/5/2020 5:45:00 PM 7.75 45.95 0.107 7.55 4.55 11.34
11/5/2020 6:00:00 PM 7.68 45.824 0.107 7.52 4.66 11.36
11/5/2020 6:15:00 PM 7.62 45.716 0.107 7.55 4.23 11.38
11/5/2020 6:30:00 PM 7.56 45.608 0.107 7.54 4.3 11.4
11/5/2020 6:45:00 PM 7.5 45.5 0.107 7.54 4.37 11.42
11/5/2020 7:00:00 PM 7.45 45.41 0.107 7.54 4.3 11.44
11/5/2020 7:15:00 PM 7.4 45.32 0.107 7.53 4.36 11.45
11/5/2020 7:30:00 PM 7.37 45.266 0.107 7.54 4.31 11.46
11/5/2020 7:45:00 PM 7.33 45.194 0.107 7.53 4.83 11.48
11/5/2020 8:00:00 PM 7.29 45.122 0.107 7.54 4.24 11.49
11/5/2020 8:15:00 PM 7.26 45.068 0.107 7.52 4.5 11.5
11/5/2020 8:30:00 PM 7.23 45.014 0.107 7.54 4.28 11.51
11/5/2020 8:45:00 PM 7.21 44.978 0.107 7.53 4.08 11.51
11/5/2020 9:00:00 PM 7.19 44.942 0.107 7.53 4.38 11.52
11/5/2020 9:15:00 PM 7.17 44.906 0.107 7.52 4.04 11.53
11/5/2020 9:30:00 PM 7.16 44.888 0.107 7.53 3.98 11.53
11/5/2020 9:45:00 PM 7.15 44.87 0.107 7.53 4.03 11.54
11/5/2020 10:00:00 PM 7.14 44.852 0.107 7.53 4.18 11.53
11/5/2020 10:15:00 PM 7.14 44.852 0.107 7.52 3.97 11.53
11/5/2020 10:30:00 PM 7.16 44.888 0.107 7.52 4.1 11.53
11/5/2020 10:45:00 PM 7.17 44.906 0.107 7.52 3.92 11.53
11/5/2020 11:00:00 PM 7.18 44.924 0.107 7.52 4.01 11.52
11/5/2020 11:15:00 PM 7.19 44.942 0.107 7.52 3.93 11.51
11/5/2020 11:30:00 PM 7.2 44.96 0.107 7.52 3.79 11.52
11/5/2020 11:45:00 PM 7.2 44.96 0.107 7.52 3.84 11.51
11/6/2020 12:00:00 AM 7.21 44.978 0.107 7.52 3.84 11.51
11/6/2020 12:15:00 AM 7.2 44.96 0.108 7.51 3.69 11.51
11/6/2020 12:30:00 AM 7.19 44.942 0.108 7.51 3.79 11.52
11/6/2020 12:45:00 AM 7.18 44.924 0.108 7.51 3.69 11.52
11/6/2020 1:00:00 AM 7.17 44.906 0.108 7.51 3.72 11.52
11/6/2020 1:15:00 AM 7.16 44.888 0.108 7.51 3.78 11.52
11/6/2020 1:30:00 AM 7.15 44.87 0.108 7.51 3.8 11.53
11/6/2020 1:45:00 AM 7.13 44.834 0.108 7.51 3.69 11.54
11/6/2020 2:00:00 AM 7.12 44.816 0.108 7.52 3.79 11.53
11/6/2020 2:15:00 AM 7.12 44.816 0.108 7.5 3.72 11.53
11/6/2020 2:30:00 AM 7.12 44.816 0.108 7.51 3.76 11.54
11/6/2020 2:45:00 AM 7.1 44.78 0.108 7.51 3.91 11.54
11/6/2020 3:00:00 AM 7.06 44.708 0.108 7.51 3.78 11.54
11/6/2020 3:15:00 AM 7.02 44.636 0.108 7.51 3.61 11.55
11/6/2020 3:30:00 AM 6.96 44.528 0.108 7.5 3.64 11.57
11/6/2020 3:45:00 AM 6.9 44.42 0.108 7.5 4.05 11.58
11/6/2020 4:00:00 AM 6.84 44.312 0.108 7.51 3.76 11.6
11/6/2020 4:15:00 AM 6.77 44.186 0.108 7.5 3.67 11.62
11/6/2020 4:30:00 AM 6.71 44.078 0.108 7.5 3.65 11.65
11/6/2020 4:45:00 AM 6.65 43.97 0.108 7.52 3.6 11.67
11/6/2020 5:00:00 AM 6.6 43.88 0.108 7.51 3.59 11.69
11/6/2020 5:15:00 AM 6.54 43.772 0.108 7.5 3.73 11.71
11/6/2020 5:30:00 AM 6.48 43.664 0.108 7.52 3.58 11.73
11/6/2020 5:45:00 AM 6.42 43.556 0.108 7.51 3.59 11.74
11/6/2020 6:00:00 AM 6.37 43.466 0.108 7.51 3.6 11.77
11/6/2020 6:15:00 AM 6.31 43.358 0.108 7.52 3.52 11.78
11/6/2020 6:30:00 AM 6.26 43.268 0.108 7.51 3.49 11.8
11/6/2020 6:45:00 AM 6.2 43.16 0.108 7.51 3.78 11.82
11/6/2020 7:00:00 AM 6.15 43.07 0.108 7.49 3.62 11.84
11/6/2020 7:15:00 AM 6.11 42.998 0.108 7.52 3.7 11.87
11/6/2020 7:30:00 AM 6.08 42.944 0.108 7.52 3.7 11.89
11/6/2020 7:45:00 AM 6.09 42.962 0.108 7.51 3.52 11.91
11/6/2020 8:00:00 AM 6.11 42.998 0.108 7.54 3.41 11.92
11/6/2020 8:15:00 AM 6.15 43.07 0.108 7.52 3.52 11.93
11/6/2020 8:30:00 AM 6.2 43.16 0.108 7.53 3.63 11.93
11/6/2020 8:45:00 AM 6.27 43.286 0.108 7.55 3.61 11.92
11/6/2020 9:00:00 AM 6.35 43.43 0.108 7.55 3.6 11.9
11/6/2020 9:15:00 AM 6.45 43.61 0.108 7.55 3.71 11.88
11/6/2020 9:30:00 AM 6.56 43.808 0.108 7.55 3.56 11.85
11/6/2020 9:45:00 AM 6.68 44.024 0.108 7.55 3.83 11.82
11/6/2020 10:00:00 AM 6.77 44.186 0.108 7.55 3.76 11.78
11/6/2020 10:15:00 AM 6.88 44.384 0.108 7.56 3.63 11.74
11/6/2020 10:30:00 AM 7 44.6 0.108 7.56 3.72 11.7
11/6/2020 10:45:00 AM 7.12 44.816 0.108 7.55 3.83 11.64
11/6/2020 11:00:00 AM 7.28 45.104 0.108 7.57 3.86 11.6
11/6/2020 11:15:00 AM 7.42 45.356 0.108 7.57 3.99 11.54
11/6/2020 11:30:00 AM 7.57 45.626 0.107 7.57 3.93 11.48
11/6/2020 11:45:00 AM 7.7 45.86 0.107 7.58 3.6 11.43
11/6/2020 12:00:00 PM 7.83 46.094 0.108 7.58 3.78 11.38
11/6/2020 12:15:00 PM 7.93 46.274 0.108 7.58 3.6 11.35
11/6/2020 12:30:00 PM 8.04 46.472 0.108 7.58 3.62 11.31
11/6/2020 12:45:00 PM 8.14 46.652 0.108 7.57 3.88 11.28
11/6/2020 1:00:00 PM 8.23 46.814 0.108 7.58 3.85 11.25
11/6/2020 1:15:00 PM 8.3 46.94 0.108 7.59 3.91 11.21
11/6/2020 1:30:00 PM 8.35 47.03 0.108 7.58 3.83 11.19
11/6/2020 1:45:00 PM 8.41 47.138 0.108 7.57 4.19 11.17
11/6/2020 2:00:00 PM 8.45 47.21 0.108 7.59 4.16 11.15
11/6/2020 2:15:00 PM 8.49 47.282 0.108 7.56 4.13 11.14
11/6/2020 2:30:00 PM 8.52 47.336 0.108 7.58 3.94 11.12
11/6/2020 2:45:00 PM 8.54 47.372 0.108 7.55 3.94 11.11
11/6/2020 3:00:00 PM 8.56 47.408 0.108 7.57 4.03 11.11
11/6/2020 3:15:00 PM 8.57 47.426 0.108 7.58 4.25 11.1
11/6/2020 3:30:00 PM 8.59 47.462 0.108 7.57 4.1 11.09
11/6/2020 3:45:00 PM 8.58 47.444 0.108 7.56 4.25 11.1
11/6/2020 4:00:00 PM 8.57 47.426 0.108 7.56 3.93 11.1
11/6/2020 4:15:00 PM 8.55 47.39 0.108 7.56 4.16 11.1
11/6/2020 4:30:00 PM 8.52 47.336 0.108 7.56 4.32 11.11
11/6/2020 4:45:00 PM 8.49 47.282 0.108 7.56 4.44 11.09
11/6/2020 5:00:00 PM 8.45 47.21 0.108 7.55 4.72 11.11
11/6/2020 5:15:00 PM 8.4 47.12 0.108 7.55 4.54 11.11
11/6/2020 5:30:00 PM 8.35 47.03 0.108 7.54 4.78 11.13
11/6/2020 5:45:00 PM 8.31 46.958 0.108 7.54 4.64 11.13
11/6/2020 6:00:00 PM 8.26 46.868 0.108 7.54 4.61 11.16
11/6/2020 6:15:00 PM 8.21 46.778 0.108 7.54 4.81 11.17
11/6/2020 6:30:00 PM 8.16 46.688 0.108 7.54 4.49 11.19
11/6/2020 6:45:00 PM 8.11 46.598 0.108 7.54 4.69 11.2
11/6/2020 7:00:00 PM 8.07 46.526 0.108 7.53 4.33 11.21
11/6/2020 7:15:00 PM 8.02 46.436 0.108 7.54 4.38 11.22
11/6/2020 7:30:00 PM 7.97 46.346 0.108 7.53 4.36 11.24
11/6/2020 7:45:00 PM 7.92 46.256 0.109 7.54 4.23 11.26
11/6/2020 8:00:00 PM 7.87 46.166 0.109 7.53 4.62 11.27
11/6/2020 8:15:00 PM 7.82 46.076 0.109 7.53 4.42 11.29
11/6/2020 8:30:00 PM 7.77 45.986 0.109 7.53 4.31 11.31
11/6/2020 8:45:00 PM 7.72 45.896 0.109 7.53 4.34 11.32
11/6/2020 9:00:00 PM 7.67 45.806 0.109 7.53 4.27 11.34
11/6/2020 9:15:00 PM 7.63 45.734 0.109 7.53 4.46 11.35
11/6/2020 9:30:00 PM 7.58 45.644 0.109 7.53 4.55 11.37
11/6/2020 9:45:00 PM 7.53 45.554 0.109 7.53 4.38 11.38
11/6/2020 10:00:00 PM 7.47 45.446 0.109 7.53 4.17 11.4
11/6/2020 10:15:00 PM 7.42 45.356 0.109 7.52 4.13 11.41
11/6/2020 10:30:00 PM 7.37 45.266 0.109 7.53 4.2 11.43
11/6/2020 10:45:00 PM 7.32 45.176 0.109 7.54 3.93 11.45
11/6/2020 11:00:00 PM 7.27 45.086 0.109 7.53 4.13 11.47
11/6/2020 11:15:00 PM 7.22 44.996 0.109 7.53 3.88 11.49
11/6/2020 11:30:00 PM 7.18 44.924 0.109 7.53 3.79 11.5
11/6/2020 11:45:00 PM 7.12 44.816 0.109 7.52 4.09 11.52
11/7/2020 12:00:00 AM 7.07 44.726 0.109 7.51 3.97 11.53
11/7/2020 12:15:00 AM 7.02 44.636 0.109 7.52 4.1 11.55
11/7/2020 12:30:00 AM 6.97 44.546 0.109 7.53 3.69 11.56
11/7/2020 12:45:00 AM 6.92 44.456 0.109 7.53 3.84 11.57
11/7/2020 1:00:00 AM 6.87 44.366 0.109 7.53 3.91 11.59
11/7/2020 1:15:00 AM 6.83 44.294 0.109 7.53 3.96 11.6
11/7/2020 1:30:00 AM 6.79 44.222 0.109 7.52 3.79 11.62
11/7/2020 1:45:00 AM 6.73 44.114 0.109 7.51 3.73 11.64
11/7/2020 2:00:00 AM 6.69 44.042 0.109 7.52 4.1 11.65
11/7/2020 2:15:00 AM 6.64 43.952 0.109 7.52 3.97 11.67
11/7/2020 2:30:00 AM 6.61 43.898 0.109 7.52 3.61 11.69
11/7/2020 2:45:00 AM 6.57 43.826 0.109 7.53 3.89 11.7
11/7/2020 3:00:00 AM 6.53 43.754 0.109 7.53 3.64 11.72
11/7/2020 3:15:00 AM 6.48 43.664 0.109 7.51 3.81 11.72
11/7/2020 3:30:00 AM 6.45 43.61 0.109 7.52 3.71 11.74
11/7/2020 3:45:00 AM 6.41 43.538 0.109 7.52 3.88 11.75
11/7/2020 4:00:00 AM 6.36 43.448 0.109 7.53 3.69 11.77
11/7/2020 4:15:00 AM 6.32 43.376 0.109 7.52 3.93 11.78
11/7/2020 4:30:00 AM 6.26 43.268 0.109 7.52 3.63 11.8
11/7/2020 4:45:00 AM 6.22 43.196 0.109 7.51 3.77 11.81
11/7/2020 5:00:00 AM 6.17 43.106 0.109 7.53 3.68 11.83
11/7/2020 5:15:00 AM 6.13 43.034 0.109 7.52 3.57 11.85
11/7/2020 5:30:00 AM 6.09 42.962 0.109 7.53 3.54 11.85
11/7/2020 5:45:00 AM 6.05 42.89 0.109 7.53 3.52 11.87
11/7/2020 6:00:00 AM 6 42.8 0.109 7.5 3.76 11.89
11/7/2020 6:15:00 AM 5.95 42.71 0.109 7.52 3.54 11.91
11/7/2020 6:30:00 AM 5.91 42.638 0.109 7.51 3.68 11.91
11/7/2020 6:45:00 AM 5.86 42.548 0.109 7.51 3.54 11.94
11/7/2020 7:00:00 AM 5.83 42.494 0.109 7.52 3.63 11.96
11/7/2020 7:15:00 AM 5.8 42.44 0.109 7.52 3.68 11.99
11/7/2020 7:30:00 AM 5.78 42.404 0.109 7.53 3.66 12.01
11/7/2020 7:45:00 AM 5.79 42.422 0.109 7.52 3.46 12.03
11/7/2020 8:00:00 AM 5.81 42.458 0.109 7.54 3.48 12.04
11/7/2020 8:15:00 AM 5.85 42.53 0.109 7.53 3.64 12.05
11/7/2020 8:30:00 AM 5.91 42.638 0.109 7.53 3.81 12.04
11/7/2020 8:45:00 AM 5.99 42.782 0.109 7.55 3.63 12.03
11/7/2020 9:00:00 AM 6.08 42.944 0.109 7.55 3.73 12.01
11/7/2020 9:15:00 AM 6.17 43.106 0.109 7.57 3.48 11.99
11/7/2020 9:30:00 AM 6.29 43.322 0.109 7.57 3.69 11.96
11/7/2020 9:45:00 AM 6.4 43.52 0.109 7.56 3.92 11.93
11/7/2020 10:00:00 AM 6.49 43.682 0.109 7.57 3.56 11.9
11/7/2020 10:15:00 AM 6.6 43.88 0.109 7.55 3.62 11.85
11/7/2020 10:30:00 AM 6.71 44.078 0.109 7.57 3.64 11.81
11/7/2020 10:45:00 AM 6.82 44.276 0.109 7.56 3.62 11.76
11/7/2020 11:00:00 AM 6.96 44.528 0.109 7.57 3.65 11.72
11/7/2020 11:15:00 AM 7.07 44.726 0.109 7.57 3.51 11.67
11/7/2020 11:30:00 AM 7.21 44.978 0.109 7.57 3.57 11.61
11/7/2020 11:45:00 AM 7.33 45.194 0.109 7.57 3.71 11.56
11/7/2020 12:00:00 PM 7.45 45.41 0.109 7.57 3.84 11.52
11/7/2020 12:15:00 PM 7.56 45.608 0.109 7.58 3.73 11.48
11/7/2020 12:30:00 PM 7.67 45.806 0.109 7.58 3.7 11.44
11/7/2020 12:45:00 PM 7.78 46.004 0.109 7.59 3.68 11.4
11/7/2020 1:00:00 PM 7.89 46.202 0.109 7.59 3.82 11.37
11/7/2020 1:15:00 PM 7.98 46.364 0.109 7.58 4.11 11.33
11/7/2020 1:30:00 PM 8.07 46.526 0.109 7.59 3.95 11.31
11/7/2020 1:45:00 PM 8.14 46.652 0.109 7.59 3.81 11.27
11/7/2020 2:00:00 PM 8.21 46.778 0.109 7.58 3.89 11.27
11/7/2020 2:15:00 PM 8.28 46.904 0.109 7.58 3.64 11.26
11/7/2020 2:30:00 PM 8.34 47.012 0.109 7.58 4.01 11.23
11/7/2020 2:45:00 PM 8.39 47.102 0.109 7.59 4.34 11.21
11/7/2020 3:00:00 PM 8.42 47.156 0.109 7.58 3.96 11.18
11/7/2020 3:15:00 PM 8.45 47.21 0.109 7.58 4.43 11.17
11/7/2020 3:30:00 PM 8.48 47.264 0.109 7.58 4.42 11.16
11/7/2020 3:45:00 PM 8.51 47.318 0.109 7.57 4.3 11.16
11/7/2020 4:00:00 PM 8.53 47.354 0.109 7.58 4.36 11.16
11/7/2020 4:15:00 PM 8.53 47.354 0.109 7.57 4.24 11.15
11/7/2020 4:30:00 PM 8.52 47.336 0.109 7.55 4.59 11.13
11/7/2020 4:45:00 PM 8.5 47.3 0.109 7.57 4.52 11.14
11/7/2020 5:00:00 PM 8.46 47.228 0.109 7.56 4.3 11.13
11/7/2020 5:15:00 PM 8.42 47.156 0.109 7.56 4.41 11.13
11/7/2020 5:30:00 PM 8.37 47.066 0.109 7.55 4.82 11.14
11/7/2020 5:45:00 PM 8.32 46.976 0.109 7.55 4.56 11.15
11/7/2020 6:00:00 PM 8.26 46.868 0.109 7.56 4.66 11.17
11/7/2020 6:15:00 PM 8.2 46.76 0.114 7.54 4.65 11.19
11/7/2020 6:30:00 PM 8.15 46.67 0.17 7.52 4.38 11.19
11/7/2020 6:45:00 PM 8.09 46.562 0.204 7.51 4.46 11.21
11/7/2020 7:00:00 PM 8.03 46.454 0.182 7.53 3.89 11.24
11/7/2020 7:15:00 PM 7.98 46.364 0.156 7.54 4.08 11.26
11/7/2020 7:30:00 PM 7.92 46.256 0.15 7.54 4.34 11.27
11/7/2020 7:45:00 PM 7.87 46.166 0.263 7.5 3.75 11.28
11/7/2020 8:00:00 PM 7.81 46.058 0.331 7.49 3.56 11.29
11/7/2020 8:15:00 PM 7.76 45.968 0.28 7.52 3.71 11.31
11/7/2020 8:30:00 PM 7.7 45.86 0.221 7.54 3.84 11.34
11/7/2020 8:45:00 PM 7.65 45.77 0.183 7.54 3.72 11.36
11/7/2020 9:00:00 PM 7.59 45.662 0.161 7.55 10.94 11.37
11/7/2020 9:15:00 PM 7.54 45.572 0.147 7.55 4.54 11.39
11/7/2020 9:30:00 PM 7.48 45.464 0.139 7.54 4.27 11.41
11/7/2020 9:45:00 PM 7.43 45.374 0.133 7.54 4.24 11.43
11/7/2020 10:00:00 PM 7.37 45.266 0.129 7.54 4.29 11.45
11/7/2020 10:15:00 PM 7.32 45.176 0.126 7.54 4.13 11.47
11/7/2020 10:30:00 PM 7.27 45.086 0.124 7.53 3.92 11.48
11/7/2020 10:45:00 PM 7.21 44.978 0.122 7.54 3.83 11.5
11/7/2020 11:00:00 PM 7.15 44.87 0.121 7.54 4.02 11.52
11/7/2020 11:15:00 PM 7.1 44.78 0.12 7.54 3.91 11.54
11/7/2020 11:30:00 PM 7.04 44.672 0.119 7.54 3.96 11.55
11/7/2020 11:45:00 PM 6.99 44.582 0.118 7.54 4.61 11.58
11/8/2020 12:00:00 AM 6.94 44.492 0.118 7.54 3.82 11.59
11/8/2020 12:15:00 AM 6.89 44.402 0.117 7.53 3.89 11.6
11/8/2020 12:30:00 AM 6.84 44.312 0.117 7.53 3.89 11.63
11/8/2020 12:45:00 AM 6.78 44.204 0.116 7.54 3.94 11.64
11/8/2020 1:00:00 AM 6.73 44.114 0.116 7.53 3.77 11.66
11/8/2020 1:15:00 AM 6.68 44.024 0.116 7.53 3.65 11.68
11/8/2020 1:30:00 AM 6.62 43.916 0.115 7.53 3.84 11.7
11/8/2020 1:45:00 AM 6.56 43.808 0.115 7.53 3.82 11.71
11/8/2020 2:00:00 AM 6.51 43.718 0.115 7.53 3.97 11.73
11/8/2020 2:15:00 AM 6.46 43.628 0.114 7.53 3.85 11.75
11/8/2020 2:30:00 AM 6.42 43.556 0.114 7.53 3.87 11.76
11/8/2020 2:45:00 AM 6.36 43.448 0.114 7.53 3.6 11.78
11/8/2020 3:00:00 AM 6.31 43.358 0.114 7.54 3.84 11.8
11/8/2020 3:15:00 AM 6.26 43.268 0.114 7.52 3.79 11.81
11/8/2020 3:30:00 AM 6.21 43.178 0.114 7.53 3.6 11.83
11/8/2020 3:45:00 AM 6.16 43.088 0.113 7.53 3.68 11.86
11/8/2020 4:00:00 AM 6.1 42.98 0.113 7.54 3.81 11.87
11/8/2020 4:15:00 AM 6.05 42.89 0.113 7.53 3.73 11.88
11/8/2020 4:30:00 AM 6 42.8 0.113 7.53 3.74 11.91
11/8/2020 4:45:00 AM 5.96 42.728 0.113 7.53 3.59 11.93
11/8/2020 5:00:00 AM 5.91 42.638 0.113 7.53 3.81 11.94
11/8/2020 5:15:00 AM 5.86 42.548 0.113 7.53 3.65 11.96
11/8/2020 5:30:00 AM 5.81 42.458 0.113 7.53 3.57 11.97
11/8/2020 5:45:00 AM 5.76 42.368 0.113 7.53 3.65 12
11/8/2020 6:00:00 AM 5.72 42.296 0.113 7.52 3.73 12.01
11/8/2020 6:15:00 AM 5.67 42.206 0.113 7.54 3.91 12.03
11/8/2020 6:30:00 AM 5.62 42.116 0.112 7.52 3.38 12.05
11/8/2020 6:45:00 AM 5.58 42.044 0.112 7.54 3.73 12.07
11/8/2020 7:00:00 AM 5.54 41.972 0.112 7.54 3.71 12.09
11/8/2020 7:15:00 AM 5.5 41.9 0.112 7.54 3.79 12.1
11/8/2020 7:30:00 AM 5.47 41.846 0.112 7.53 3.46 12.13
11/8/2020 7:45:00 AM 5.46 41.828 0.112 7.53 3.71 12.16
11/8/2020 8:00:00 AM 5.47 41.846 0.112 7.55 3.69 12.17
11/8/2020 8:15:00 AM 5.5 41.9 0.112 7.53 3.69 12.18
11/8/2020 8:30:00 AM 5.55 41.99 0.112 7.56 3.39 12.18
11/8/2020 8:45:00 AM 5.61 42.098 0.112 7.55 3.48 12.18
11/8/2020 9:00:00 AM 5.68 42.224 0.112 7.57 3.79 12.18
11/8/2020 9:15:00 AM 5.76 42.368 0.112 7.55 3.55 12.15
11/8/2020 9:30:00 AM 5.86 42.548 0.111 7.58 3.64 12.14
11/8/2020 9:45:00 AM 5.96 42.728 0.111 7.57 3.61 12.11
11/8/2020 10:00:00 AM 6.05 42.89 0.111 7.57 3.55 12.08
11/8/2020 10:15:00 AM 6.15 43.07 0.111 7.58 3.4 12.04
11/8/2020 10:30:00 AM 6.25 43.25 0.111 7.58 3.49 12
11/8/2020 10:45:00 AM 6.36 43.448 0.111 7.57 3.54 11.95
11/8/2020 11:00:00 AM 6.49 43.682 0.111 7.58 3.59 11.91
11/8/2020 11:15:00 AM 6.6 43.88 0.111 7.56 3.51 11.85
11/8/2020 11:30:00 AM 6.74 44.132 0.111 7.57 3.63 11.8
11/8/2020 11:45:00 AM 6.86 44.348 0.111 7.58 3.72 11.76
11/8/2020 12:00:00 PM 6.97 44.546 0.111 7.58 3.78 11.71
11/8/2020 12:15:00 PM 7.07 44.726 0.111 7.57 3.7 11.67
11/8/2020 12:30:00 PM 7.17 44.906 0.111 7.58 3.69 11.63
11/8/2020 12:45:00 PM 7.27 45.086 0.111 7.58 3.57 11.61
11/8/2020 1:00:00 PM 7.36 45.248 0.111 7.58 3.69 11.57
11/8/2020 1:15:00 PM 7.43 45.374 0.111 7.57 3.9 11.54
11/8/2020 1:30:00 PM 7.5 45.5 0.111 7.58 3.87 11.52
11/8/2020 1:45:00 PM 7.56 45.608 0.111 7.58 3.99 11.49
11/8/2020 2:00:00 PM 7.62 45.716 0.111 7.57 4.1 11.47
11/8/2020 2:15:00 PM 7.67 45.806 0.111 7.59 3.88 11.45
11/8/2020 2:30:00 PM 7.72 45.896 0.111 7.58 4.03 11.43
11/8/2020 2:45:00 PM 7.76 45.968 0.111 7.57 3.79 11.41
11/8/2020 3:00:00 PM 7.8 46.04 0.111 7.57 3.96 11.4
11/8/2020 3:15:00 PM 7.83 46.094 0.111 7.57 3.93 11.39
11/8/2020 3:30:00 PM 7.85 46.13 0.111 7.57 4.3 11.37
11/8/2020 3:45:00 PM 7.87 46.166 0.111 7.57 4.08 11.36
11/8/2020 4:00:00 PM 7.88 46.184 0.111 7.57 4.15 11.36
11/8/2020 4:15:00 PM 7.88 46.184 0.111 7.57 4.03 11.35
11/8/2020 4:30:00 PM 7.88 46.184 0.111 7.57 4.18 11.35
11/8/2020 4:45:00 PM 7.86 46.148 0.111 7.57 4.13 11.35
11/8/2020 5:00:00 PM 7.83 46.094 0.111 7.57 4.3 11.34
11/8/2020 5:15:00 PM 7.8 46.04 0.111 7.55 4.52 11.35
11/8/2020 5:30:00 PM 7.76 45.968 0.111 7.56 7.26 11.35
11/8/2020 5:45:00 PM 7.72 45.896 0.111 7.54 4.94 11.36
11/8/2020 6:00:00 PM 7.68 45.824 0.111 7.56 4.93 11.37
11/8/2020 6:15:00 PM 7.64 45.752 0.111 7.55 5.06 11.39
11/8/2020 6:30:00 PM 7.6 45.68 0.111 7.55 4.78 11.4
11/8/2020 6:45:00 PM 7.56 45.608 0.111 7.55 4.63 11.42
11/8/2020 7:00:00 PM 7.51 45.518 0.111 7.55 4.63 11.43
11/8/2020 7:15:00 PM 7.47 45.446 0.111 7.55 4.68 11.44
11/8/2020 7:30:00 PM 7.42 45.356 0.111 7.54 4.36 11.46
11/8/2020 7:45:00 PM 7.38 45.284 0.111 7.56 4.23 11.47
11/8/2020 8:00:00 PM 7.33 45.194 0.111 7.54 4.61 11.49
11/8/2020 8:15:00 PM 7.29 45.122 0.111 7.55 4.3 11.5
11/8/2020 8:30:00 PM 7.24 45.032 0.111 7.53 4.2 11.52
11/8/2020 8:45:00 PM 7.2 44.96 0.111 7.54 4.33 11.53
11/8/2020 9:00:00 PM 7.15 44.87 0.111 7.54 4.23 11.55
11/8/2020 9:15:00 PM 7.1 44.78 0.111 7.54 4.49 11.56
11/8/2020 9:30:00 PM 7.06 44.708 0.111 7.54 4.38 11.58
11/8/2020 9:45:00 PM 7.02 44.636 0.111 7.54 3.93 11.59
11/8/2020 10:00:00 PM 6.97 44.546 0.111 7.54 4.07 11.6
11/8/2020 10:15:00 PM 6.93 44.474 0.111 7.54 4.3 11.62
11/8/2020 10:30:00 PM 6.88 44.384 0.111 7.54 3.96 11.63
11/8/2020 10:45:00 PM 6.84 44.312 0.111 7.54 4.26 11.64
11/8/2020 11:00:00 PM 6.79 44.222 0.111 7.54 4.04 11.66
11/8/2020 11:15:00 PM 6.75 44.15 0.111 7.52 4.04 11.67
11/8/2020 11:30:00 PM 6.71 44.078 0.111 7.53 4.15 11.68
11/8/2020 11:45:00 PM 6.67 44.006 0.111 7.53 4.01 11.7
11/9/2020 12:00:00 AM 6.62 43.916 0.111 7.53 3.83 11.71
11/9/2020 12:15:00 AM 6.58 43.844 0.111 7.53 3.77 11.73
11/9/2020 12:30:00 AM 6.54 43.772 0.111 7.53 3.91 11.74
11/9/2020 12:45:00 AM 6.5 43.7 0.111 7.53 4.13 11.76
11/9/2020 1:00:00 AM 6.46 43.628 0.111 7.52 3.86 11.77
11/9/2020 1:15:00 AM 6.42 43.556 0.111 7.52 3.87 11.78
11/9/2020 1:30:00 AM 6.38 43.484 0.111 7.53 3.91 11.79
11/9/2020 1:45:00 AM 6.34 43.412 0.111 7.53 4.16 11.8
11/9/2020 2:00:00 AM 6.3 43.34 0.111 7.53 3.75 11.82
11/9/2020 2:15:00 AM 6.26 43.268 0.111 7.54 3.64 11.83
11/9/2020 2:30:00 AM 6.22 43.196 0.111 7.53 4.1 11.84
11/9/2020 2:45:00 AM 6.18 43.124 0.111 7.52 3.99 11.86
11/9/2020 3:00:00 AM 6.14 43.052 0.111 7.53 3.84 11.87
11/9/2020 3:15:00 AM 6.1 42.98 0.111 7.53 3.7 11.89
11/9/2020 3:30:00 AM 6.05 42.89 0.111 7.53 3.59 11.9
11/9/2020 3:45:00 AM 6.01 42.818 0.111 7.53 3.55 11.91
11/9/2020 4:00:00 AM 5.97 42.746 0.111 7.53 3.74 11.93
11/9/2020 4:15:00 AM 5.94 42.692 0.111 7.53 3.6 11.94
11/9/2020 4:30:00 AM 5.89 42.602 0.111 7.53 4 11.95
11/9/2020 4:45:00 AM 5.85 42.53 0.111 7.53 3.88 11.97
11/9/2020 5:00:00 AM 5.82 42.476 0.111 7.53 3.62 11.98
11/9/2020 5:15:00 AM 5.78 42.404 0.111 7.53 3.72 11.98
11/9/2020 5:30:00 AM 5.74 42.332 0.111 7.53 3.94 12.02
11/9/2020 5:45:00 AM 5.69 42.242 0.111 7.53 3.54 12.02
11/9/2020 6:00:00 AM 5.65 42.17 0.111 7.53 3.58 12.03
11/9/2020 6:15:00 AM 5.61 42.098 0.111 7.53 3.86 12.05
11/9/2020 6:30:00 AM 5.57 42.026 0.111 7.54 3.66 12.07
11/9/2020 6:45:00 AM 5.52 41.936 0.111 7.52 3.6 12.08
11/9/2020 7:00:00 AM 5.49 41.882 0.111 7.54 3.48 12.1
11/9/2020 7:15:00 AM 5.46 41.828 0.111 7.53 3.6 12.12
11/9/2020 7:30:00 AM 5.43 41.774 0.111 7.54 3.55 12.14
11/9/2020 7:45:00 AM 5.42 41.756 0.111 7.54 3.47 12.17
11/9/2020 8:00:00 AM 5.44 41.792 0.111 7.54 3.73 12.18
11/9/2020 8:15:00 AM 5.47 41.846 0.111 7.54 3.85 12.19
11/9/2020 8:30:00 AM 5.52 41.936 0.111 7.54 3.92 12.19
11/9/2020 8:45:00 AM 5.59 42.062 0.111 7.57 3.63 12.18
11/9/2020 9:00:00 AM 5.67 42.206 0.111 7.56 3.4 12.17
11/9/2020 9:15:00 AM 5.75 42.35 0.111 7.58 3.4 12.15
11/9/2020 9:30:00 AM 5.85 42.53 0.111 7.57 3.57 12.12
11/9/2020 9:45:00 AM 5.95 42.71 0.111 7.58 3.42 12.1
11/9/2020 10:00:00 AM 6.03 42.854 0.111 7.58 3.64 12.07
11/9/2020 10:15:00 AM 6.14 43.052 0.111 7.57 3.5 12.02
11/9/2020 10:30:00 AM 6.24 43.232 0.111 7.58 3.52 11.98
11/9/2020 10:45:00 AM 6.35 43.43 0.111 7.57 3.55 11.94
11/9/2020 11:00:00 AM 6.48 43.664 0.111 7.59 3.57 11.89
11/9/2020 11:15:00 AM 6.6 43.88 0.111 7.58 3.62 11.83
11/9/2020 11:30:00 AM 6.74 44.132 0.111 7.58 3.54 11.77
11/9/2020 11:45:00 AM 6.87 44.366 0.111 7.58 3.43 11.72
11/9/2020 12:00:00 PM 6.99 44.582 0.111 7.59 3.88 11.68
11/9/2020 12:15:00 PM 7.1 44.78 0.111 7.57 3.7 11.64
11/9/2020 12:30:00 PM 7.2 44.96 0.111 7.59 3.54 11.6
11/9/2020 12:45:00 PM 7.31 45.158 0.111 7.59 3.66 11.56
11/9/2020 1:00:00 PM 7.41 45.338 0.111 7.59 3.86 11.53
11/9/2020 1:15:00 PM 7.5 45.5 0.111 7.58 3.83 11.49
11/9/2020 1:30:00 PM 7.59 45.662 0.111 7.59 3.74 11.46
11/9/2020 1:45:00 PM 7.67 45.806 0.111 7.6 3.76 11.42
11/9/2020 2:00:00 PM 7.74 45.932 0.111 7.6 4.05 11.4
11/9/2020 2:15:00 PM 7.81 46.058 0.111 7.6 4.08 11.37
11/9/2020 2:30:00 PM 7.87 46.166 0.111 7.59 3.78 11.35
11/9/2020 2:45:00 PM 7.91 46.238 0.111 7.6 4 11.33
11/9/2020 3:00:00 PM 7.94 46.292 0.111 7.6 4.11 11.32
11/9/2020 3:15:00 PM 7.96 46.328 0.111 7.58 4.43 11.31
11/9/2020 3:30:00 PM 7.97 46.346 0.111 7.59 4.43 11.3
11/9/2020 3:45:00 PM 7.98 46.364 0.111 7.59 4.28 11.3
11/9/2020 4:00:00 PM 7.99 46.382 0.111 7.59 4.23 11.28
11/9/2020 4:15:00 PM 7.99 46.382 0.111 7.57 4.08 11.28
11/9/2020 4:30:00 PM 7.99 46.382 0.111 7.58 4.27 11.28
11/9/2020 4:45:00 PM 7.98 46.364 0.111 7.57 4.42 11.27
11/9/2020 5:00:00 PM 7.95 46.31 0.111 7.58 4.31 11.26
11/9/2020 5:15:00 PM 7.93 46.274 0.111 7.58 4.49 11.26
11/9/2020 5:30:00 PM 7.9 46.22 0.111 7.57 4.84 11.27
11/9/2020 5:45:00 PM 7.87 46.166 0.111 7.56 4.81 11.27
11/9/2020 6:00:00 PM 7.84 46.112 0.111 7.57 4.85 11.29
11/9/2020 6:15:00 PM 7.8 46.04 0.111 7.58 4.56 11.3
11/9/2020 6:30:00 PM 7.77 45.986 0.111 7.56 4.69 11.31
11/9/2020 6:45:00 PM 7.74 45.932 0.111 7.57 4.61 11.32
11/9/2020 7:00:00 PM 7.71 45.878 0.111 7.57 4.37 11.33
11/9/2020 7:15:00 PM 7.68 45.824 0.111 7.57 4.57 11.34
11/9/2020 7:30:00 PM 7.66 45.788 0.111 7.57 4.32 11.35
11/9/2020 7:45:00 PM 7.63 45.734 0.111 7.54 4.63 11.35
11/9/2020 8:00:00 PM 7.61 45.698 0.111 7.56 4.41 11.36
11/9/2020 8:15:00 PM 7.58 45.644 0.111 7.55 4.39 11.37
11/9/2020 8:30:00 PM 7.55 45.59 0.111 7.54 4.27 11.37
11/9/2020 8:45:00 PM 7.53 45.554 0.111 7.56 4.59 11.38
11/9/2020 9:00:00 PM 7.51 45.518 0.111 7.56 4.24 11.39
11/9/2020 9:15:00 PM 7.47 45.446 0.111 7.55 4.07 11.4
11/9/2020 9:30:00 PM 7.44 45.392 0.111 7.56 4.16 11.41
11/9/2020 9:45:00 PM 7.41 45.338 0.111 7.53 3.99 11.42
11/9/2020 10:00:00 PM 7.38 45.284 0.111 7.55 3.99 11.43
11/9/2020 10:15:00 PM 7.35 45.23 0.111 7.56 4.07 11.43
11/9/2020 10:30:00 PM 7.32 45.176 0.111 7.54 3.96 11.45
11/9/2020 10:45:00 PM 7.29 45.122 0.111 7.54 4.04 11.45
11/9/2020 11:00:00 PM 7.25 45.05 0.111 7.56 4.14 11.46
11/9/2020 11:15:00 PM 7.21 44.978 0.111 7.54 4.15 11.47
11/9/2020 11:30:00 PM 7.18 44.924 0.111 7.55 4.3 11.48
11/9/2020 11:45:00 PM 7.14 44.852 0.111 7.54 4.27 11.49
11/10/2020 12:00:00 AM 7.11 44.798 0.111 7.54 4.02 11.5
11/10/2020 12:15:00 AM 7.07 44.726 0.111 7.55 3.89 11.51
11/10/2020 12:30:00 AM 7.04 44.672 0.111 7.54 4.02 11.52
11/10/2020 12:45:00 AM 7 44.6 0.112 7.53 3.76 11.54
11/10/2020 1:00:00 AM 6.97 44.546 0.112 7.54 4.25 11.54
11/10/2020 1:15:00 AM 6.94 44.492 0.112 7.55 3.72 11.55
11/10/2020 1:30:00 AM 6.9 44.42 0.112 7.53 3.93 11.56
11/10/2020 1:45:00 AM 6.87 44.366 0.112 7.55 4.21 11.57
11/10/2020 2:00:00 AM 6.83 44.294 0.112 7.54 3.79 11.58
11/10/2020 2:15:00 AM 6.8 44.24 0.112 7.55 4.05 11.6
11/10/2020 2:30:00 AM 6.77 44.186 0.112 7.54 3.8 11.6
11/10/2020 2:45:00 AM 6.74 44.132 0.112 7.54 3.72 11.61
11/10/2020 3:00:00 AM 6.71 44.078 0.112 7.54 3.75 11.62
11/10/2020 3:15:00 AM 6.68 44.024 0.112 7.54 3.92 11.63
11/10/2020 3:30:00 AM 6.65 43.97 0.112 7.54 3.81 11.64
11/10/2020 3:45:00 AM 6.62 43.916 0.112 7.53 3.92 11.65
11/10/2020 4:00:00 AM 6.59 43.862 0.112 7.54 3.85 11.66
11/10/2020 4:15:00 AM 6.56 43.808 0.112 7.54 4.09 11.67
11/10/2020 4:30:00 AM 6.53 43.754 0.112 7.54 3.77 11.68
11/10/2020 4:45:00 AM 6.49 43.682 0.112 7.54 4.01 11.69
11/10/2020 5:00:00 AM 6.46 43.628 0.112 7.53 3.83 11.7
11/10/2020 5:15:00 AM 6.43 43.574 0.112 7.54 4.06 11.71
11/10/2020 5:30:00 AM 6.4 43.52 0.112 7.54 3.67 11.72
11/10/2020 5:45:00 AM 6.37 43.466 0.112 7.52 4.09 11.73
11/10/2020 6:00:00 AM 6.34 43.412 0.112 7.54 3.86 11.74
11/10/2020 6:15:00 AM 6.31 43.358 0.112 7.53 3.92 11.75
11/10/2020 6:30:00 AM 6.28 43.304 0.112 7.53 4.24 11.76
11/10/2020 6:45:00 AM 6.24 43.232 0.112 7.53 3.92 11.77
11/10/2020 7:00:00 AM 6.22 43.196 0.112 7.54 3.47 11.79
11/10/2020 7:15:00 AM 6.2 43.16 0.112 7.54 3.98 11.8
11/10/2020 7:30:00 AM 6.18 43.124 0.112 7.55 3.93 11.83
11/10/2020 7:45:00 AM 6.19 43.142 0.112 7.54 3.89 11.84
11/10/2020 8:00:00 AM 6.21 43.178 0.112 7.56 3.9 11.86
11/10/2020 8:15:00 AM 6.25 43.25 0.112 7.56 3.65 11.87
11/10/2020 8:30:00 AM 6.3 43.34 0.112 7.57 3.88 11.86
11/10/2020 8:45:00 AM 6.37 43.466 0.111 7.57 3.63 11.85
11/10/2020 9:00:00 AM 6.45 43.61 0.111 7.57 3.95 11.84
11/10/2020 9:15:00 AM 6.53 43.754 0.111 7.58 3.84 11.82
11/10/2020 9:30:00 AM 6.64 43.952 0.111 7.58 4.21 11.79
11/10/2020 9:45:00 AM 6.74 44.132 0.111 7.58 3.81 11.77
11/10/2020 10:00:00 AM 6.83 44.294 0.111 7.58 3.81 11.73
11/10/2020 10:15:00 AM 6.93 44.474 0.111 7.58 3.93 11.69
11/10/2020 10:30:00 AM 7.04 44.672 0.111 7.58 4.1 11.65
11/10/2020 10:45:00 AM 7.16 44.888 0.111 7.58 4.37 11.6
11/10/2020 11:00:00 AM 7.31 45.158 0.111 7.59 4.12 11.55
11/10/2020 11:15:00 AM 7.47 45.446 0.111 7.6 3.99 11.48
11/10/2020 11:30:00 AM 7.66 45.788 0.111 7.6 4.06 11.42
11/10/2020 11:45:00 AM 7.84 46.112 0.111 7.6 4.48 11.36
11/10/2020 12:00:00 PM 7.99 46.382 0.111 7.6 4.43 11.3
11/10/2020 12:15:00 PM 8.15 46.67 0.111 7.62 4.61 11.24
11/10/2020 12:30:00 PM 8.3 46.94 0.111 7.61 4.3 11.18
11/10/2020 12:45:00 PM 8.45 47.21 0.111 7.62 4.54 11.14
11/10/2020 1:00:00 PM 8.6 47.48 0.111 7.61 4.1 11.09
11/10/2020 1:15:00 PM 8.68 47.624 0.111 7.61 4.35 11.06
11/10/2020 1:30:00 PM 8.77 47.786 0.111 7.6 4.28 11.03
11/10/2020 1:45:00 PM 8.87 47.966 0.111 7.61 4.59 11
11/10/2020 2:00:00 PM 8.95 48.11 0.111 7.61 4.26 10.96
11/10/2020 2:15:00 PM 9.05 48.29 0.111 7.61 4.68 10.93
11/10/2020 2:30:00 PM 9.11 48.398 0.111 7.61 4.83 10.91
11/10/2020 2:45:00 PM 9.16 48.488 0.111 7.61 4.37 10.89
11/10/2020 3:00:00 PM 9.19 48.542 0.111 7.61 4.49 10.88
11/10/2020 3:15:00 PM 9.22 48.596 0.111 7.6 4.59 10.87
11/10/2020 3:30:00 PM 9.25 48.65 0.111 7.6 5.12 10.85
11/10/2020 3:45:00 PM 9.28 48.704 0.111 7.6 4.64 10.84
11/10/2020 4:00:00 PM 9.29 48.722 0.111 7.6 4.51 10.83
11/10/2020 4:15:00 PM 9.3 48.74 0.111 7.59 4.66 10.82
11/10/2020 4:30:00 PM 9.29 48.722 0.111 7.59 4.59 10.82
11/10/2020 4:45:00 PM 9.28 48.704 0.111 7.59 4.49 10.81
11/10/2020 5:00:00 PM 9.27 48.686 0.111 7.58 4.66 10.8
11/10/2020 5:15:00 PM 9.24 48.632 0.111 7.59 4.62 10.8
11/10/2020 5:30:00 PM 9.22 48.596 0.111 7.58 5.2 10.8
11/10/2020 5:45:00 PM 9.19 48.542 0.111 7.58 4.99 10.8
11/10/2020 6:00:00 PM 9.17 48.506 0.112 7.57 5.18 10.81
11/10/2020 6:15:00 PM 9.14 48.452 0.112 7.58 5.34 10.82
11/10/2020 6:30:00 PM 9.11 48.398 0.112 7.56 4.65 10.83
11/10/2020 6:45:00 PM 9.09 48.362 0.112 7.57 4.57 10.84
11/10/2020 7:00:00 PM 9.07 48.326 0.112 7.58 5.35 10.85
11/10/2020 7:15:00 PM 9.04 48.272 0.112 7.57 4.67 10.85
11/10/2020 7:30:00 PM 9.02 48.236 0.112 7.56 5.29 10.85
11/10/2020 7:45:00 PM 9 48.2 0.112 7.56 4.78 10.86
11/10/2020 8:00:00 PM 8.98 48.164 0.112 7.57 4.55 10.87
11/10/2020 8:15:00 PM 8.96 48.128 0.112 7.57 4.27 10.87
11/10/2020 8:30:00 PM 8.95 48.11 0.112 7.57 4.53 10.88
11/10/2020 8:45:00 PM 8.93 48.074 0.112 7.57 4.55 10.88
11/10/2020 9:00:00 PM 8.93 48.074 0.112 7.57 4.63 10.89
11/10/2020 9:15:00 PM 8.92 48.056 0.112 7.57 4.65 10.89
11/10/2020 9:30:00 PM 8.91 48.038 0.112 7.57 4.48 10.89
11/10/2020 9:45:00 PM 8.9 48.02 0.112 7.57 4.48 10.89
11/10/2020 10:00:00 PM 8.9 48.02 0.112 7.57 4.81 10.89
11/10/2020 10:15:00 PM 8.89 48.002 0.112 7.56 4.19 10.89
11/10/2020 10:30:00 PM 8.89 48.002 0.112 7.56 4.48 10.89
11/10/2020 10:45:00 PM 8.89 48.002 0.112 7.56 4.31 10.89
11/10/2020 11:00:00 PM 8.89 48.002 0.112 7.57 4.4 10.89
11/10/2020 11:15:00 PM 8.89 48.002 0.112 7.56 4.11 10.89
11/10/2020 11:30:00 PM 8.9 48.02 0.112 7.58 4.18 10.88
11/10/2020 11:45:00 PM 8.9 48.02 0.112 7.56 4.4 10.88
11/11/2020 12:00:00 AM 8.9 48.02 0.112 7.58 4.36 10.88
11/11/2020 12:15:00 AM 8.9 48.02 0.112 7.58 4.31 10.88
11/11/2020 12:30:00 AM 8.9 48.02 0.112 7.56 4.07 10.88
11/11/2020 12:45:00 AM 8.9 48.02 0.112 7.57 4.07 10.87
11/11/2020 1:00:00 AM 8.9 48.02 0.112 7.57 4.14 10.88
11/11/2020 1:15:00 AM 8.9 48.02 0.112 7.57 4.77 10.87
11/11/2020 1:30:00 AM 8.9 48.02 0.112 7.57 4.14 10.87
11/11/2020 1:45:00 AM 8.9 48.02 0.112 7.57 4.33 10.87
11/11/2020 2:00:00 AM 8.89 48.002 0.112 7.56 4.49 10.87
11/11/2020 2:15:00 AM 8.89 48.002 0.112 7.57 4.42 10.86
11/11/2020 2:30:00 AM 8.89 48.002 0.112 7.58 4.04 10.87
11/11/2020 2:45:00 AM 8.89 48.002 0.112 7.56 4.09 10.87
11/11/2020 3:00:00 AM 8.89 48.002 0.112 7.57 4.11 10.86
11/11/2020 3:15:00 AM 8.89 48.002 0.112 7.56 4.23 10.87
11/11/2020 3:30:00 AM 8.9 48.02 0.112 7.58 4 10.87
11/11/2020 3:45:00 AM 8.9 48.02 0.112 7.58 4.18 10.86
11/11/2020 4:00:00 AM 8.9 48.02 0.112 7.57 4.15 10.86
11/11/2020 4:15:00 AM 8.9 48.02 0.112 7.55 3.92 10.86
11/11/2020 4:30:00 AM 8.91 48.038 0.112 7.57 3.98 10.85
11/11/2020 4:45:00 AM 8.91 48.038 0.112 7.58 4 10.85
11/11/2020 5:00:00 AM 8.92 48.056 0.112 7.56 4.09 10.85
11/11/2020 5:15:00 AM 8.92 48.056 0.112 7.57 4.34 10.85
11/11/2020 5:30:00 AM 8.94 48.092 0.112 7.57 4.08 10.85
11/11/2020 5:45:00 AM 8.97 48.146 0.112 7.55 3.94 10.84
11/11/2020 6:00:00 AM 9.02 48.236 0.112 7.57 4.06 10.83
11/11/2020 6:15:00 AM 9.05 48.29 0.112 7.54 4.54 10.82
11/11/2020 6:30:00 AM 9.09 48.362 0.112 7.55 4.4 10.8
11/11/2020 6:45:00 AM 9.14 48.452 0.112 7.56 6.54 10.79
11/11/2020 7:00:00 AM 9.18 48.524 0.112 7.53 5.22 10.76
11/11/2020 7:15:00 AM 9.24 48.632 0.112 7.55 5.08 10.75
11/11/2020 7:30:00 AM 9.31 48.758 0.11 7.52 8.31 10.71
11/11/2020 7:45:00 AM 9.42 48.956 0.107 7.51 8.84 10.67
11/11/2020 8:00:00 AM 9.51 49.118 0.105 7.51 9.37 10.64
11/11/2020 8:15:00 AM 9.6 49.28 0.103 7.49 12.72 10.63
11/11/2020 8:30:00 AM 9.7 49.46 0.1 7.49 14.78 10.62
11/11/2020 8:45:00 AM 9.83 49.694 0.097 7.48 20.08 10.61
11/11/2020 9:00:00 AM 9.94 49.892 0.096 7.46 32.62 10.61
11/11/2020 9:15:00 AM 10.07 50.126 0.095 7.47 153.74 10.62
11/11/2020 9:30:00 AM 10.19 50.342 0.095 7.47 67.45 10.63
11/11/2020 9:45:00 AM 10.32 50.576 0.092 7.49 78.11 10.65
11/11/2020 10:00:00 AM 10.38 50.684 0.094 7.48 90.43 10.68
11/11/2020 10:15:00 AM 10.45 50.81 0.096 7.47 121.14 10.68
11/11/2020 10:30:00 AM 10.59 51.062 0.091 7.42 95.47 10.67
11/11/2020 10:45:00 AM 10.69 51.242 0.088 7.45 177.97 10.68
11/11/2020 11:00:00 AM 10.81 51.458 0.086 7.43 132.14 10.67
11/11/2020 11:15:00 AM 10.9 51.62 0.079 7.39 238.36 10.69
11/11/2020 11:30:00 AM 10.95 51.71 0.072 7.35 240.78 10.71
11/11/2020 11:45:00 AM 10.97 51.746 0.067 7.25 260.27 10.73
11/11/2020 12:00:00 PM 10.97 51.746 0.062 7.23 155.5 10.74
11/11/2020 12:15:00 PM 11.02 51.836 0.06 7.21 367.52 10.73
11/11/2020 12:30:00 PM 11.04 51.872 0.056 7.08 391.08 10.73
11/11/2020 12:45:00 PM 11.03 51.854 0.059 7.15 358.57 10.74
11/11/2020 1:00:00 PM 10.99 51.782 0.052 7.11 704.59 10.6
11/11/2020 1:15:00 PM 10.96 51.728 0.047 7.07 256.23 10.41
11/11/2020 1:30:00 PM 10.94 51.692 0.051 7.09 806.08 10.71
11/11/2020 1:45:00 PM 10.93 51.674 0.055 7.09 131.44 10.69
11/11/2020 2:00:00 PM 10.91 51.638 0.052 7.07 1367.65 10.73
11/11/2020 2:15:00 PM 10.9 51.62 0.049 7.12 149.25 10.68
11/11/2020 2:30:00 PM 10.88 51.584 0.061 7.02 123.68 10.51
11/11/2020 2:45:00 PM 10.88 51.584 0.056 7.13 174 10.06
11/11/2020 3:00:00 PM 10.87 51.566 0.061 7.1 267.51 10.54
11/11/2020 3:15:00 PM 10.87 51.566 0.054 7.13 924.16 10.73
11/11/2020 3:30:00 PM 10.88 51.584 0.033 7.12 549.62 10.74
11/11/2020 3:45:00 PM 10.9 51.62 0.035 7.15 196.39 10.71
11/11/2020 4:00:00 PM 10.9 51.62 0.032 7.11 209.49 10.72
11/11/2020 4:15:00 PM 10.91 51.638 0.063 7.14 120.14 10.72
11/11/2020 4:30:00 PM 10.91 51.638 0.057 7.08 333.51 10.72
11/11/2020 4:45:00 PM 10.92 51.656 0.059 7.13 146.38 10.71
11/11/2020 5:00:00 PM 10.92 51.656 0.062 7.08 117.98 10.7
11/11/2020 5:15:00 PM 10.91 51.638 0.058 7.13 158.75 10.71
11/11/2020 5:30:00 PM 10.91 51.638 0.064 7.13 116.79 10.72
11/11/2020 5:45:00 PM 10.9 51.62 0.064 7.06 114.84 10.7
11/11/2020 6:00:00 PM 10.89 51.602 0.064 7.13 62.96 10.72
11/11/2020 6:15:00 PM 10.9 51.62 0.064 7.09 77.07 10.71
11/11/2020 6:30:00 PM 10.9 51.62 0.064 7.15 66.65 10.7
11/11/2020 6:45:00 PM 10.88 51.584 0.065 7.11 99.08 10.71
11/11/2020 7:00:00 PM 10.87 51.566 0.065 7.15 137.51 10.71
11/11/2020 7:15:00 PM 10.85 51.53 0.065 7.07 1719.71 10.71
11/11/2020 7:30:00 PM 10.85 51.53 0.065 7.12 1185 10.72
11/11/2020 7:45:00 PM 10.85 51.53 0.066 7.18 61.49 10.71
11/11/2020 8:00:00 PM 10.85 51.53 0.066 7.11 3160.17 10.7
11/11/2020 8:15:00 PM 10.83 51.494 0.066 7.11 63.22 10.7
11/11/2020 8:30:00 PM 10.82 51.476 0.067 7.03 46.21 10.7
11/11/2020 8:45:00 PM 10.81 51.458 0.067 7.09 49.35 10.71
11/11/2020 9:00:00 PM 10.8 51.44 0.067 7.13 486.36 10.71
11/11/2020 9:15:00 PM 10.83 51.494 0.068 7.13 45.88 10.71
11/11/2020 9:30:00 PM 10.89 51.602 0.066 7.22 254.09 10.7
11/11/2020 9:45:00 PM 10.89 51.602 0.068 7.23 46.99 10.69
11/11/2020 10:00:00 PM 10.88 51.584 0.068 7.24 44.67 10.71
11/11/2020 10:15:00 PM 10.88 51.584 0.068 7.27 43.63 10.69
11/11/2020 10:30:00 PM 10.86 51.548 0.068 7.21 42.57 10.71
11/11/2020 10:45:00 PM 10.84 51.512 0.068 7.24 43.45 10.7
11/11/2020 11:00:00 PM 10.82 51.476 0.069 7.29 43.21 10.71
11/11/2020 11:15:00 PM 10.8 51.44 0.069 7.25 37.96 10.71
11/11/2020 11:30:00 PM 10.78 51.404 0.059 7.31 151.03 10.73
11/11/2020 11:45:00 PM 10.74 51.332 0.06 7.22 232.46 10.72
11/12/2020 12:00:00 AM 10.71 51.278 0.044 7.3 35.14 10.74
11/12/2020 12:15:00 AM 10.66 51.188 0.068 7.21 105.61 10.76
11/12/2020 12:30:00 AM 10.62 51.116 0.058 7.25 146.47 10.76
11/12/2020 12:45:00 AM 10.58 51.044 0.044 7.31 46.13 10.78
11/12/2020 1:00:00 AM 10.54 50.972 0.067 7.29 76.36 10.78
11/12/2020 1:15:00 AM 10.49 50.882 0.07 7.33 30.5 10.79
11/12/2020 1:30:00 AM 10.46 50.828 0.046 7.29 493.43 10.8
11/12/2020 1:45:00 AM 10.41 50.738 0.064 7.32 783.83 10.82
11/12/2020 2:00:00 AM 10.35 50.63 0.07 7.29 220.45 10.83
11/12/2020 2:15:00 AM 10.31 50.558 0.071 7.32 29.72 10.84
11/12/2020 2:30:00 AM 10.26 50.468 0.071 7.27 194.68 10.85
11/12/2020 2:45:00 AM 10.19 50.342 0.071 7.31 30.26 10.87
11/12/2020 3:00:00 AM 10.12 50.216 0.071 7.28 30.37 10.89
11/12/2020 3:15:00 AM 10.06 50.108 0.071 7.33 29.14 10.91
11/12/2020 3:30:00 AM 9.99 49.982 0.071 7.29 30.79 10.93
11/12/2020 3:45:00 AM 9.92 49.856 0.072 7.3 30.46 10.94
11/12/2020 4:00:00 AM 9.86 49.748 0.072 7.29 29.01 10.96
11/12/2020 4:15:00 AM 9.8 49.64 0.071 7.34 29.8 10.97
11/12/2020 4:30:00 AM 9.73 49.514 0.072 7.34 30.32 10.99
11/12/2020 4:45:00 AM 9.66 49.388 0.072 7.35 29.1 11.01
11/12/2020 5:00:00 AM 9.61 49.298 0.072 7.34 28.75 11.03
11/12/2020 5:15:00 AM 9.56 49.208 0.072 7.35 27.74 11.05
11/12/2020 5:30:00 AM 9.5 49.1 0.073 7.34 39.04 11.06
11/12/2020 5:45:00 AM 9.44 48.992 0.073 7.34 28.33 11.08
11/12/2020 6:00:00 AM 9.39 48.902 0.073 7.32 27.72 11.09
11/12/2020 6:15:00 AM 9.32 48.776 0.073 7.29 26.9 11.11
11/12/2020 6:30:00 AM 9.27 48.686 0.073 7.33 26.42 11.12
11/12/2020 6:45:00 AM 9.22 48.596 0.073 7.31 26.19 11.14
11/12/2020 7:00:00 AM 9.17 48.506 0.072 7.32 227.17 11.15
11/12/2020 7:15:00 AM 9.12 48.416 0.068 7.32 1834.63 11.17
11/12/2020 7:30:00 AM 9.06 48.308 0.074 7.34 26.78 11.2
11/12/2020 7:45:00 AM 9.02 48.236 0.074 7.33 25.58 11.22
11/12/2020 8:00:00 AM 8.97 48.146 0.074 7.33 25.41 11.24
11/12/2020 8:15:00 AM 8.92 48.056 0.074 7.28 25.8 11.25
11/12/2020 8:30:00 AM 8.87 47.966 0.074 7.34 24.91 11.27
11/12/2020 8:45:00 AM 8.83 47.894 0.074 7.35 21.98 11.28
11/12/2020 9:00:00 AM 8.77 47.786 0.074 7.35 28.06 11.3
11/12/2020 9:15:00 AM 8.73 47.714 0.074 7.33 25.62 11.32
11/12/2020 9:30:00 AM 8.69 47.642 0.074 7.34 24.35 11.34
11/12/2020 9:45:00 AM 8.66 47.588 0.074 7.34 37.88 11.36
11/12/2020 10:00:00 AM 8.64 47.552 0.075 7.35 25.29 11.36
11/12/2020 10:15:00 AM 8.61 47.498 0.075 7.36 23.56 11.37
11/12/2020 10:30:00 AM 8.59 47.462 0.075 7.35 21 11.39
11/12/2020 10:45:00 AM 8.57 47.426 0.075 7.35 21.1 11.39
11/12/2020 11:00:00 AM 8.55 47.39 0.075 7.36 24.81 11.39
11/12/2020 11:15:00 AM 8.54 47.372 0.075 7.36 22.17 11.4
11/12/2020 11:30:00 AM 8.51 47.318 0.075 7.36 21.4 11.4
11/12/2020 11:45:00 AM 8.47 47.246 0.075 7.37 28.85 11.42
11/12/2020 12:00:00 PM 8.45 47.21 0.075 7.38 22.21 11.44
11/12/2020 12:15:00 PM 8.44 47.192 0.071 7.36 20.87 11.44
11/12/2020 12:30:00 PM 8.45 47.21 0.075 7.37 23.91 11.44
11/12/2020 12:45:00 PM 8.46 47.228 0.076 7.38 20.61 11.43
11/12/2020 1:00:00 PM 8.47 47.246 0.076 7.38 21.77 11.42
11/12/2020 1:15:00 PM 8.47 47.246 0.076 7.38 22.4 11.42
11/12/2020 1:30:00 PM 8.47 47.246 0.076 7.38 23.39 11.42
11/12/2020 1:45:00 PM 8.44 47.192 0.076 7.39 22.31 11.41
11/12/2020 2:00:00 PM 8.4 47.12 0.076 7.39 21.4 11.42
11/12/2020 2:15:00 PM 8.36 47.048 0.076 7.4 22.51 11.43
11/12/2020 2:30:00 PM 8.35 47.03 0.076 7.39 25.51 11.43
11/12/2020 2:45:00 PM 8.32 46.976 0.076 7.37 25.83 11.45
11/12/2020 3:00:00 PM 8.27 46.886 0.076 7.39 38.46 11.45
11/12/2020 3:15:00 PM 8.21 46.778 0.076 7.39 27.31 11.45
11/12/2020 3:30:00 PM 8.15 46.67 0.077 7.38 23.86 11.47
11/12/2020 3:45:00 PM 8.12 46.616 0.077 7.39 26.15 11.48
11/12/2020 4:00:00 PM 8.08 46.544 0.077 7.39 22.96 11.48
11/12/2020 4:15:00 PM 8.01 46.418 0.077 7.38 27.89 11.48
11/12/2020 4:30:00 PM 7.94 46.292 0.077 7.38 29.98 11.49
11/12/2020 4:45:00 PM 7.88 46.184 0.077 7.38 26.54 11.5
11/12/2020 5:00:00 PM 7.82 46.076 0.076 7.38 25.75 11.51
11/12/2020 5:15:00 PM 7.74 45.932 0.077 7.36 27.68 11.52
11/12/2020 5:30:00 PM 7.67 45.806 0.077 7.37 37.15 11.54
11/12/2020 5:45:00 PM 7.6 45.68 0.077 7.36 30.91 11.56
11/12/2020 6:00:00 PM 7.53 45.554 0.078 7.36 38.62 11.58
11/12/2020 6:15:00 PM 7.46 45.428 0.078 7.35 23.82 11.6
11/12/2020 6:30:00 PM 7.39 45.302 0.078 7.36 42.85 11.62
11/12/2020 6:45:00 PM 7.32 45.176 0.078 7.36 29.5 11.65
11/12/2020 7:00:00 PM 7.24 45.032 0.078 7.36 25.63 11.68
11/12/2020 7:15:00 PM 7.16 44.888 0.078 7.36 49.14 11.7
11/12/2020 7:30:00 PM 7.08 44.744 0.078 7.37 82.83 11.72
11/12/2020 7:45:00 PM 7 44.6 0.078 7.33 36.11 11.75
11/12/2020 8:00:00 PM 6.92 44.456 0.078 7.36 48.27 11.77
11/12/2020 8:15:00 PM 6.85 44.33 0.079 7.37 56.51 11.79
11/12/2020 8:30:00 PM 6.77 44.186 0.079 7.35 52.73 11.81
11/12/2020 8:45:00 PM 6.69 44.042 0.079 7.37 52.41 11.84
11/12/2020 9:00:00 PM 6.61 43.898 0.079 7.36 37.83 11.86
11/12/2020 9:15:00 PM 6.54 43.772 0.079 7.34 35.84 11.88
11/12/2020 9:30:00 PM 6.46 43.628 0.079 7.36 46.86 11.91
11/12/2020 9:45:00 PM 6.38 43.484 0.079 7.36 54.07 11.93
11/12/2020 10:00:00 PM 6.31 43.358 0.079 7.33 47.18 11.95
11/12/2020 10:15:00 PM 6.24 43.232 0.079 7.36 53.71 11.97
11/12/2020 10:30:00 PM 6.17 43.106 0.079 7.34 130.44 11.99
11/12/2020 10:45:00 PM 6.1 42.98 0.079 7.35 67.79 12.01
11/12/2020 11:00:00 PM 6.04 42.872 0.079 7.36 61.53 12.03
11/12/2020 11:15:00 PM 5.99 42.782 0.079 7.36 74.12 12.06
11/12/2020 11:30:00 PM 5.97 42.746 0.08 7.36 42.31 12.05
11/12/2020 11:45:00 PM 5.94 42.692 0.08 7.37 64.92 12.06
11/13/2020 12:00:00 AM 5.92 42.656 0.08 7.36 110.95 12.07
11/13/2020 12:15:00 AM 5.89 42.602 0.08 7.35 55.44 12.07
11/13/2020 12:30:00 AM 5.86 42.548 0.08 7.37 52 12.09
11/13/2020 12:45:00 AM 5.83 42.494 0.08 7.36 47.44 12.09
11/13/2020 1:00:00 AM 5.78 42.404 0.08 7.37 48.04 12.11
11/13/2020 1:15:00 AM 5.75 42.35 0.08 7.37 72.1 12.12
11/13/2020 1:30:00 AM 5.7 42.26 0.08 7.36 94.05 12.13
11/13/2020 1:45:00 AM 5.66 42.188 0.08 7.37 68.57 12.15
11/13/2020 2:00:00 AM 5.62 42.116 0.08 7.36 58.06 12.15
11/13/2020 2:15:00 AM 5.57 42.026 0.08 7.36 59.4 12.17
11/13/2020 2:30:00 AM 5.53 41.954 0.08 7.36 46.47 12.18
11/13/2020 2:45:00 AM 5.47 41.846 0.08 7.37 60.5 12.2
11/13/2020 3:00:00 AM 5.42 41.756 0.08 7.37 126.39 12.22
11/13/2020 3:15:00 AM 5.38 41.684 0.08 7.36 100.14 12.23
11/13/2020 3:30:00 AM 5.33 41.594 0.081 7.37 71.09 12.25
11/13/2020 3:45:00 AM 5.28 41.504 0.081 7.37 322.91 12.26
11/13/2020 4:00:00 AM 5.24 41.432 0.081 7.37 52.02 12.27
11/13/2020 4:15:00 AM 5.2 41.36 0.081 7.36 55.52 12.28
11/13/2020 4:30:00 AM 5.15 41.27 0.081 7.38 92.6 12.29
11/13/2020 4:45:00 AM 5.12 41.216 0.081 7.37 98.11 12.31
11/13/2020 5:00:00 AM 5.08 41.144 0.081 7.36 106.31 12.32
11/13/2020 5:15:00 AM 5.04 41.072 0.081 7.37 131.54 12.33
11/13/2020 5:30:00 AM 5 41 0.081 7.37 21.57 12.34
11/13/2020 5:45:00 AM 4.96 40.928 0.081 7.37 76.44 12.35
11/13/2020 6:00:00 AM 4.93 40.874 0.081 7.36 41.38 12.36
11/13/2020 6:15:00 AM 4.89 40.802 0.081 7.37 120.5 12.37
11/13/2020 6:30:00 AM 4.86 40.748 0.081 7.36 62.24 12.39
11/13/2020 6:45:00 AM 4.81 40.658 0.081 7.37 87.3 12.4
11/13/2020 7:00:00 AM 4.79 40.622 0.081 7.37 76.12 12.41
11/13/2020 7:15:00 AM 4.76 40.568 0.081 7.38 51.46 12.42
11/13/2020 7:30:00 AM 4.76 40.568 0.081 7.38 71.31 12.45
11/13/2020 7:45:00 AM 4.75 40.55 0.081 7.39 77.07 12.45
11/13/2020 8:00:00 AM 4.77 40.586 0.081 7.39 63.63 12.47
11/13/2020 8:15:00 AM 4.76 40.568 0.081 7.39 73.82 12.46
11/13/2020 8:30:00 AM 4.75 40.55 0.081 7.39 88.15 12.47
11/13/2020 8:45:00 AM 4.75 40.55 0.082 7.39 67.9 12.48
11/13/2020 9:00:00 AM 4.78 40.604 0.082 7.39 86.9 12.47
11/13/2020 9:15:00 AM 4.85 40.73 0.082 7.4 81.98 12.47
11/13/2020 9:30:00 AM 4.97 40.946